LS776 / G-DRTW 7700 Squawk Report (4th of October, 2021)

Aircraft B738 Reg No. G-DRTW Age 21 years old
Model 737 Jet engines 2 First flight 06-03-00
Registered 21-03-19 Rollout N/A Delivered 30-04-00
Construction No. 28618 Line No. 0514 Series 86N
ADSHEX 4077BB Airline name Jet2 Owner N/A
Airfield based Leeds-Bradford~Yorks~G First tracked N/A

Flight history for G-DRTW

Route Flight No Date Playback
Rhodes Diagoras (RHO) - Edinburgh (EDI) LS726 2021-10-19 22:20:00
???? N/A 2021-10-19 16:33:00
Edinburgh (EDI) - Kos (KGS) LS733 2021-10-19 15:08:00
Nikos Kazantzakis (HER) - Edinburgh (EDI) LS714 2021-10-19 00:32:00
Edinburgh (EDI) - Nikos Kazantzakis (HER) LS713 2021-10-18 18:39:00
Faro (FAO) - Edinburgh (EDI) LS816 2021-10-18 14:42:00
Edinburgh (EDI) - Faro (FAO) LS815 2021-10-18 09:06:00
Arrecife Airport (ACE) - Edinburgh (EDI) LS706 2021-10-18 00:12:00
Edinburgh (EDI) - Arrecife Airport (ACE) LS705 2021-10-17 19:10:00
Faro (FAO) - Edinburgh (EDI) LS816 2021-10-17 14:51:00
Edinburgh (EDI) - Faro (FAO) LS815 2021-10-17 10:42:00
Fuerteventura (FUE) - Edinburgh (EDI) LS746 2021-10-17 01:04:00
Edinburgh (EDI) - Fuerteventura (FUE) LS745 2021-10-16 19:35:00
Faro (FAO) - Edinburgh (EDI) LS816 2021-10-16 13:32:00
Edinburgh (EDI) - Faro (FAO) LS815 2021-10-16 08:47:00
Gran Canaria (LPA) - Edinburgh (EDI) LS716 2021-10-16 01:21:00
Edinburgh (EDI) - Gran Canaria (LPA) LS715 2021-10-15 20:35:00
Faro (FAO) - Edinburgh (EDI) LS816 2021-10-15 14:28:00
Edinburgh (EDI) - Faro (FAO) LS815 2021-10-15 08:58:00
Dalaman (DLM) - Edinburgh (EDI) LS712 2021-10-15 01:42:00
Time Lat Lon Altitude Heading Speed Vertical Rate
2021-10-04 14:48:20 GMT 55.949936 -3.362295 0 115 0 0
2021-10-04 14:47:40 GMT 55.949936 -3.362310 0 115 0 0
2021-10-04 14:47:01 GMT 55.949936 -3.362295 0 115 0 0
2021-10-04 14:46:55 GMT 55.949936 -3.362310 0 115 0 0
2021-10-04 14:46:15 GMT 55.949947 -3.362316 0 115 0 0
2021-10-04 14:46:11 GMT 55.949947 -3.362310 0 115 0 0
2021-10-04 14:45:57 GMT 55.949947 -3.362295 0 115 0 0
2021-10-04 14:45:52 GMT 55.949936 -3.362295 0 115 1 0
2021-10-04 14:45:44 GMT 55.949970 -3.362420 0 115 5 0
2021-10-04 14:45:26 GMT 55.950249 -3.363490 0 132 10 0
2021-10-04 14:45:18 GMT 55.950542 -3.363941 0 129 13 0
2021-10-04 14:45:14 GMT 55.950691 -3.364391 0 84 12 0
2021-10-04 14:45:11 GMT 55.950691 -3.364584 0 67 11 0
2021-10-04 14:45:01 GMT 55.950371 -3.365603 0 59 22 0
2021-10-04 14:44:57 GMT 55.950142 -3.366290 0 59 23 0
2021-10-04 14:44:50 GMT 55.949795 -3.367310 0 59 24 0
2021-10-04 14:44:36 GMT 55.948971 -3.369756 0 59 24 0
2021-10-04 14:44:18 GMT 55.947968 -3.372695 0 59 24 0
2021-10-04 14:43:55 GMT 55.946732 -3.376361 0 59 23 0
2021-10-04 14:43:45 GMT 55.946201 -3.377931 0 59 16 0
2021-10-04 14:43:39 GMT 55.946037 -3.378425 0 61 13 0
2021-10-04 14:43:36 GMT 55.945953 -3.378691 0 73 11 0
2021-10-04 14:43:30 GMT 55.945923 -3.379219 0 118 12 0
2021-10-04 14:43:27 GMT 55.945980 -3.379455 0 135 12 0
2021-10-04 14:42:32 GMT 55.949795 -3.373017 400 239 88 0
2021-10-04 14:42:30 GMT 55.950436 -3.371086 400 239 101 -128
2021-10-04 14:42:22 GMT 55.952774 -3.364230 425 239 142 -640
2021-10-04 14:42:18 GMT 55.953918 -3.360818 450 240 142 -576
2021-10-04 14:42:09 GMT 55.956848 -3.352162 550 239 141 -704
2021-10-04 14:42:01 GMT 55.959515 -3.344307 650 239 141 -768
2021-10-04 14:41:58 GMT 55.963051 -3.333836 775 239 141 -832
2021-10-04 14:41:51 GMT 55.963051 -3.333836 800 239 141 -704
2021-10-04 14:41:47 GMT 55.964584 -3.329357 850 239 139 -768
2021-10-04 14:41:39 GMT 55.967056 -3.322077 975 240 136 -704
2021-10-04 14:41:36 GMT 55.967846 -3.319674 1,050 240 138 -704
2021-10-04 14:41:31 GMT 55.969616 -3.314438 1,025 239 137 -704
2021-10-04 14:41:27 GMT 55.971909 -3.307717 1,150 239 139 -640
2021-10-04 14:41:24 GMT 55.971909 -3.307717 1,150 239 139 -640
2021-10-04 14:41:18 GMT 55.973946 -3.301735 1,200 240 136 -640
2021-10-04 14:41:15 GMT 55.976486 -3.294151 1,275 239 135 -704
2021-10-04 14:41:09 GMT 55.976830 -3.293238 1,275 239 136 -704
2021-10-04 14:41:08 GMT 55.977173 -3.292153 1,300 239 136 -704
2021-10-04 14:41:07 GMT 55.977669 -3.290749 1,325 239 136 -704
2021-10-04 14:41:05 GMT 55.978043 -3.289633 1,325 239 136 -704
2021-10-04 14:41:03 GMT 55.978695 -3.287745 1,350 239 137 -704
2021-10-04 14:41:02 GMT 55.979050 -3.286743 1,350 239 138 -704
2021-10-04 14:41:01 GMT 55.979343 -3.285856 1,375 239 139 -768
2021-10-04 14:41:00 GMT 55.980045 -3.283710 1,400 239 139 -768
2021-10-04 14:40:58 GMT 55.980415 -3.282681 1,425 239 139 -768
2021-10-04 14:40:56 GMT 55.981022 -3.280878 1,450 239 139 -768
2021-10-04 14:40:54 GMT 55.981705 -3.278920 1,475 239 139 -768
2021-10-04 14:40:52 GMT 55.982437 -3.276672 1,500 240 138 -768
2021-10-04 14:40:51 GMT 55.982742 -3.275728 1,500 240 139 -768
2021-10-04 14:40:50 GMT 55.983349 -3.274012 1,525 240 139 -704
2021-10-04 14:40:48 GMT 55.983719 -3.272844 1,550 240 139 -704
2021-10-04 14:40:46 GMT 55.984371 -3.270836 1,575 240 139 -640
2021-10-04 14:40:45 GMT 55.984680 -3.269931 1,575 240 140 -640
2021-10-04 14:40:44 GMT 55.985321 -3.267933 1,600 240 140 -640
2021-10-04 14:40:42 GMT 55.985676 -3.266973 1,600 240 140 -640
2021-10-04 14:40:40 GMT 55.986328 -3.264914 1,625 240 141 -704
2021-10-04 14:40:39 GMT 55.986607 -3.264055 1,650 240 141 -704
2021-10-04 14:40:38 GMT 55.987610 -3.261025 1,675 240 142 -704
2021-10-04 14:40:36 GMT 55.988052 -3.259678 1,700 240 142 -704
2021-10-04 14:40:34 GMT 55.988342 -3.258778 1,700 240 142 -704
2021-10-04 14:40:33 GMT 55.989029 -3.256760 1,725 240 143 -768
2021-10-04 14:40:30 GMT 55.990101 -3.253584 1,775 239 144 -832
2021-10-04 14:40:28 GMT 55.990379 -3.252811 1,775 239 144 -832
2021-10-04 14:40:26 GMT 55.991447 -3.249636 1,825 239 146 -832
2021-10-04 14:40:24 GMT 55.991776 -3.248707 1,825 239 147 -832
2021-10-04 14:40:23 GMT 55.992100 -3.247747 1,850 239 148 -832
2021-10-04 14:40:22 GMT 55.992599 -3.246294 1,875 239 149 -832
2021-10-04 14:40:21 GMT 55.993263 -3.244314 1,875 239 150 -768
2021-10-04 14:40:19 GMT 55.993652 -3.243214 1,900 239 151 -768
2021-10-04 14:40:18 GMT 55.994385 -3.241050 1,925 239 152 -768
2021-10-04 14:40:16 GMT 55.994751 -3.239885 1,925 239 152 -704
2021-10-04 14:40:14 GMT 55.995483 -3.237721 1,950 239 154 -704
2021-10-04 14:40:12 GMT 55.996216 -3.235640 1,975 239 154 -768
2021-10-04 14:40:11 GMT 55.996582 -3.234558 2,000 240 153 -832
2021-10-04 14:40:10 GMT 55.996990 -3.233414 2,025 240 154 -832
2021-10-04 14:40:08 GMT 55.997734 -3.231096 2,050 240 154 -768
2021-10-04 14:40:07 GMT 55.998047 -3.230064 2,050 240 155 -704
2021-10-04 14:40:05 GMT 55.998711 -3.228092 2,075 240 156 -768
2021-10-04 14:40:04 GMT 55.999466 -3.225902 2,100 240 156 -832
2021-10-04 14:40:02 GMT 55.999874 -3.224659 2,125 240 157 -896
2021-10-04 14:40:01 GMT 56.000526 -3.222685 2,150 239 158 -832
2021-10-04 14:40:00 GMT 56.000946 -3.221483 2,150 239 158 -832
2021-10-04 14:39:58 GMT 56.001663 -3.219327 2,175 240 159 -832
2021-10-04 14:39:56 GMT 56.002064 -3.218222 2,200 240 159 -896
2021-10-04 14:39:55 GMT 56.002853 -3.215831 2,225 241 160 -832
2021-10-04 14:39:50 GMT 56.004436 -3.210926 2,300 240 161 -768
2021-10-04 14:39:49 GMT 56.004776 -3.209839 2,300 240 162 -832
2021-10-04 14:39:47 GMT 56.005554 -3.207425 2,325 240 164 -896
2021-10-04 14:39:46 GMT 56.006298 -3.205175 2,350 240 164 -768
2021-10-04 14:39:44 GMT 56.006699 -3.204013 2,375 240 166 -704
2021-10-04 14:39:42 GMT 56.007370 -3.202000 2,400 240 166 -640
2021-10-04 14:39:41 GMT 56.007790 -3.200712 2,400 240 168 -704
2021-10-04 14:39:40 GMT 56.008530 -3.198436 2,425 240 173 -640
2021-10-04 14:39:38 GMT 56.009125 -3.196605 2,425 240 174 -640
2021-10-04 14:39:36 GMT 56.010208 -3.193417 2,475 239 178 -640
2021-10-04 14:39:34 GMT 56.011505 -3.189697 2,500 238 178 -896
2021-10-04 14:39:32 GMT 56.011505 -3.189697 2,500 237 179 -896
2021-10-04 14:39:30 GMT 56.012489 -3.187065 2,525 236 181 -832
2021-10-04 14:39:29 GMT 56.012970 -3.185869 2,550 234 183 -768
2021-10-04 14:39:27 GMT 56.014114 -3.183039 2,575 231 184 -640
2021-10-04 14:39:26 GMT 56.015003 -3.181057 2,600 229 184 -960
2021-10-04 14:39:24 GMT 56.016636 -3.177710 2,650 228 184 -960
2021-10-04 14:39:22 GMT 56.016636 -3.177710 2,650 226 183 -1024
2021-10-04 14:39:21 GMT 56.018124 -3.174963 2,700 225 183 -1024
2021-10-04 14:39:19 GMT 56.018646 -3.174050 2,700 224 183 -1024
2021-10-04 14:39:18 GMT 56.019241 -3.172968 2,725 222 182 -1024
2021-10-04 14:39:16 GMT 56.020248 -3.171387 2,750 221 180 -896
2021-10-04 14:39:15 GMT 56.020935 -3.170305 2,775 221 180 -704
2021-10-04 14:39:14 GMT 56.022766 -3.167475 2,800 221 180 -704
2021-10-04 14:39:12 GMT 56.022766 -3.167475 2,800 224 181 -640
2021-10-04 14:39:10 GMT 56.023991 -3.165264 2,825 227 181 -640
2021-10-04 14:39:09 GMT 56.024597 -3.164229 2,825 233 181 -704
2021-10-04 14:39:08 GMT 56.025665 -3.161745 2,875 239 181 -704
2021-10-04 14:39:06 GMT 56.026176 -3.160458 2,875 242 181 -576
2021-10-04 14:39:04 GMT 56.027061 -3.157711 2,900 242 181 -576
2021-10-04 14:39:03 GMT 56.027618 -3.155222 2,900 251 182 -448
2021-10-04 14:39:01 GMT 56.027901 -3.153763 2,925 257 184 -512
2021-10-04 14:38:59 GMT 56.028442 -3.149331 2,925 262 187 -384
2021-10-04 14:38:58 GMT 56.028442 -3.149331 2,950 265 187 -320
2021-10-04 14:38:55 GMT 56.028645 -3.145351 2,950 268 189 -320
2021-10-04 14:38:54 GMT 56.028645 -3.143806 2,950 274 192 -320
2021-10-04 14:38:53 GMT 56.028458 -3.139858 2,975 280 195 -384
2021-10-04 14:38:52 GMT 56.028458 -3.139858 2,975 283 197 -384
2021-10-04 14:38:51 GMT 56.028038 -3.136511 3,000 285 198 -320
2021-10-04 14:38:49 GMT 56.027847 -3.135099 3,000 291 202 -384
2021-10-04 14:38:48 GMT 56.027481 -3.133351 3,000 294 204 -384
2021-10-04 14:38:46 GMT 56.026794 -3.130604 3,025 296 206 -448
2021-10-04 14:38:45 GMT 56.026382 -3.129106 3,025 299 208 -448
2021-10-04 14:38:43 GMT 56.024872 -3.124612 3,050 306 212 -512
2021-10-04 14:38:42 GMT 56.024872 -3.124612 3,050 308 214 -640
2021-10-04 14:38:41 GMT 56.024361 -3.123379 3,050 310 215 -704
2021-10-04 14:38:38 GMT 56.022408 -3.119087 3,100 314 217 -640
2021-10-04 14:38:37 GMT 56.021011 -3.116512 3,100 319 223 -320
2021-10-04 14:38:35 GMT 56.020172 -3.115139 3,125 321 224 -192
2021-10-04 14:38:34 GMT 56.018497 -3.112736 3,125 325 229 -64
2021-10-04 14:38:32 GMT 56.017796 -3.111792 3,125 327 230 -128
2021-10-04 14:38:31 GMT 56.016174 -3.109797 3,125 331 234 -256
2021-10-04 14:38:29 GMT 56.015053 -3.108530 3,125 333 235 -384
2021-10-04 14:38:28 GMT 56.013062 -3.106634 3,150 336 238 -640
2021-10-04 14:38:26 GMT 56.011963 -3.105718 3,150 336 238 -640
2021-10-04 14:38:25 GMT 56.010956 -3.104886 3,175 337 239 -704
2021-10-04 14:38:24 GMT 56.008804 -3.103305 3,200 338 240 -832
2021-10-04 14:38:21 GMT 56.006809 -3.101921 3,225 339 242 -832
2021-10-04 14:38:19 GMT 56.003906 -3.099809 3,250 339 244 -704
2021-10-04 14:38:17 GMT 56.002762 -3.098977 3,275 339 246 -640
2021-10-04 14:38:16 GMT 56.000759 -3.097630 3,275 340 247 -448
2021-10-04 14:38:14 GMT 55.999786 -3.096979 3,300 340 248 -384
2021-10-04 14:38:13 GMT 55.998734 -3.096230 3,300 340 250 -320
2021-10-04 14:38:12 GMT 55.996571 -3.094797 3,300 340 251 -256
2021-10-04 14:38:08 GMT 55.993870 -3.092909 3,325 340 252 -256
2021-10-04 14:38:07 GMT 55.992004 -3.091653 3,325 340 254 -384
2021-10-04 14:38:05 GMT 55.990891 -3.090935 3,325 340 254 -320
2021-10-04 14:38:03 GMT 55.988571 -3.089405 3,350 340 257 -192
2021-10-04 14:38:01 GMT 55.986465 -3.087907 3,350 339 259 -64
2021-10-04 14:38:00 GMT 55.985367 -3.087158 3,350 339 259 -64
2021-10-04 14:37:58 GMT 55.983261 -3.085743 3,350 339 261 -64
2021-10-04 14:37:57 GMT 55.982117 -3.084911 3,350 340 262 -64
2021-10-04 14:37:55 GMT 55.979736 -3.083330 3,350 339 264 0
2021-10-04 14:37:54 GMT 55.978695 -3.082609 3,350 340 265 -64
2021-10-04 14:37:52 GMT 55.976440 -3.081082 3,350 339 267 -128
2021-10-04 14:37:51 GMT 55.974106 -3.079501 3,350 339 270 -128
2021-10-04 14:37:48 GMT 55.971451 -3.077670 3,350 340 270 -192
2021-10-04 14:37:47 GMT 55.970535 -3.077004 3,375 339 271 -256
2021-10-04 14:37:46 GMT 55.969337 -3.076172 3,375 339 272 -384
2021-10-04 14:37:44 GMT 55.967010 -3.074541 3,375 339 272 -512
2021-10-04 14:37:43 GMT 55.964542 -3.072910 3,400 339 272 -960
2021-10-04 14:37:40 GMT 55.960678 -3.070250 3,475 340 271 -1152
2021-10-04 14:37:38 GMT 55.959469 -3.069477 3,475 340 272 -1152
2021-10-04 14:37:37 GMT 55.956070 -3.067160 3,550 340 272 -1216
2021-10-04 14:37:35 GMT 55.956070 -3.067160 3,550 340 272 -1216
2021-10-04 14:37:33 GMT 55.954208 -3.065872 3,575 339 273 -1280
2021-10-04 14:37:31 GMT 55.951355 -3.063937 3,700 340 274 -1344
2021-10-04 14:37:26 GMT 55.945782 -3.060122 3,775 340 275 -1280
2021-10-04 14:37:24 GMT 55.943069 -3.058277 3,825 340 275 -1280
2021-10-04 14:37:21 GMT 55.939636 -3.055947 3,825 340 275 -1280
2021-10-04 14:37:18 GMT 55.935818 -3.053427 3,975 340 275 -1536
2021-10-04 14:37:15 GMT 55.931442 -3.050508 4,100 340 274 -1664
2021-10-04 14:37:12 GMT 55.929062 -3.048956 4,100 340 274 -1728
2021-10-04 14:37:09 GMT 55.924320 -3.045788 4,200 340 273 -1664
2021-10-04 14:37:07 GMT 55.921921 -3.044212 4,250 340 273 -1408
2021-10-04 14:37:05 GMT 55.920876 -3.043470 4,275 340 273 -1024
2021-10-04 14:37:04 GMT 55.917068 -3.040966 4,325 340 273 -832
2021-10-04 14:37:02 GMT 55.917068 -3.040966 4,325 340 274 -576
2021-10-04 14:37:01 GMT 55.916016 -3.040300 4,325 340 276 -320
2021-10-04 14:37:00 GMT 55.914963 -3.039608 4,350 340 276 -192
2021-10-04 14:36:57 GMT 55.908096 -3.035056 4,350 340 281 -64
2021-10-04 14:36:54 GMT 55.908096 -3.035056 4,350 340 279 -64
2021-10-04 14:36:53 GMT 55.906403 -3.033974 4,350 340 280 -64
2021-10-04 14:36:51 GMT 55.903839 -3.032310 4,350 341 281 -64
2021-10-04 14:36:50 GMT 55.902721 -3.031626 4,350 341 282 0
2021-10-04 14:36:49 GMT 55.900269 -3.030063 4,350 342 284 0
2021-10-04 14:36:47 GMT 55.899033 -3.029314 4,350 342 286 0
2021-10-04 14:36:45 GMT 55.896530 -3.027849 4,350 345 290 0
2021-10-04 14:36:44 GMT 55.895226 -3.027163 4,350 345 290 0
2021-10-04 14:36:42 GMT 55.892395 -3.025735 4,350 347 292 0
2021-10-04 14:36:41 GMT 55.890942 -3.025103 4,350 348 294 0
2021-10-04 14:36:39 GMT 55.888550 -3.024153 4,350 348 296 -64
2021-10-04 14:36:38 GMT 55.887497 -3.023737 4,350 349 297 0
2021-10-04 14:36:37 GMT 55.885777 -3.023129 4,350 349 298 0
2021-10-04 14:36:35 GMT 55.882782 -3.021989 4,350 349 301 0
2021-10-04 14:36:33 GMT 55.878422 -3.020382 4,350 349 303 0
2021-10-04 14:36:31 GMT 55.878422 -3.020382 4,350 349 303 -64
2021-10-04 14:36:30 GMT 55.877151 -3.019992 4,350 349 306 -64
2021-10-04 14:36:28 GMT 55.874371 -3.019009 4,350 350 308 -64
2021-10-04 14:36:26 GMT 55.870880 -3.017828 4,350 351 311 -64
2021-10-04 14:36:25 GMT 55.869480 -3.017464 4,375 352 311 0
2021-10-04 14:36:23 GMT 55.866505 -3.016691 4,375 354 312 0
2021-10-04 14:36:22 GMT 55.864502 -3.016262 4,375 356 313 64
2021-10-04 14:36:19 GMT 55.860031 -3.015490 4,375 356 313 64
2021-10-04 14:36:17 GMT 55.857010 -3.015081 4,375 356 313 64
2021-10-04 14:36:15 GMT 55.854679 -3.014717 4,375 356 313 0
2021-10-04 14:36:13 GMT 55.851791 -3.014332 4,375 356 313 0
2021-10-04 14:36:12 GMT 55.849777 -3.013999 4,375 356 313 0
2021-10-04 14:36:10 GMT 55.847076 -3.013583 4,375 356 313 -64
2021-10-04 14:36:09 GMT 55.845612 -3.013417 4,375 356 313 -64
2021-10-04 14:36:08 GMT 55.844193 -3.013250 4,375 356 312 -128
2021-10-04 14:36:05 GMT 55.840153 -3.012657 4,375 356 312 0
2021-10-04 14:36:01 GMT 55.834946 -3.012002 4,375 356 311 0
2021-10-04 14:36:00 GMT 55.832054 -3.011627 4,375 356 310 0
2021-10-04 14:35:58 GMT 55.830780 -3.011419 4,375 356 310 0
2021-10-04 14:35:57 GMT 55.829353 -3.011284 4,375 356 309 -64
2021-10-04 14:35:56 GMT 55.827351 -3.011026 4,375 356 308 -64
2021-10-04 14:35:55 GMT 55.825954 -3.010769 4,375 356 308 0
2021-10-04 14:35:54 GMT 55.821533 -3.010254 4,375 356 307 -64
2021-10-04 14:35:52 GMT 55.821533 -3.010254 4,375 356 307 -128
2021-10-04 14:35:50 GMT 55.818695 -3.009838 4,375 356 307 -64
2021-10-04 14:35:48 GMT 55.815720 -3.009422 4,375 356 308 -64
2021-10-04 14:35:46 GMT 55.813156 -3.009089 4,375 356 309 0
2021-10-04 14:35:44 GMT 55.809860 -3.008589 4,350 355 312 0
2021-10-04 14:35:42 GMT 55.806885 -3.008090 4,350 355 313 -64
2021-10-04 14:35:41 GMT 55.804401 -3.007679 4,350 355 315 -320
2021-10-04 14:35:39 GMT 55.802948 -3.007424 4,375 355 316 -512
2021-10-04 14:35:38 GMT 55.800064 -3.006925 4,400 355 318 -768
2021-10-04 14:35:36 GMT 55.798721 -3.006735 4,400 355 318 -832
2021-10-04 14:35:34 GMT 55.795532 -3.006176 4,425 355 319 -1088
2021-10-04 14:35:33 GMT 55.794342 -3.006009 4,450 355 319 -1216
2021-10-04 14:35:31 GMT 55.791275 -3.005427 4,500 355 319 -1280
2021-10-04 14:35:30 GMT 55.789810 -3.005260 4,525 355 319 -1408
2021-10-04 14:35:29 GMT 55.786572 -3.004675 4,550 355 319 -1600
2021-10-04 14:35:27 GMT 55.785408 -3.004503 4,600 356 319 -1856
2021-10-04 14:35:25 GMT 55.782337 -3.004074 4,650 356 319 -1984
2021-10-04 14:35:24 GMT 55.781124 -3.003902 4,775 357 317 -2368
2021-10-04 14:35:22 GMT 55.778053 -3.003473 4,775 357 317 -2368
2021-10-04 14:35:21 GMT 55.775894 -3.003263 4,825 358 315 -2624
2021-10-04 14:35:20 GMT 55.774422 -3.003130 4,875 358 315 -2688
2021-10-04 14:35:19 GMT 55.771816 -3.002872 4,950 358 315 -2816
2021-10-04 14:35:17 GMT 55.770370 -3.002787 5,000 358 313 -2688
2021-10-04 14:35:15 GMT 55.767300 -3.002529 5,100 358 312 -2688
2021-10-04 14:35:14 GMT 55.766006 -3.002430 5,150 358 312 -2560
2021-10-04 14:35:13 GMT 55.763260 -3.002264 5,225 358 312 -2368
2021-10-04 14:35:11 GMT 55.761841 -3.002097 5,250 358 311 -2304
2021-10-04 14:35:10 GMT 55.760410 -3.002014 5,300 358 311 -2240
2021-10-04 14:35:08 GMT 55.757675 -3.001848 5,325 358 311 -2240
2021-10-04 14:35:07 GMT 55.755661 -3.001671 5,450 358 311 -2176
2021-10-04 14:35:05 GMT 55.752914 -3.001515 5,500 358 311 -2240
2021-10-04 14:35:04 GMT 55.751614 -3.001413 5,525 358 311 -2304
2021-10-04 14:35:03 GMT 55.750076 -3.001328 5,575 358 310 -2496
2021-10-04 14:35:00 GMT 55.745651 -3.001070 5,725 358 306 -3392
2021-10-04 14:34:58 GMT 55.743092 -3.000898 5,825 359 305 -3328
2021-10-04 14:34:57 GMT 55.741508 -3.000813 5,900 359 304 -3072
2021-10-04 14:34:56 GMT 55.740112 -3.000727 5,950 358 304 -2944
2021-10-04 14:34:54 GMT 55.737442 -3.000516 6,050 358 302 -2752
2021-10-04 14:34:53 GMT 55.734512 -3.000350 6,125 358 302 -2496
2021-10-04 14:34:51 GMT 55.733002 -3.000183 6,175 358 302 -2368
2021-10-04 14:34:50 GMT 55.731457 -3.000126 6,200 358 301 -2048
2021-10-04 14:34:48 GMT 55.728661 -2.999868 6,275 358 302 -1536
2021-10-04 14:34:47 GMT 55.727280 -2.999850 6,300 358 302 -1408
2021-10-04 14:34:45 GMT 55.724609 -2.999611 6,325 358 303 -768
2021-10-04 14:34:44 GMT 55.722931 -2.999517 6,325 358 304 -448
2021-10-04 14:34:43 GMT 55.720238 -2.999353 6,350 358 306 -64
2021-10-04 14:34:41 GMT 55.718857 -2.999268 6,350 359 307 0
2021-10-04 14:34:40 GMT 55.717438 -2.999184 6,350 359 307 64
2021-10-04 14:34:38 GMT 55.715149 -2.999101 6,350 359 307 64
2021-10-04 14:34:37 GMT 55.713593 -2.999018 6,350 359 307 64
2021-10-04 14:34:36 GMT 55.710598 -2.998838 6,350 359 308 0
2021-10-04 14:34:34 GMT 55.709064 -2.998753 6,350 359 308 0
2021-10-04 14:34:33 GMT 55.706505 -2.998581 6,350 359 308 0
2021-10-04 14:34:29 GMT 55.703522 -2.998409 6,350 359 308 0
2021-10-04 14:34:28 GMT 55.701965 -2.998352 6,350 359 308 0
2021-10-04 14:34:27 GMT 55.700542 -2.998238 6,350 359 308 0
2021-10-04 14:34:25 GMT 55.696541 -2.998066 6,350 359 306 0
2021-10-04 14:34:23 GMT 55.694595 -2.997936 6,350 359 306 0
2021-10-04 14:34:22 GMT 55.693283 -2.997894 6,350 359 305 0
2021-10-04 14:34:19 GMT 55.688114 -2.997637 6,350 359 304 64
2021-10-04 14:34:18 GMT 55.686676 -2.997603 6,350 359 303 64
2021-10-04 14:34:17 GMT 55.685303 -2.997520 6,350 359 303 64
2021-10-04 14:34:15 GMT 55.680954 -2.997270 6,350 359 305 0
2021-10-04 14:34:13 GMT 55.679535 -2.997187 6,350 359 306 -64
2021-10-04 14:34:12 GMT 55.677979 -2.997104 6,350 359 307 -64
2021-10-04 14:34:10 GMT 55.675140 -2.997020 6,350 359 309 -128
2021-10-04 14:34:09 GMT 55.672440 -2.996854 6,350 359 311 -128
2021-10-04 14:34:06 GMT 55.671021 -2.996771 6,350 358 312 -128
2021-10-04 14:34:05 GMT 55.669418 -2.996687 6,350 358 313 -128
2021-10-04 14:34:04 GMT 55.666214 -2.996438 6,350 359 316 -128
2021-10-04 14:34:01 GMT 55.663147 -2.996271 6,375 359 318 -64
2021-10-04 14:34:00 GMT 55.660229 -2.996092 6,375 358 321 -64
2021-10-04 14:33:58 GMT 55.657425 -2.995938 6,375 359 323 -64
2021-10-04 14:33:56 GMT 55.655777 -2.995855 6,375 359 324 -128
2021-10-04 14:33:53 GMT 55.651428 -2.995522 6,375 359 328 -320
2021-10-04 14:33:51 GMT 55.648544 -2.995405 6,375 359 330 -448
2021-10-04 14:33:50 GMT 55.646870 -2.995319 6,400 359 331 -512
2021-10-04 14:33:48 GMT 55.643471 -2.995148 6,425 359 333 -640
2021-10-04 14:33:47 GMT 55.642548 -2.995023 6,425 359 334 -832
2021-10-04 14:33:45 GMT 55.639481 -2.994856 6,450 359 335 -1344
2021-10-04 14:33:44 GMT 55.637604 -2.994804 6,475 359 336 -1536
2021-10-04 14:33:43 GMT 55.633255 -2.994523 6,550 358 337 -1728
2021-10-04 14:33:39 GMT 55.629547 -2.994274 6,625 358 339 -1664
2021-10-04 14:33:36 GMT 55.625290 -2.994024 6,700 358 341 -1600
2021-10-04 14:33:35 GMT 55.623734 -2.993941 6,725 358 342 -1664
2021-10-04 14:33:34 GMT 55.620392 -2.993691 6,800 358 344 -1728
2021-10-04 14:33:32 GMT 55.616089 -2.993358 6,875 358 345 -1856
2021-10-04 14:33:29 GMT 55.611969 -2.993109 6,975 358 347 -2240
2021-10-04 14:33:26 GMT 55.610046 -2.993002 7,000 358 347 -2496
2021-10-04 14:33:25 GMT 55.607765 -2.992830 7,075 358 347 -2752
2021-10-04 14:33:24 GMT 55.605560 -2.992692 7,150 358 348 -2816
2021-10-04 14:33:23 GMT 55.604233 -2.992609 7,175 358 348 -2880
2021-10-04 14:33:22 GMT 55.602631 -2.992443 7,225 358 348 -2880
2021-10-04 14:33:21 GMT 55.599434 -2.992229 7,325 358 348 -2752
2021-10-04 14:33:19 GMT 55.598007 -2.992110 7,375 358 349 -2560
2021-10-04 14:33:18 GMT 55.594776 -2.991972 7,450 358 349 -2432
2021-10-04 14:33:16 GMT 55.593147 -2.991800 7,475 358 350 -2368
2021-10-04 14:33:15 GMT 55.589905 -2.991610 7,550 358 352 -2048
2021-10-04 14:33:13 GMT 55.588303 -2.991444 7,600 358 353 -1984
2021-10-04 14:33:11 GMT 55.584549 -2.991194 7,675 358 354 -1920
2021-10-04 14:33:10 GMT 55.583046 -2.991114 7,700 358 355 -1920
2021-10-04 14:33:07 GMT 55.576344 -2.990685 7,825 358 359 -1984
2021-10-04 14:33:05 GMT 55.574844 -2.990528 7,850 358 360 -1984
2021-10-04 14:33:02 GMT 55.569824 -2.990170 7,950 358 363 -1856
2021-10-04 14:33:00 GMT 55.566467 -2.989946 8,025 358 364 -1856
2021-10-04 14:32:58 GMT 55.563309 -2.989740 8,075 358 366 -1920
2021-10-04 14:32:56 GMT 55.560749 -2.989569 8,125 358 367 -1984
2021-10-04 14:32:55 GMT 55.556511 -2.989311 8,200 358 370 -2176
2021-10-04 14:32:53 GMT 55.554790 -2.989140 8,250 358 370 -2176
2021-10-04 14:32:52 GMT 55.553112 -2.989054 8,275 358 370 -2240
2021-10-04 14:32:51 GMT 55.549667 -2.988781 8,350 358 372 -2368
2021-10-04 14:32:48 GMT 55.545898 -2.988539 8,425 358 372 -2496
2021-10-04 14:32:47 GMT 55.543991 -2.988364 8,500 358 374 -2624
2021-10-04 14:32:46 GMT 55.542454 -2.988281 8,525 358 374 -2816
2021-10-04 14:32:44 GMT 55.538822 -2.987938 8,625 358 374 -2880
2021-10-04 14:32:43 GMT 55.537125 -2.987782 8,675 358 375 -2944
2021-10-04 14:32:41 GMT 55.533840 -2.987509 8,775 357 375 -3136
2021-10-04 14:32:40 GMT 55.530350 -2.987116 8,875 357 375 -3072
2021-10-04 14:32:38 GMT 55.528290 -2.986866 8,925 356 376 -3136
2021-10-04 14:32:37 GMT 55.526718 -2.986650 8,975 355 376 -3136
2021-10-04 14:32:34 GMT 55.522934 -2.985868 9,100 352 376 -3200
2021-10-04 14:32:33 GMT 55.517944 -2.984453 9,225 350 376 -3136
2021-10-04 14:32:32 GMT 55.517944 -2.984453 9,250 349 375 -3136
2021-10-04 14:32:30 GMT 55.514893 -2.983303 9,350 344 374 -3392
2021-10-04 14:32:29 GMT 55.513412 -2.982622 9,400 344 374 -3392
2021-10-04 14:32:26 GMT 55.507965 -2.979542 9,600 340 374 -3648
2021-10-04 14:32:23 GMT 55.503662 -2.976546 9,775 336 371 -3776
2021-10-04 14:32:22 GMT 55.502106 -2.975297 9,825 334 371 -3776
2021-10-04 14:32:21 GMT 55.499950 -2.973433 9,900 333 370 -3776
2021-10-04 14:32:20 GMT 55.495514 -2.969388 10,100 332 370 -3648
2021-10-04 14:32:18 GMT 55.495514 -2.969388 10,100 331 371 -3520
2021-10-04 14:32:17 GMT 55.494038 -2.967939 10,150 331 370 -3328
2021-10-04 14:32:16 GMT 55.491028 -2.964977 10,250 331 371 -3200
2021-10-04 14:32:14 GMT 55.489525 -2.963562 10,300 332 371 -3072
2021-10-04 14:32:12 GMT 55.486816 -2.960899 10,400 333 374 -3072
2021-10-04 14:32:11 GMT 55.485287 -2.959528 10,450 335 375 -3200
2021-10-04 14:32:08 GMT 55.480957 -2.955738 10,600 336 376 -3264
2021-10-04 14:32:07 GMT 55.478584 -2.953863 10,700 339 377 -3328
2021-10-04 14:32:05 GMT 55.476013 -2.951993 10,775 340 378 -3328
2021-10-04 14:32:04 GMT 55.470886 -2.948747 10,925 342 379 -3456
2021-10-04 14:32:02 GMT 55.470886 -2.948747 11,150 344 380 -3584
2021-10-04 14:31:59 GMT 55.465668 -2.946167 11,150 348 383 -3648
2021-10-04 14:31:57 GMT 55.462383 -2.944851 11,250 350 384 -3520
2021-10-04 14:31:56 GMT 55.459946 -2.944003 11,325 352 385 -3328
2021-10-04 14:31:55 GMT 55.454819 -2.942671 11,475 352 386 -3136
2021-10-04 14:31:53 GMT 55.454819 -2.942671 11,475 353 387 -3072
2021-10-04 14:31:52 GMT 55.452885 -2.942190 11,550 353 387 -3008
2021-10-04 14:31:50 GMT 55.449116 -2.941332 11,650 354 390 -3072
2021-10-04 14:31:47 GMT 55.445023 -2.940507 11,775 354 390 -3200
2021-10-04 14:31:46 GMT 55.440903 -2.939731 11,875 354 391 -3456
2021-10-04 14:31:45 GMT 55.440903 -2.939731 11,900 354 391 -3456
2021-10-04 14:31:43 GMT 55.435150 -2.938510 12,100 354 391 -3584
2021-10-04 14:31:42 GMT 55.435150 -2.938510 12,100 354 392 -3584
2021-10-04 14:31:41 GMT 55.431564 -2.937793 12,200 354 392 -3584
2021-10-04 14:31:39 GMT 55.429935 -2.937428 12,275 354 392 -3584
2021-10-04 14:31:36 GMT 55.424351 -2.936263 12,450 354 393 -3584
2021-10-04 14:31:34 GMT 55.418564 -2.935127 12,650 354 393 -3584
2021-10-04 14:31:32 GMT 55.416946 -2.934765 12,700 354 393 -3584
2021-10-04 14:31:30 GMT 55.413345 -2.934077 12,825 354 394 -3456
2021-10-04 14:31:29 GMT 55.408081 -2.933026 12,975 354 395 -3392
2021-10-04 14:31:27 GMT 55.408081 -2.933026 12,975 354 395 -3328
2021-10-04 14:31:26 GMT 55.406250 -2.932623 13,025 354 395 -3264
2021-10-04 14:31:24 GMT 55.402451 -2.931896 13,150 354 396 -3200
2021-10-04 14:31:23 GMT 55.400795 -2.931519 13,200 354 396 -3200
2021-10-04 14:31:21 GMT 55.396603 -2.930686 13,325 354 397 -3200
2021-10-04 14:31:20 GMT 55.394791 -2.930353 13,375 354 397 -3200
2021-10-04 14:31:19 GMT 55.392975 -2.929957 13,425 354 397 -3200
2021-10-04 14:31:17 GMT 55.389679 -2.929311 13,525 354 398 -3200
2021-10-04 14:31:16 GMT 55.387665 -2.928907 13,575 354 399 -3200
2021-10-04 14:31:14 GMT 55.383636 -2.928018 13,700 354 399 -3136
2021-10-04 14:31:13 GMT 55.379425 -2.927129 13,800 354 401 -3008
2021-10-04 14:31:11 GMT 55.379425 -2.927129 13,825 354 401 -2944
2021-10-04 14:31:09 GMT 55.375168 -2.926322 13,925 354 402 -3008
2021-10-04 14:31:07 GMT 55.371700 -2.925609 13,975 354 402 -3072
2021-10-04 14:31:06 GMT 55.369652 -2.925193 14,100 354 403 -3136
2021-10-04 14:31:04 GMT 55.367043 -2.924610 14,150 354 404 -3136
2021-10-04 14:31:03 GMT 55.365372 -2.924302 14,200 354 404 -3136
2021-10-04 14:31:01 GMT 55.361847 -2.923575 14,375 354 405 -3200
2021-10-04 14:30:59 GMT 55.356445 -2.922444 14,400 354 406 -3264
2021-10-04 14:30:58 GMT 55.354382 -2.922030 14,525 354 407 -3392
2021-10-04 14:30:56 GMT 55.349533 -2.921071 14,675 354 407 -3456
2021-10-04 14:30:54 GMT 55.347492 -2.920615 14,725 354 409 -3392
2021-10-04 14:30:52 GMT 55.343719 -2.919859 14,850 354 409 -3328
2021-10-04 14:30:50 GMT 55.340183 -2.919201 14,950 354 409 -3264
2021-10-04 14:30:49 GMT 55.338272 -2.918809 15,000 354 410 -3136
2021-10-04 14:30:48 GMT 55.336395 -2.918405 15,050 354 410 -3136
2021-10-04 14:30:46 GMT 55.332642 -2.917619 15,150 354 411 -3136
2021-10-04 14:30:45 GMT 55.329987 -2.917120 15,225 354 412 -3008
2021-10-04 14:30:44 GMT 55.328453 -2.916787 15,375 354 415 -2816
2021-10-04 14:30:42 GMT 55.324677 -2.916062 15,375 354 415 -2816
2021-10-04 14:30:41 GMT 55.322353 -2.915538 15,425 354 416 -2816
2021-10-04 14:30:39 GMT 55.318954 -2.914873 15,475 354 416 -2816
2021-10-04 14:30:37 GMT 55.315109 -2.914124 15,600 354 419 -3072
2021-10-04 14:30:34 GMT 55.309158 -2.912912 15,775 354 420 -3136
2021-10-04 14:30:31 GMT 55.303734 -2.911793 15,900 354 421 -3264
2021-10-04 14:30:30 GMT 55.301605 -2.911296 15,975 354 422 -3328
2021-10-04 14:30:28 GMT 55.297726 -2.910545 16,075 354 423 -3392
2021-10-04 14:30:26 GMT 55.293457 -2.909600 16,175 354 423 -3392
2021-10-04 14:30:25 GMT 55.291901 -2.909277 16,250 354 424 -3456
2021-10-04 14:30:24 GMT 55.290138 -2.908963 16,300 354 424 -3520
2021-10-04 14:30:22 GMT 55.285858 -2.908065 16,425 354 425 -3584
2021-10-04 14:30:21 GMT 55.283936 -2.907661 16,500 354 425 -3584
2021-10-04 14:30:20 GMT 55.280228 -2.906934 16,600 354 426 -3584
2021-10-04 14:30:18 GMT 55.277290 -2.906300 16,700 354 426 -3520
2021-10-04 14:30:16 GMT 55.274544 -2.905717 16,775 354 427 -3456
2021-10-04 14:30:15 GMT 55.269657 -2.904719 16,925 354 428 -3328
2021-10-04 14:30:12 GMT 55.266678 -2.904136 17,000 354 429 -3328
2021-10-04 14:30:10 GMT 55.262161 -2.903137 17,125 354 432 -3712
2021-10-04 14:30:09 GMT 55.258804 -2.902491 17,225 354 432 -3712
2021-10-04 14:30:07 GMT 55.256622 -2.902055 17,300 354 432 -3712
2021-10-04 14:30:06 GMT 55.252480 -2.901140 17,425 354 432 -3776
2021-10-04 14:30:04 GMT 55.250702 -2.900795 17,475 354 432 -3776
2021-10-04 14:30:03 GMT 55.246334 -2.899891 17,625 354 433 -3776
2021-10-04 14:30:01 GMT 55.244522 -2.899502 17,675 354 433 -3776
2021-10-04 14:29:59 GMT 55.240562 -2.898643 17,850 354 433 -3776
2021-10-04 14:29:57 GMT 55.237564 -2.898048 17,875 354 433 -3776
2021-10-04 14:29:56 GMT 55.235413 -2.897644 17,925 354 433 -3840
2021-10-04 14:29:55 GMT 55.233398 -2.897240 18,075 354 433 -3840
2021-10-04 14:29:53 GMT 55.229599 -2.896432 18,150 354 434 -3776
2021-10-04 14:29:52 GMT 55.227432 -2.895979 18,225 354 435 -3776
2021-10-04 14:29:51 GMT 55.223465 -2.895221 18,350 354 435 -3712
2021-10-04 14:29:49 GMT 55.221451 -2.894736 18,450 354 435 -3712
2021-10-04 14:29:47 GMT 55.217239 -2.893928 18,475 354 435 -3712
2021-10-04 14:29:45 GMT 55.212677 -2.892983 18,675 354 435 -3712
2021-10-04 14:29:44 GMT 55.206436 -2.891735 19,000 354 436 -3776
2021-10-04 14:29:42 GMT 55.206436 -2.891735 19,000 354 436 -3776
2021-10-04 14:29:40 GMT 55.202454 -2.890858 19,000 354 436 -3776
2021-10-04 14:29:39 GMT 55.200665 -2.890486 19,050 354 436 -3776
2021-10-04 14:29:38 GMT 55.198837 -2.890131 19,125 354 437 -3776
2021-10-04 14:29:37 GMT 55.194847 -2.889321 19,250 354 437 -3776
2021-10-04 14:29:34 GMT 55.192245 -2.888839 19,325 354 437 -3776
2021-10-04 14:29:33 GMT 55.186798 -2.887708 19,425 354 438 -3712
2021-10-04 14:29:32 GMT 55.186798 -2.887708 19,500 354 438 -3712
2021-10-04 14:29:31 GMT 55.184372 -2.887240 19,550 354 438 -3776
2021-10-04 14:29:30 GMT 55.180984 -2.886496 19,625 354 438 -3840
2021-10-04 14:29:28 GMT 55.178970 -2.886092 19,750 354 438 -3840
2021-10-04 14:29:27 GMT 55.174923 -2.885243 19,875 354 440 -3840
2021-10-04 14:29:25 GMT 55.172699 -2.884800 19,950 354 440 -3840
2021-10-04 14:29:24 GMT 55.170868 -2.884396 20,000 354 440 -3776
2021-10-04 14:29:22 GMT 55.166264 -2.883495 20,150 354 441 -3584
2021-10-04 14:29:21 GMT 55.165054 -2.883245 20,200 354 440 -3520
2021-10-04 14:29:19 GMT 55.160614 -2.882295 20,300 354 441 -3456
2021-10-04 14:29:18 GMT 55.158768 -2.881914 20,350 354 441 -3392
2021-10-04 14:29:16 GMT 55.154709 -2.881084 20,500 354 442 -3392
2021-10-04 14:29:15 GMT 55.152695 -2.880680 20,525 354 442 -3456
2021-10-04 14:29:13 GMT 55.147797 -2.879710 20,650 354 443 -3584
2021-10-04 14:29:11 GMT 55.143723 -2.878903 20,750 354 443 -3648
2021-10-04 14:29:09 GMT 55.140472 -2.878252 20,875 354 443 -3712
2021-10-04 14:29:07 GMT 55.135574 -2.877287 21,025 354 444 -3584
2021-10-04 14:29:06 GMT 55.133770 -2.876920 21,100 354 445 -3520
2021-10-04 14:29:04 GMT 55.129669 -2.876075 21,225 354 445 -3392
2021-10-04 14:29:03 GMT 55.127609 -2.875671 21,300 354 446 -3392
2021-10-04 14:29:01 GMT 55.123306 -2.874864 21,375 354 446 -3456
2021-10-04 14:29:00 GMT 55.121292 -2.874460 21,425 354 447 -3520
2021-10-04 14:28:59 GMT 55.119431 -2.874090 21,500 354 447 -3520
2021-10-04 14:28:57 GMT 55.116547 -2.873507 21,575 354 447 -3520
2021-10-04 14:28:56 GMT 55.113281 -2.872925 21,675 354 448 -3520
2021-10-04 14:28:54 GMT 55.109142 -2.872093 21,750 354 449 -3456
2021-10-04 14:28:52 GMT 55.104816 -2.871260 21,875 354 450 -3392
2021-10-04 14:28:51 GMT 55.103138 -2.870927 21,950 354 450 -3328
2021-10-04 14:28:50 GMT 55.097366 -2.869845 22,050 354 452 -3328
2021-10-04 14:28:48 GMT 55.097366 -2.869845 22,150 354 452 -3328
2021-10-04 14:28:47 GMT 55.093185 -2.869047 22,225 354 453 -3328
2021-10-04 14:28:44 GMT 55.088196 -2.868097 22,350 354 454 -3264
2021-10-04 14:28:43 GMT 55.086102 -2.867765 22,400 354 455 -3264
2021-10-04 14:28:42 GMT 55.084053 -2.867348 22,450 354 455 -3264
2021-10-04 14:28:40 GMT 55.080467 -2.866683 22,550 354 456 -3264
2021-10-04 14:28:38 GMT 55.074188 -2.865574 22,700 354 457 -3264
2021-10-04 14:28:36 GMT 55.072273 -2.865184 22,800 354 458 -3328
2021-10-04 14:28:35 GMT 55.066818 -2.864200 22,900 355 459 -3392
2021-10-04 14:28:32 GMT 55.061520 -2.863270 23,050 355 461 -3328
2021-10-04 14:28:30 GMT 55.054550 -2.861938 23,225 355 462 -3136
2021-10-04 14:28:26 GMT 55.045807 -2.860404 23,400 355 465 -3072
2021-10-04 14:28:24 GMT 55.045807 -2.860404 23,425 354 465 -3008
2021-10-04 14:28:22 GMT 55.042622 -2.859775 23,500 354 466 -3008
2021-10-04 14:28:21 GMT 55.040482 -2.859358 23,575 354 467 -3072
2021-10-04 14:28:18 GMT 55.034454 -2.858303 23,700 354 468 -3264
2021-10-04 14:28:17 GMT 55.031448 -2.857694 23,800 354 468 -3328
2021-10-04 14:28:15 GMT 55.027164 -2.856945 23,900 354 470 -3328
2021-10-04 14:28:13 GMT 55.022827 -2.856041 24,000 354 471 -3072
2021-10-04 14:28:11 GMT 55.018692 -2.855280 24,050 354 472 -2944
2021-10-04 14:28:09 GMT 55.013947 -2.854345 24,200 354 474 -2816
2021-10-04 14:28:06 GMT 55.008732 -2.853283 24,275 354 475 -2944
2021-10-04 14:28:05 GMT 55.003052 -2.852245 24,425 354 476 -3200
2021-10-04 14:28:03 GMT 55.001099 -2.851868 24,450 354 476 -3264
2021-10-04 14:28:01 GMT 54.996918 -2.851033 24,575 354 477 -3584
2021-10-04 14:27:59 GMT 54.993416 -2.850370 24,650 354 477 -3584
2021-10-04 14:27:58 GMT 54.988586 -2.849417 24,800 354 477 -3712
2021-10-04 14:27:56 GMT 54.986389 -2.848933 24,975 354 478 -3840
2021-10-04 14:27:54 GMT 54.982224 -2.848125 24,975 354 479 -3776
2021-10-04 14:27:53 GMT 54.980026 -2.847721 25,100 354 479 -3200
2021-10-04 14:27:51 GMT 54.975632 -2.846832 25,175 354 479 -3200
2021-10-04 14:27:49 GMT 54.968582 -2.845459 25,350 354 481 -2496
2021-10-04 14:27:46 GMT 54.962227 -2.844211 25,500 354 482 -1984
2021-10-04 14:27:44 GMT 54.959564 -2.843682 25,525 354 482 -1984
2021-10-04 14:27:42 GMT 54.955799 -2.842962 25,550 354 482 -1984
2021-10-04 14:27:41 GMT 54.949375 -2.841630 25,650 354 483 -1984
2021-10-04 14:27:38 GMT 54.946072 -2.840965 25,700 354 483 -1984
2021-10-04 14:27:36 GMT 54.941437 -2.840047 25,775 354 483 -1920
2021-10-04 14:27:35 GMT 54.939182 -2.839633 25,800 354 483 -1920
2021-10-04 14:27:34 GMT 54.932785 -2.838350 25,875 354 483 -1856
2021-10-04 14:27:32 GMT 54.932785 -2.838350 25,900 354 482 -1856
2021-10-04 14:27:29 GMT 54.922192 -2.836220 26,025 354 482 -1920
2021-10-04 14:27:27 GMT 54.922192 -2.836220 26,050 354 481 -1920
2021-10-04 14:27:24 GMT 54.914883 -2.834722 26,150 354 481 -1920
2021-10-04 14:27:21 GMT 54.909164 -2.833584 26,250 354 480 -1984
2021-10-04 14:27:20 GMT 54.906734 -2.833058 26,275 354 480 -1984
2021-10-04 14:27:18 GMT 54.902344 -2.832211 26,400 354 479 -1984
2021-10-04 14:27:16 GMT 54.895515 -2.830811 26,450 354 479 -1920
2021-10-04 14:27:14 GMT 54.893093 -2.830311 26,475 354 478 -1984
2021-10-04 14:27:13 GMT 54.886765 -2.829063 26,575 354 478 -1920
2021-10-04 14:27:11 GMT 54.886765 -2.829063 26,575 354 478 -1920
2021-10-04 14:27:10 GMT 54.884766 -2.828656 26,600 354 478 -1920
2021-10-04 14:27:07 GMT 54.879272 -2.827606 26,675 354 478 -1920
2021-10-04 14:27:06 GMT 54.876011 -2.826899 26,725 354 478 -1920
2021-10-04 14:27:04 GMT 54.871403 -2.825983 26,800 354 478 -1920
2021-10-04 14:27:03 GMT 54.869431 -2.825587 26,825 354 478 -1920
2021-10-04 14:27:00 GMT 54.862885 -2.824235 26,925 354 477 -1920
2021-10-04 14:26:59 GMT 54.858692 -2.823403 27,000 354 477 -1984
2021-10-04 14:26:57 GMT 54.855621 -2.822820 27,025 354 477 -1984
2021-10-04 14:26:55 GMT 54.851898 -2.822113 27,075 354 477 -1984
2021-10-04 14:26:54 GMT 54.849709 -2.821655 27,100 354 478 -1920
2021-10-04 14:26:53 GMT 54.847523 -2.821239 27,125 354 478 -1920
2021-10-04 14:26:52 GMT 54.840771 -2.819907 27,225 354 478 -1856
2021-10-04 14:26:50 GMT 54.840771 -2.819907 27,225 354 478 -1856
2021-10-04 14:26:49 GMT 54.839447 -2.819609 27,275 354 478 -1856
2021-10-04 14:26:47 GMT 54.829559 -2.817670 27,375 354 478 -1856
2021-10-04 14:26:45 GMT 54.829559 -2.817670 27,400 354 478 -1856
2021-10-04 14:26:44 GMT 54.827595 -2.817327 27,425 354 478 -1856
2021-10-04 14:26:42 GMT 54.822987 -2.816412 27,475 354 477 -1856
2021-10-04 14:26:41 GMT 54.817539 -2.815330 27,575 354 477 -1856
2021-10-04 14:26:38 GMT 54.815353 -2.814914 27,600 354 477 -1856
2021-10-04 14:26:37 GMT 54.810745 -2.813998 27,650 354 477 -1856
2021-10-04 14:26:35 GMT 54.807220 -2.813389 27,700 354 477 -1856
2021-10-04 14:26:33 GMT 54.801292 -2.812250 27,800 354 477 -1856
2021-10-04 14:26:30 GMT 54.798035 -2.811584 27,850 354 477 -1856
2021-10-04 14:26:29 GMT 54.794724 -2.810965 27,900 353 476 -1856
2021-10-04 14:26:28 GMT 54.791889 -2.810336 27,925 353 476 -1920
2021-10-04 14:26:27 GMT 54.785339 -2.808865 28,000 352 475 -1920
2021-10-04 14:26:25 GMT 54.785339 -2.808865 28,025 352 475 -1984
2021-10-04 14:26:23 GMT 54.779526 -2.807330 28,100 351 473 -1984
2021-10-04 14:26:22 GMT 54.779526 -2.807330 28,125 351 474 -1984
2021-10-04 14:26:20 GMT 54.774761 -2.805925 28,200 351 473 -1984
2021-10-04 14:26:19 GMT 54.772617 -2.805342 28,225 350 472 -1984
2021-10-04 14:26:18 GMT 54.766159 -2.803210 28,300 350 473 -1984
2021-10-04 14:26:16 GMT 54.766159 -2.803210 28,325 349 472 -1984
2021-10-04 14:26:15 GMT 54.761677 -2.801680 28,425 349 472 -1920
2021-10-04 14:26:12 GMT 54.758286 -2.800383 28,425 348 471 -1920
2021-10-04 14:26:10 GMT 54.753811 -2.798684 28,500 347 471 -1920
2021-10-04 14:26:08 GMT 54.749771 -2.797071 28,575 346 470 -1920
2021-10-04 14:26:06 GMT 54.744732 -2.794855 28,650 346 470 -1984
2021-10-04 14:26:04 GMT 54.740730 -2.793024 28,700 346 470 -1984
2021-10-04 14:26:03 GMT 54.738636 -2.792025 28,725 345 470 -1920
2021-10-04 14:26:01 GMT 54.735489 -2.790527 28,775 345 470 -1984
2021-10-04 14:26:00 GMT 54.732376 -2.788992 28,850 344 469 -1984
2021-10-04 14:25:59 GMT 54.730488 -2.788030 28,850 344 469 -1984
2021-10-04 14:25:57 GMT 54.726379 -2.785842 28,925 343 469 -1984
2021-10-04 14:25:56 GMT 54.724274 -2.784711 28,950 342 468 -1984
2021-10-04 14:25:55 GMT 54.719971 -2.782288 29,000 342 468 -1984
2021-10-04 14:25:53 GMT 54.717911 -2.781157 29,050 342 468 -1984
2021-10-04 14:25:52 GMT 54.714249 -2.778895 29,100 341 468 -1984
2021-10-04 14:25:50 GMT 54.712193 -2.777710 29,150 340 467 -1984
2021-10-04 14:25:49 GMT 54.710194 -2.776378 29,175 340 468 -1984
2021-10-04 14:25:47 GMT 54.705490 -2.773382 29,250 339 468 -1920
2021-10-04 14:25:45 GMT 54.700275 -2.769886 29,350 339 468 -1856
2021-10-04 14:25:43 GMT 54.697495 -2.767908 29,375 339 468 -1856
2021-10-04 14:25:42 GMT 54.695667 -2.766724 29,400 339 468 -1856
2021-10-04 14:25:40 GMT 54.691479 -2.763727 29,475 339 468 -1920
2021-10-04 14:25:39 GMT 54.689850 -2.762645 29,500 339 468 -1920
2021-10-04 14:25:37 GMT 54.686050 -2.759992 29,550 339 468 -1920
2021-10-04 14:25:35 GMT 54.681610 -2.756903 29,600 339 468 -1920
2021-10-04 14:25:34 GMT 54.679607 -2.755571 29,650 339 468 -1920
2021-10-04 14:25:32 GMT 54.676208 -2.753157 29,775 338 469 -1920
2021-10-04 14:25:29 GMT 54.662754 -2.743752 29,850 338 469 -1920
2021-10-04 14:25:26 GMT 54.662754 -2.743752 29,975 338 469 -1984
2021-10-04 14:25:23 GMT 54.652084 -2.736404 30,075 338 469 -1920
2021-10-04 14:25:20 GMT 54.652084 -2.736404 30,100 338 469 -1920
2021-10-04 14:25:18 GMT 54.648285 -2.733738 30,150 339 470 -1856
2021-10-04 14:25:15 GMT 54.637253 -2.726063 30,300 338 470 -1856
2021-10-04 14:25:12 GMT 54.637253 -2.726063 30,325 338 470 -1792
2021-10-04 14:25:10 GMT 54.631985 -2.722362 30,475 339 470 -1856
2021-10-04 14:25:08 GMT 54.624165 -2.716952 30,500 338 469 -1856
2021-10-04 14:25:06 GMT 54.624165 -2.716952 30,550 338 469 -1856
2021-10-04 14:25:03 GMT 54.616562 -2.711604 30,650 338 467 -1920
2021-10-04 14:25:00 GMT 54.611778 -2.708296 30,725 338 467 -1920
2021-10-04 14:24:58 GMT 54.607956 -2.705626 30,775 338 467 -1920
2021-10-04 14:24:55 GMT 54.599770 -2.699890 30,925 338 466 -1984
2021-10-04 14:24:52 GMT 54.589417 -2.692701 31,075 339 464 -1984
2021-10-04 14:24:49 GMT 54.589417 -2.692701 31,150 339 464 -1984
2021-10-04 14:24:46 GMT 54.577888 -2.684659 31,225 339 464 -1984
2021-10-04 14:24:43 GMT 54.574539 -2.682329 31,500 339 462 -1984
2021-10-04 14:24:41 GMT 54.574539 -2.682329 31,425 339 464 -1984
2021-10-04 14:24:38 GMT 54.567764 -2.677675 31,750 339 462 -1984
2021-10-04 14:24:35 GMT 54.562775 -2.674282 31,550 339 463 -1920
2021-10-04 14:24:33 GMT 54.558849 -2.671509 31,625 339 462 -1984
2021-10-04 14:24:31 GMT 54.548748 -2.664517 31,825 339 462 -1920
2021-10-04 14:24:28 GMT 54.544006 -2.661276 31,800 339 462 -1984
2021-10-04 14:24:26 GMT 54.544006 -2.661276 31,850 339 462 -1920
2021-10-04 14:24:23 GMT 54.535858 -2.655622 31,975 338 463 -1920
2021-10-04 14:24:18 GMT 54.528313 -2.650368 32,150 339 464 -1920
2021-10-04 14:24:15 GMT 54.522354 -2.646251 32,250 339 464 -1920
2021-10-04 14:24:12 GMT 54.516586 -2.642212 32,275 339 464 -1920
2021-10-04 14:24:09 GMT 54.509583 -2.637446 32,425 339 465 -1920
2021-10-04 14:24:06 GMT 54.498642 -2.629852 32,575 339 469 -2176
2021-10-04 14:24:03 GMT 54.498642 -2.629852 32,600 339 467 -1856
2021-10-04 14:24:01 GMT 54.489395 -2.623471 32,675 339 467 -1856
2021-10-04 14:23:58 GMT 54.489395 -2.623471 32,725 339 468 -1920
2021-10-04 14:23:56 GMT 54.483807 -2.619657 32,825 339 469 -2048
2021-10-04 14:23:54 GMT 54.479553 -2.616766 32,925 339 470 -2240
2021-10-04 14:23:51 GMT 54.469299 -2.609657 33,000 339 470 -2304
2021-10-04 14:23:48 GMT 54.465042 -2.606749 33,150 339 472 -2304
2021-10-04 14:23:46 GMT 54.465042 -2.606749 33,200 339 472 -2368
2021-10-04 14:23:44 GMT 54.460999 -2.604009 33,250 338 472 -2432
2021-10-04 14:23:40 GMT 54.451675 -2.597540 33,525 338 473 -3264
2021-10-04 14:23:37 GMT 54.445217 -2.593023 33,625 338 472 -3328
2021-10-04 14:23:34 GMT 54.436092 -2.586614 33,875 338 472 -3456
2021-10-04 14:23:32 GMT 54.436092 -2.586614 34,050 338 472 -3328
2021-10-04 14:23:29 GMT 54.430847 -2.582999 34,050 338 472 -3072
2021-10-04 14:23:27 GMT 54.425617 -2.579373 34,125 338 472 -2944
2021-10-04 14:23:25 GMT 54.422779 -2.577376 34,250 338 472 -3008
2021-10-04 14:23:23 GMT 54.413280 -2.570801 34,425 338 471 -3456
2021-10-04 14:23:21 GMT 54.413280 -2.570801 34,650 339 470 -3584
2021-10-04 14:23:18 GMT 54.408463 -2.567489 34,600 339 470 -3584
2021-10-04 14:23:16 GMT 54.403599 -2.564142 34,800 339 470 -3456
2021-10-04 14:23:14 GMT 54.400177 -2.561753 35,000 339 470 -3264
2021-10-04 14:23:11 GMT 54.393951 -2.557553 35,075 339 470 -3200
2021-10-04 14:23:08 GMT 54.381500 -2.548990 36,175 339 468 -3456
2021-10-04 14:23:05 GMT 54.381500 -2.548990 35,500 339 467 -3520
2021-10-04 14:23:02 GMT 54.376270 -2.545416 35,625 339 467 -3520
2021-10-04 14:23:00 GMT 54.372070 -2.542608 35,825 339 465 -3648
2021-10-04 14:22:57 GMT 54.366257 -2.538650 36,100 339 465 -3520
2021-10-04 14:22:54 GMT 54.359467 -2.534013 36,050 339 465 -3328
2021-10-04 14:22:51 GMT 54.354263 -2.530491 36,225 339 465 -2880
2021-10-04 14:22:49 GMT 54.349319 -2.527105 36,300 339 464 -2624
2021-10-04 14:22:47 GMT 54.346115 -2.524997 36,425 339 466 -1984
2021-10-04 14:22:44 GMT 54.339111 -2.520231 36,500 339 467 -1728
2021-10-04 14:22:41 GMT 54.333298 -2.516354 36,575 339 468 -2048
2021-10-04 14:22:38 GMT 54.327438 -2.512373 36,700 339 469 -2688
2021-10-04 14:22:36 GMT 54.319012 -2.506714 37,150 339 466 -4224
2021-10-04 14:22:34 GMT 54.319012 -2.506714 36,975 339 467 -4160
2021-10-04 14:22:32 GMT 54.315010 -2.503967 37,075 339 464 -3072
2021-10-04 14:22:30 GMT 54.312607 -2.502379 37,125 339 466 -4224
2021-10-04 14:22:28 GMT 54.307800 -2.499067 37,275 339 464 -3968
2021-10-04 14:22:26 GMT 54.303417 -2.496060 37,450 339 464 -3392
2021-10-04 14:22:24 GMT 54.299416 -2.493397 37,550 339 464 -2944
2021-10-04 14:22:21 GMT 54.294250 -2.489857 37,675 339 464 -2496
2021-10-04 14:22:18 GMT 54.287079 -2.484991 37,875 339 464 -1984
2021-10-04 14:22:15 GMT 54.281307 -2.481079 37,875 339 465 -1408
2021-10-04 14:22:13 GMT 54.278515 -2.479165 37,925 339 464 -1216
2021-10-04 14:22:11 GMT 54.272141 -2.474827 37,975 339 466 -704
2021-10-04 14:22:08 GMT 54.266922 -2.471278 38,000 339 466 -320
2021-10-04 14:22:06 GMT 54.262917 -2.468531 38,000 339 468 64
2021-10-04 14:22:03 GMT 54.253098 -2.461801 38,000 339 468 64
2021-10-04 14:22:01 GMT 54.253098 -2.461801 38,000 339 468 64
2021-10-04 14:21:58 GMT 54.246670 -2.457464 38,000 339 468 64
2021-10-04 14:21:55 GMT 54.241692 -2.453990 38,000 339 468 64
2021-10-04 14:21:53 GMT 54.238850 -2.452132 38,000 339 468 64
2021-10-04 14:21:51 GMT 54.232658 -2.447851 38,000 339 468 0
2021-10-04 14:21:48 GMT 54.228424 -2.445023 38,000 339 468 0
2021-10-04 14:21:46 GMT 54.222382 -2.440927 38,000 339 468 0
2021-10-04 14:21:44 GMT 54.212952 -2.434492 38,000 339 468 0
2021-10-04 14:21:41 GMT 54.212952 -2.434492 38,000 339 468 0
2021-10-04 14:21:38 GMT 54.206963 -2.430402 38,000 339 468 0
2021-10-04 14:21:35 GMT 54.200726 -2.426201 38,000 339 468 0
2021-10-04 14:21:32 GMT 54.195099 -2.422407 38,000 339 468 0
2021-10-04 14:21:30 GMT 54.191483 -2.419896 38,000 339 468 0
2021-10-04 14:21:27 GMT 54.186493 -2.416521 38,000 339 467 0
2021-10-04 14:21:25 GMT 54.176468 -2.409694 38,000 339 467 0
2021-10-04 14:21:22 GMT 54.176468 -2.409694 38,000 339 467 0
2021-10-04 14:21:20 GMT 54.171444 -2.406329 38,000 339 467 -64
2021-10-04 14:21:17 GMT 54.166260 -2.402788 38,000 339 467 -64
2021-10-04 14:21:15 GMT 54.162643 -2.400351 38,000 339 466 -64
2021-10-04 14:21:13 GMT 54.151611 -2.392919 38,000 339 467 0
2021-10-04 14:21:10 GMT 54.151611 -2.392919 38,000 339 467 0
2021-10-04 14:21:07 GMT 54.146629 -2.389526 38,000 339 467 0
2021-10-04 14:21:05 GMT 54.135818 -2.382150 38,000 339 466 64
2021-10-04 14:21:02 GMT 54.135818 -2.382150 38,000 339 466 0
2021-10-04 14:21:00 GMT 54.131195 -2.379011 38,000 339 466 0
2021-10-04 14:20:58 GMT 54.127216 -2.376278 38,000 339 466 64
2021-10-04 14:20:55 GMT 54.119247 -2.370850 38,000 339 466 64
2021-10-04 14:20:52 GMT 54.116234 -2.368846 38,000 339 466 0
2021-10-04 14:20:50 GMT 54.110641 -2.365043 38,000 339 466 0
2021-10-04 14:20:47 GMT 54.103638 -2.360256 38,000 339 466 0
2021-10-04 14:20:44 GMT 54.099846 -2.357698 38,000 339 466 0
2021-10-04 14:20:42 GMT 54.095657 -2.354871 38,000 339 466 0
2021-10-04 14:20:40 GMT 54.090675 -2.351478 38,000 339 466 0
2021-10-04 14:20:37 GMT 54.085876 -2.348171 38,000 339 466 0
2021-10-04 14:20:35 GMT 54.080898 -2.344854 38,000 339 465 0
2021-10-04 14:20:32 GMT 54.075127 -2.340896 38,000 339 465 0
2021-10-04 14:20:30 GMT 54.069901 -2.337420 38,000 339 465 0
2021-10-04 14:20:27 GMT 54.066330 -2.334987 38,000 339 465 0
2021-10-04 14:20:25 GMT 54.060741 -2.331202 38,000 339 465 0
2021-10-04 14:20:23 GMT 54.057724 -2.329180 38,000 339 465 0
2021-10-04 14:20:20 GMT 54.051338 -2.324901 38,000 339 465 0
2021-10-04 14:20:18 GMT 54.047150 -2.322074 38,000 339 465 0
2021-10-04 14:20:16 GMT 54.042168 -2.318761 38,000 339 465 0
2021-10-04 14:20:13 GMT 54.032181 -2.312073 38,000 339 465 0
2021-10-04 14:20:10 GMT 54.032181 -2.312073 38,000 339 465 0
2021-10-04 14:20:08 GMT 54.023987 -2.306580 38,000 339 465 0
2021-10-04 14:20:06 GMT 54.023987 -2.306580 38,000 339 465 0
2021-10-04 14:20:03 GMT 54.016388 -2.301479 38,000 339 465 0
2021-10-04 14:20:00 GMT 54.009579 -2.296950 38,000 339 465 0
2021-10-04 14:19:57 GMT 54.005623 -2.294204 38,000 339 465 -64
2021-10-04 14:19:55 GMT 54.001015 -2.291134 38,000 339 465 -64
2021-10-04 14:19:52 GMT 53.993454 -2.286019 38,000 339 465 0
2021-10-04 14:19:49 GMT 53.989052 -2.282975 38,000 339 464 0
2021-10-04 14:19:47 GMT 53.986259 -2.281117 38,000 339 465 0
2021-10-04 14:19:44 GMT 53.980087 -2.276995 38,000 339 465 0
2021-10-04 14:19:42 GMT 53.975281 -2.273778 38,000 339 464 0
2021-10-04 14:19:39 GMT 53.968323 -2.269069 38,000 339 465 0
2021-10-04 14:19:36 GMT 53.962921 -2.265459 38,000 339 464 -64
2021-10-04 14:19:33 GMT 53.957336 -2.261693 38,000 339 465 -64
2021-10-04 14:19:30 GMT 53.951569 -2.257769 38,000 339 464 -64
2021-10-04 14:19:27 GMT 53.945572 -2.253732 38,000 339 464 0
2021-10-04 14:19:24 GMT 53.940811 -2.250549 38,000 339 464 0
2021-10-04 14:19:22 GMT 53.930813 -2.243877 38,000 339 464 0
2021-10-04 14:19:19 GMT 53.930813 -2.243877 38,000 339 464 64
2021-10-04 14:19:17 GMT 53.925041 -2.239918 38,000 339 464 64
2021-10-04 14:19:14 GMT 53.919270 -2.236122 38,000 339 464 64
2021-10-04 14:19:11 GMT 53.913300 -2.232108 38,000 339 464 0
2021-10-04 14:19:09 GMT 53.910286 -2.230063 38,000 339 464 0
2021-10-04 14:19:07 GMT 53.905518 -2.226929 38,000 339 465 0
2021-10-04 14:19:04 GMT 53.899338 -2.222770 38,000 339 465 0
2021-10-04 14:19:01 GMT 53.894318 -2.219481 38,000 339 465 0
2021-10-04 14:18:59 GMT 53.883190 -2.211968 38,000 339 465 64
2021-10-04 14:18:56 GMT 53.883190 -2.211968 38,000 339 464 0
2021-10-04 14:18:54 GMT 53.880959 -2.210514 38,000 339 464 0
2021-10-04 14:18:52 GMT 53.870018 -2.203163 38,000 339 464 0
2021-10-04 14:18:49 GMT 53.866013 -2.200497 38,000 339 464 64
2021-10-04 14:18:47 GMT 53.866013 -2.200497 38,000 339 465 0
2021-10-04 14:18:44 GMT 53.860840 -2.197109 38,000 339 465 0
2021-10-04 14:18:42 GMT 53.854839 -2.193065 38,000 339 465 0
2021-10-04 14:18:39 GMT 53.849670 -2.189654 38,000 339 465 0
2021-10-04 14:18:37 GMT 53.845436 -2.186845 38,000 339 465 0
2021-10-04 14:18:35 GMT 53.841064 -2.183925 38,000 339 465 0
2021-10-04 14:18:32 GMT 53.836079 -2.180544 38,000 339 465 0
2021-10-04 14:18:29 GMT 53.830078 -2.176627 38,000 339 465 0
2021-10-04 14:18:27 GMT 53.824677 -2.173017 38,000 339 465 0
2021-10-04 14:18:24 GMT 53.817902 -2.168466 38,000 339 465 0
2021-10-04 14:18:21 GMT 53.813278 -2.165405 38,000 339 465 0
2021-10-04 14:18:19 GMT 53.809113 -2.162659 38,000 339 465 0
2021-10-04 14:18:17 GMT 53.805496 -2.160226 38,000 339 466 0
2021-10-04 14:18:14 GMT 53.801285 -2.157479 38,000 339 466 0
2021-10-04 14:18:12 GMT 53.794693 -2.153085 38,000 339 466 0
2021-10-04 14:18:09 GMT 53.789886 -2.149867 38,000 339 466 0
2021-10-04 14:18:07 GMT 53.785107 -2.146696 38,000 339 466 0
2021-10-04 14:18:05 GMT 53.774872 -2.139980 38,000 339 466 -64
2021-10-04 14:18:02 GMT 53.774872 -2.139980 38,000 339 466 -64
2021-10-04 14:17:59 GMT 53.770256 -2.136922 38,000 339 466 -64
2021-10-04 14:17:56 GMT 53.764664 -2.133153 38,000 339 466 -64
2021-10-04 14:17:54 GMT 53.759674 -2.129857 38,000 339 466 -64
2021-10-04 14:17:52 GMT 53.750244 -2.123657 38,000 339 466 0
2021-10-04 14:17:49 GMT 53.750244 -2.123657 38,000 339 466 0
2021-10-04 14:17:47 GMT 53.745026 -2.120200 38,000 339 467 64
2021-10-04 14:17:44 GMT 53.740402 -2.117144 38,000 339 467 64
2021-10-04 14:17:41 GMT 53.732208 -2.111651 38,000 339 467 64
2021-10-04 14:17:38 GMT 53.729187 -2.109689 38,000 339 467 64
2021-10-04 14:17:36 GMT 53.724171 -2.106386 38,000 339 467 0
2021-10-04 14:17:33 GMT 53.717140 -2.101701 38,000 339 468 0
2021-10-04 14:17:30 GMT 53.708267 -2.095878 38,000 339 468 0
2021-10-04 14:17:28 GMT 53.708267 -2.095878 38,000 339 468 0
2021-10-04 14:17:26 GMT 53.703644 -2.092817 38,000 339 468 0
2021-10-04 14:17:23 GMT 53.698242 -2.089286 38,000 339 468 0
2021-10-04 14:17:20 GMT 53.691769 -2.085060 38,000 339 468 0
2021-10-04 14:17:18 GMT 53.687943 -2.082537 38,000 339 469 0
2021-10-04 14:17:16 GMT 53.684555 -2.080261 38,000 339 469 0
2021-10-04 14:17:14 GMT 53.679897 -2.077224 38,000 339 469 0
2021-10-04 14:17:12 GMT 53.676079 -2.074720 38,000 339 469 0
2021-10-04 14:17:10 GMT 53.672241 -2.072178 38,000 339 469 0
2021-10-04 14:17:08 GMT 53.667793 -2.069226 38,000 339 469 0
2021-10-04 14:17:06 GMT 53.664001 -2.066685 38,000 339 469 0
2021-10-04 14:17:04 GMT 53.659744 -2.063939 38,000 339 469 0
2021-10-04 14:17:01 GMT 53.652695 -2.059309 38,000 339 469 64
2021-10-04 14:16:58 GMT 53.647659 -2.055934 38,000 339 469 64
2021-10-04 14:16:56 GMT 53.644821 -2.054129 38,000 339 469 64
2021-10-04 14:16:54 GMT 53.639374 -2.050520 38,000 339 470 0
2021-10-04 14:16:52 GMT 53.635162 -2.047695 38,000 339 470 0
2021-10-04 14:16:49 GMT 53.624268 -2.040554 38,000 339 470 0
2021-10-04 14:16:46 GMT 53.624268 -2.040554 38,000 339 470 0
2021-10-04 14:16:44 GMT 53.615330 -2.034652 38,000 339 470 0
2021-10-04 14:16:42 GMT 53.615330 -2.034652 38,000 339 470 0
2021-10-04 14:16:40 GMT 53.611092 -2.031905 38,000 339 470 0
2021-10-04 14:16:38 GMT 53.607239 -2.029332 38,000 339 471 -64
2021-10-04 14:16:36 GMT 53.599548 -2.024309 38,000 339 471 -64
2021-10-04 14:16:34 GMT 53.592499 -2.019601 38,000 339 471 -64
2021-10-04 14:16:31 GMT 53.586422 -2.015668 38,000 339 471 0
2021-10-04 14:16:28 GMT 53.586422 -2.015668 38,000 339 471 -64
2021-10-04 14:16:26 GMT 53.580975 -2.012033 38,000 339 471 0
2021-10-04 14:16:23 GMT 53.571213 -2.005711 38,000 339 471 0
2021-10-04 14:16:20 GMT 53.571213 -2.005711 38,000 339 471 0
2021-10-04 14:16:18 GMT 53.565983 -2.002258 38,000 339 471 0
2021-10-04 14:16:16 GMT 53.562927 -2.000218 38,000 339 471 64
2021-10-04 14:16:14 GMT 53.557846 -1.996922 38,000 339 471 0
2021-10-04 14:16:12 GMT 53.553635 -1.994176 38,000 339 471 0
2021-10-04 14:16:10 GMT 53.549973 -1.991743 38,000 339 471 0
2021-10-04 14:16:08 GMT 53.544891 -1.988447 38,000 339 471 0
2021-10-04 14:16:05 GMT 53.537018 -1.983346 38,000 339 471 0
2021-10-04 14:16:03 GMT 53.530090 -1.978832 38,000 339 471 0
2021-10-04 14:16:00 GMT 53.530090 -1.978832 38,000 339 471 0
2021-10-04 14:15:58 GMT 53.526443 -1.976440 38,000 339 471 0
2021-10-04 14:15:56 GMT 53.520584 -1.972595 38,000 339 471 0
2021-10-04 14:15:53 GMT 53.516312 -1.969865 38,000 339 471 0
2021-10-04 14:15:50 GMT 53.510239 -1.965846 38,000 339 471 0
2021-10-04 14:15:47 GMT 53.505421 -1.962675 38,000 339 471 0
2021-10-04 14:15:45 GMT 53.499928 -1.959121 38,000 339 471 0
2021-10-04 14:15:42 GMT 53.493271 -1.954759 38,000 339 471 0
2021-10-04 14:15:39 GMT 53.481117 -1.946761 38,000 339 471 0
2021-10-04 14:15:36 GMT 53.481117 -1.946761 38,000 339 471 0
2021-10-04 14:15:34 GMT 53.475441 -1.943045 38,000 339 471 0
2021-10-04 14:15:31 GMT 53.470367 -1.939733 38,000 339 471 0
2021-10-04 14:15:28 GMT 53.464500 -1.935856 38,000 339 471 0
2021-10-04 14:15:25 GMT 53.460262 -1.933109 38,000 339 471 0
2021-10-04 14:15:23 GMT 53.455994 -1.930298 38,000 339 471 0
2021-10-04 14:15:20 GMT 53.448532 -1.925354 38,000 339 471 0
2021-10-04 14:15:18 GMT 53.444855 -1.923011 38,000 339 471 0
2021-10-04 14:15:16 GMT 53.440384 -1.920096 38,000 339 471 0
2021-10-04 14:15:13 GMT 53.435547 -1.916953 38,000 339 471 0
2021-10-04 14:15:11 GMT 53.431076 -1.914045 38,000 339 471 0
2021-10-04 14:15:09 GMT 53.424000 -1.909359 38,000 339 471 0
2021-10-04 14:15:05 GMT 53.414062 -1.902911 38,000 339 471 0
2021-10-04 14:15:03 GMT 53.414062 -1.902911 38,000 339 471 0
2021-10-04 14:15:00 GMT 53.408386 -1.899222 38,000 339 471 0
2021-10-04 14:14:57 GMT 53.402306 -1.895222 38,000 339 471 0
2021-10-04 14:14:55 GMT 53.397446 -1.892081 38,000 339 471 0
2021-10-04 14:14:52 GMT 53.392204 -1.888679 38,000 339 471 0
2021-10-04 14:14:49 GMT 53.385086 -1.883998 38,000 339 471 64
2021-10-04 14:14:46 GMT 53.378815 -1.879918 38,000 339 470 0
2021-10-04 14:14:43 GMT 53.374969 -1.877485 38,000 339 471 0
2021-10-04 14:14:40 GMT 53.366043 -1.871634 38,000 339 472 0
2021-10-04 14:14:37 GMT 53.357529 -1.866106 38,000 339 471 0
2021-10-04 14:14:35 GMT 53.357529 -1.866106 38,000 339 471 0
2021-10-04 14:14:33 GMT 53.353867 -1.863752 38,000 339 472 0
2021-10-04 14:14:30 GMT 53.347794 -1.859759 38,000 339 472 0
2021-10-04 14:14:27 GMT 53.337845 -1.853237 38,000 339 472 0
2021-10-04 14:14:25 GMT 53.337845 -1.853237 38,000 339 472 0
2021-10-04 14:14:23 GMT 53.332809 -1.849941 38,000 339 472 0
2021-10-04 14:14:20 GMT 53.327316 -1.846409 38,000 339 472 -64
2021-10-04 14:14:17 GMT 53.321823 -1.842800 38,000 339 472 -64
2021-10-04 14:14:15 GMT 53.316792 -1.839483 38,000 339 472 0
2021-10-04 14:14:12 GMT 53.311111 -1.835815 38,000 339 472 -64
2021-10-04 14:14:09 GMT 53.304173 -1.831324 38,000 339 472 0
2021-10-04 14:14:06 GMT 53.298111 -1.827419 38,000 339 472 64
2021-10-04 14:14:04 GMT 53.296074 -1.826073 38,000 339 472 64
2021-10-04 14:14:02 GMT 53.290394 -1.822357 38,000 339 472 0
2021-10-04 14:14:00 GMT 53.281265 -1.816432 38,000 339 472 0
2021-10-04 14:13:57 GMT 53.281265 -1.816432 38,000 339 472 0
2021-10-04 14:13:55 GMT 53.277409 -1.813956 38,000 339 472 0
2021-10-04 14:13:53 GMT 53.272110 -1.810547 38,000 339 472 0
2021-10-04 14:13:50 GMT 53.265793 -1.806466 38,000 339 472 0
2021-10-04 14:13:47 GMT 53.260136 -1.802808 38,000 339 472 0
2021-10-04 14:13:45 GMT 53.257462 -1.801052 38,000 339 472 0
2021-10-04 14:13:43 GMT 53.244461 -1.792655 38,000 339 472 0
2021-10-04 14:13:40 GMT 53.238396 -1.788671 38,000 339 472 0
2021-10-04 14:13:37 GMT 53.238396 -1.788671 38,000 339 472 0
2021-10-04 14:13:34 GMT 53.230042 -1.783238 38,000 339 472 0
2021-10-04 14:13:32 GMT 53.230042 -1.783238 38,000 339 472 0
2021-10-04 14:13:29 GMT 53.224365 -1.779628 38,000 339 472 64
2021-10-04 14:13:27 GMT 53.219284 -1.776332 38,000 339 472 64
2021-10-04 14:13:25 GMT 53.217270 -1.774998 38,000 339 472 64
2021-10-04 14:13:23 GMT 53.211777 -1.771467 38,000 339 472 64
2021-10-04 14:13:21 GMT 53.207485 -1.768718 38,000 339 472 0
2021-10-04 14:13:18 GMT 53.201385 -1.764718 38,000 339 472 -64
2021-10-04 14:13:15 GMT 53.194916 -1.760559 38,000 339 472 0
2021-10-04 14:13:13 GMT 53.183929 -1.753450 38,000 339 472 0
2021-10-04 14:13:10 GMT 53.183929 -1.753450 38,000 339 472 0
2021-10-04 14:13:07 GMT 53.178856 -1.750138 38,000 339 472 0
2021-10-04 14:13:04 GMT 53.172523 -1.746099 38,000 339 472 0
2021-10-04 14:13:02 GMT 53.167648 -1.742902 38,000 339 472 0
2021-10-04 14:12:59 GMT 53.163574 -1.740313 38,000 339 472 0
2021-10-04 14:12:57 GMT 53.158699 -1.737132 38,000 339 472 0
2021-10-04 14:12:55 GMT 53.153206 -1.733578 38,000 339 472 0
2021-10-04 14:12:52 GMT 53.149338 -1.731131 38,000 339 472 0
2021-10-04 14:12:49 GMT 53.135468 -1.722188 38,000 339 473 0
2021-10-04 14:12:46 GMT 53.129559 -1.718472 38,000 339 473 0
2021-10-04 14:12:43 GMT 53.126495 -1.716535 38,000 339 473 0
2021-10-04 14:12:41 GMT 53.126495 -1.716535 38,000 340 473 0
2021-10-04 14:12:39 GMT 53.123272 -1.714433 38,000 340 473 0
2021-10-04 14:12:37 GMT 53.119400 -1.711984 38,000 339 473 0
2021-10-04 14:12:35 GMT 53.113262 -1.708051 38,000 339 473 0
2021-10-04 14:12:32 GMT 53.107132 -1.704136 38,000 339 473 0
2021-10-04 14:12:29 GMT 53.100414 -1.699811 38,000 340 473 0
2021-10-04 14:12:26 GMT 53.096512 -1.697388 38,000 343 475 0
2021-10-04 14:12:24 GMT 53.090359 -1.693778 38,000 342 474 -64
2021-10-04 14:12:21 GMT 53.084309 -1.690404 38,000 343 475 0
2021-10-04 14:12:18 GMT 53.076782 -1.686401 38,000 344 476 0
2021-10-04 14:12:15 GMT 53.070065 -1.683027 38,000 344 476 0
2021-10-04 14:12:11 GMT 53.063690 -1.680069 38,000 346 477 0
2021-10-04 14:12:08 GMT 53.056889 -1.677141 38,000 348 478 0
2021-10-04 14:12:05 GMT 53.044876 -1.672433 38,000 348 478 0
2021-10-04 14:12:02 GMT 53.040970 -1.671021 38,000 349 479 0
2021-10-04 14:12:00 GMT 53.040970 -1.671021 38,000 349 479 0
2021-10-04 14:11:57 GMT 53.032078 -1.668117 38,000 351 480 0
2021-10-04 14:11:54 GMT 53.022907 -1.665527 38,000 351 481 64
2021-10-04 14:11:52 GMT 53.022907 -1.665527 38,000 354 482 0
2021-10-04 14:11:50 GMT 53.018692 -1.664429 38,000 353 482 64
2021-10-04 14:11:47 GMT 53.010105 -1.662545 38,000 354 482 0
2021-10-04 14:11:44 GMT 53.005032 -1.661604 38,000 355 483 0
2021-10-04 14:11:42 GMT 53.001911 -1.661054 38,000 355 483 0
2021-10-04 14:11:40 GMT 52.997498 -1.660309 38,000 355 483 0
2021-10-04 14:11:38 GMT 52.992142 -1.659393 38,000 355 483 0
2021-10-04 14:11:35 GMT 52.985477 -1.658229 38,000 355 483 0
2021-10-04 14:11:33 GMT 52.981064 -1.657486 38,000 355 483 0
2021-10-04 14:11:30 GMT 52.967331 -1.655121 38,000 355 483 0
2021-10-04 14:11:27 GMT 52.967331 -1.655121 38,000 355 483 0
2021-10-04 14:11:24 GMT 52.960201 -1.653835 38,000 355 483 0
2021-10-04 14:11:21 GMT 52.954659 -1.652893 38,000 355 483 0
2021-10-04 14:11:18 GMT 52.947350 -1.651637 38,000 355 482 -64
2021-10-04 14:11:15 GMT 52.942696 -1.650853 38,000 355 482 -64
2021-10-04 14:11:13 GMT 52.931385 -1.648891 38,000 355 482 -64
2021-10-04 14:11:10 GMT 52.931385 -1.648891 38,000 355 482 -64
2021-10-04 14:11:08 GMT 52.924541 -1.647714 38,000 355 482 -64
2021-10-04 14:11:06 GMT 52.921875 -1.647263 38,000 355 482 0
2021-10-04 14:11:02 GMT 52.910797 -1.645355 38,000 355 481 0
2021-10-04 14:10:59 GMT 52.903313 -1.644026 38,000 355 481 64
2021-10-04 14:10:56 GMT 52.896889 -1.642927 38,000 355 481 64
2021-10-04 14:10:53 GMT 52.892670 -1.642227 38,000 355 481 0
2021-10-04 14:10:51 GMT 52.886929 -1.641200 38,000 355 481 0
2021-10-04 14:10:48 GMT 52.880966 -1.640259 38,000 355 481 0
2021-10-04 14:10:45 GMT 52.874359 -1.639099 38,000 355 481 0
2021-10-04 14:10:41 GMT 52.864609 -1.637421 38,000 355 481 0
2021-10-04 14:10:38 GMT 52.857552 -1.636257 38,000 355 480 0
2021-10-04 14:10:35 GMT 52.851593 -1.635236 38,000 355 480 0
2021-10-04 14:10:32 GMT 52.847626 -1.634598 38,000 355 480 0
2021-10-04 14:10:30 GMT 52.841904 -1.633606 38,000 355 480 0
2021-10-04 14:10:27 GMT 52.836594 -1.632690 38,000 355 480 0
2021-10-04 14:10:24 GMT 52.828644 -1.631313 38,000 355 480 0
2021-10-04 14:10:21 GMT 52.822037 -1.630173 38,000 355 480 0
2021-10-04 14:10:18 GMT 52.807709 -1.627731 38,000 355 480 0
2021-10-04 14:10:15 GMT 52.807709 -1.627731 38,000 355 480 0
2021-10-04 14:10:12 GMT 52.802200 -1.626840 38,000 355 480 0
2021-10-04 14:10:10 GMT 52.798012 -1.626134 38,000 355 480 0
2021-10-04 14:10:07 GMT 52.784790 -1.623858 38,000 355 479 0
2021-10-04 14:10:04 GMT 52.784790 -1.623858 38,000 355 479 0
2021-10-04 14:10:02 GMT 52.780380 -1.623154 38,000 355 479 0
2021-10-04 14:10:00 GMT 52.775108 -1.622210 38,000 355 479 0
2021-10-04 14:09:57 GMT 52.767612 -1.620954 38,000 355 479 0
2021-10-04 14:09:54 GMT 52.762119 -1.620013 38,000 355 479 0
2021-10-04 14:09:52 GMT 52.750900 -1.618118 38,000 355 479 0
2021-10-04 14:09:49 GMT 52.746479 -1.617344 38,000 355 479 0
2021-10-04 14:09:47 GMT 52.746479 -1.617344 38,000 355 479 0
2021-10-04 14:09:44 GMT 52.741219 -1.616481 38,000 355 479 0
2021-10-04 14:09:42 GMT 52.735931 -1.615601 38,000 355 479 0
2021-10-04 14:09:40 GMT 52.724533 -1.613693 38,000 355 478 0
2021-10-04 14:09:37 GMT 52.724533 -1.613693 38,000 355 478 0
2021-10-04 14:09:35 GMT 52.721420 -1.613159 38,000 355 478 0
2021-10-04 14:09:33 GMT 52.715710 -1.612165 38,000 355 478 0
2021-10-04 14:09:30 GMT 52.708027 -1.610910 38,000 355 478 0
2021-10-04 14:09:27 GMT 52.700764 -1.609654 38,000 355 478 0
2021-10-04 14:09:24 GMT 52.696156 -1.608869 38,000 355 478 0
2021-10-04 14:09:22 GMT 52.690018 -1.607895 38,000 355 478 0
2021-10-04 14:09:19 GMT 52.685623 -1.607132 38,000 355 478 0
2021-10-04 14:09:16 GMT 52.678802 -1.605988 38,000 355 478 0
2021-10-04 14:09:13 GMT 52.671112 -1.604691 38,000 355 478 0
2021-10-04 14:09:10 GMT 52.664337 -1.603546 38,000 355 478 0
2021-10-04 14:09:07 GMT 52.657745 -1.602402 38,000 355 477 0
2021-10-04 14:09:04 GMT 52.651836 -1.601414 38,000 355 477 0
2021-10-04 14:09:02 GMT 52.648533 -1.600865 38,000 355 477 0
2021-10-04 14:09:00 GMT 52.644157 -1.600080 38,000 355 477 0
2021-10-04 14:08:58 GMT 52.638885 -1.599197 38,000 355 477 0
2021-10-04 14:08:56 GMT 52.634521 -1.598432 38,000 355 477 0
2021-10-04 14:08:53 GMT 52.626839 -1.597177 38,000 355 477 0
2021-10-04 14:08:50 GMT 52.621124 -1.596222 38,000 355 477 0
2021-10-04 14:08:47 GMT 52.615631 -1.595230 38,000 355 477 0
2021-10-04 14:08:44 GMT 52.608173 -1.593959 38,000 355 477 0
2021-10-04 14:08:41 GMT 52.597000 -1.592076 38,000 355 477 0
2021-10-04 14:08:39 GMT 52.589996 -1.590881 38,000 355 477 0
2021-10-04 14:08:36 GMT 52.585640 -1.590114 38,000 354 477 -64
2021-10-04 14:08:33 GMT 52.585640 -1.590114 38,000 354 477 -64
2021-10-04 14:08:31 GMT 52.580383 -1.589279 38,000 355 477 -64
2021-10-04 14:08:29 GMT 52.577316 -1.588745 38,000 355 477 0
2021-10-04 14:08:27 GMT 52.564831 -1.586583 38,000 355 477 64
2021-10-04 14:08:24 GMT 52.564831 -1.586583 38,000 355 477 64
2021-10-04 14:08:22 GMT 52.559555 -1.585693 38,000 355 476 0
2021-10-04 14:08:19 GMT 52.554977 -1.584930 38,000 355 476 0
2021-10-04 14:08:17 GMT 52.549713 -1.584015 38,000 355 476 0
2021-10-04 14:08:14 GMT 52.543579 -1.583023 38,000 355 476 0
2021-10-04 14:08:12 GMT 52.531128 -1.580933 38,000 355 476 0
2021-10-04 14:08:09 GMT 52.531128 -1.580933 38,000 355 476 0
2021-10-04 14:08:06 GMT 52.524750 -1.579834 38,000 355 476 0
2021-10-04 14:08:03 GMT 52.519489 -1.578971 38,000 355 476 0
2021-10-04 14:08:01 GMT 52.513393 -1.577951 38,000 355 476 0
2021-10-04 14:07:59 GMT 52.510529 -1.577454 38,000 355 476 0
2021-10-04 14:07:56 GMT 52.502014 -1.576004 38,000 355 476 0
2021-10-04 14:07:53 GMT 52.498947 -1.575546 38,000 355 476 -64
2021-10-04 14:07:51 GMT 52.488876 -1.573868 38,000 355 476 0
2021-10-04 14:07:49 GMT 52.488876 -1.573868 38,000 355 476 0
2021-10-04 14:07:46 GMT 52.481232 -1.572571 38,000 355 476 64
2021-10-04 14:07:43 GMT 52.474239 -1.571359 38,000 355 476 0
2021-10-04 14:07:40 GMT 52.468094 -1.570358 38,000 355 476 0
2021-10-04 14:07:37 GMT 52.461533 -1.569240 38,000 355 476 0
2021-10-04 14:07:34 GMT 52.454544 -1.568069 38,000 355 476 0
2021-10-04 14:07:31 GMT 52.448868 -1.567154 38,000 355 476 0
2021-10-04 14:07:28 GMT 52.442261 -1.566023 38,000 355 476 0
2021-10-04 14:07:26 GMT 52.436600 -1.565094 38,000 355 476 0
2021-10-04 14:07:23 GMT 52.432671 -1.564453 38,000 355 476 0
2021-10-04 14:07:21 GMT 52.427170 -1.563492 38,000 355 476 0
2021-10-04 14:07:19 GMT 52.422802 -1.562805 38,000 355 476 0
2021-10-04 14:07:16 GMT 52.414932 -1.561471 38,000 355 476 0
2021-10-04 14:07:13 GMT 52.408791 -1.560451 38,000 355 476 0
2021-10-04 14:07:10 GMT 52.396317 -1.558380 38,000 355 476 0
2021-10-04 14:07:07 GMT 52.388863 -1.557077 38,000 355 476 0
2021-10-04 14:07:04 GMT 52.385605 -1.556549 38,000 355 476 0
2021-10-04 14:07:02 GMT 52.381229 -1.555821 38,000 355 476 0
2021-10-04 14:06:58 GMT 52.375946 -1.554947 38,000 355 476 0
2021-10-04 14:06:55 GMT 52.370270 -1.554031 38,000 355 476 0
2021-10-04 14:06:52 GMT 52.360840 -1.552447 38,000 355 476 0
2021-10-04 14:06:49 GMT 52.357590 -1.551895 38,000 355 476 0
2021-10-04 14:06:46 GMT 52.349480 -1.550485 38,000 355 476 0
2021-10-04 14:06:44 GMT 52.345104 -1.549779 38,000 355 476 0
2021-10-04 14:06:40 GMT 52.335709 -1.548157 38,000 355 476 0
2021-10-04 14:06:37 GMT 52.324951 -1.546402 38,000 355 476 0
2021-10-04 14:06:35 GMT 52.324951 -1.546402 38,000 355 476 0
2021-10-04 14:06:32 GMT 52.320572 -1.545698 38,000 355 476 0
2021-10-04 14:06:30 GMT 52.314011 -1.544571 38,000 355 476 0
2021-10-04 14:06:27 GMT 52.308792 -1.543655 38,000 355 476 0
2021-10-04 14:06:25 GMT 52.304169 -1.542892 38,000 355 476 0
2021-10-04 14:06:22 GMT 52.297852 -1.541824 38,000 355 476 0
2021-10-04 14:06:19 GMT 52.289104 -1.540362 38,000 355 476 64
2021-10-04 14:06:16 GMT 52.283844 -1.539536 38,000 355 476 64
2021-10-04 14:06:13 GMT 52.276611 -1.538315 38,000 355 476 0
2021-10-04 14:06:10 GMT 52.271366 -1.537458 38,000 355 476 0
2021-10-04 14:06:07 GMT 52.258438 -1.535339 38,000 355 476 0
2021-10-04 14:06:04 GMT 52.258438 -1.535339 38,000 355 476 0
2021-10-04 14:06:02 GMT 52.253632 -1.534500 38,000 355 476 0
2021-10-04 14:05:59 GMT 52.247269 -1.533508 38,000 355 476 0
2021-10-04 14:05:57 GMT 52.237663 -1.531965 38,000 355 476 0
2021-10-04 14:05:55 GMT 52.237663 -1.531965 38,000 355 476 0
2021-10-04 14:05:52 GMT 52.232391 -1.531067 38,000 355 476 0
2021-10-04 14:05:50 GMT 52.228226 -1.530380 38,000 355 476 0
2021-10-04 14:05:47 GMT 52.221649 -1.529297 38,000 355 476 0
2021-10-04 14:05:45 GMT 52.217514 -1.528625 38,000 355 476 0
2021-10-04 14:05:43 GMT 52.211407 -1.527649 38,000 355 476 0
2021-10-04 14:05:40 GMT 52.203964 -1.526413 38,000 355 476 0
2021-10-04 14:05:37 GMT 52.198929 -1.525574 38,000 355 476 0
2021-10-04 14:05:35 GMT 52.195404 -1.525040 38,000 355 476 0
2021-10-04 14:05:32 GMT 52.182499 -1.522862 38,000 355 476 0
2021-10-04 14:05:30 GMT 52.182499 -1.522862 38,000 355 476 0
2021-10-04 14:05:27 GMT 52.179016 -1.522293 38,000 355 476 0
2021-10-04 14:05:25 GMT 52.172443 -1.521293 38,000 355 476 0
2021-10-04 14:05:22 GMT 52.166111 -1.520194 38,000 355 476 0
2021-10-04 14:05:20 GMT 52.161713 -1.519470 38,000 355 476 0
2021-10-04 14:05:18 GMT 52.157547 -1.518860 38,000 355 476 0
2021-10-04 14:05:15 GMT 52.151634 -1.517840 38,000 355 476 0
2021-10-04 14:05:12 GMT 52.145096 -1.516800 38,000 355 476 0
2021-10-04 14:05:10 GMT 52.140694 -1.516113 38,000 355 476 0
2021-10-04 14:05:08 GMT 52.135246 -1.515172 38,000 355 476 0
2021-10-04 14:05:06 GMT 52.132416 -1.514740 38,000 355 476 0
2021-10-04 14:05:03 GMT 52.125843 -1.513602 38,000 355 476 0
2021-10-04 14:05:01 GMT 52.113373 -1.511536 38,000 355 476 0
2021-10-04 14:04:58 GMT 52.108154 -1.510699 38,000 355 476 0
2021-10-04 14:04:55 GMT 52.108154 -1.510699 38,000 355 476 0
2021-10-04 14:04:53 GMT 52.102432 -1.509781 38,000 355 476 0
2021-10-04 14:04:50 GMT 52.096115 -1.508713 38,000 355 476 0
2021-10-04 14:04:47 GMT 52.089115 -1.507560 38,000 355 476 -64
2021-10-04 14:04:45 GMT 52.084507 -1.506775 38,000 355 476 -64
2021-10-04 14:04:42 GMT 52.079247 -1.505912 38,000 355 476 -64
2021-10-04 14:04:39 GMT 52.073334 -1.504970 38,000 355 476 -64
2021-10-04 14:04:37 GMT 52.068771 -1.504185 38,000 355 476 -64
2021-10-04 14:04:35 GMT 52.063065 -1.503296 38,000 355 476 -64
2021-10-04 14:04:32 GMT 52.056946 -1.502223 38,000 355 476 0
2021-10-04 14:04:30 GMT 52.053875 -1.501753 38,000 355 476 0
2021-10-04 14:04:28 GMT 52.048187 -1.500778 38,000 355 476 0
2021-10-04 14:04:26 GMT 52.043610 -1.500015 38,000 355 475 0
2021-10-04 14:04:23 GMT 52.037487 -1.499006 38,000 355 475 0
2021-10-04 14:04:21 GMT 52.032459 -1.498221 38,000 355 475 0
2021-10-04 14:04:19 GMT 52.022415 -1.496506 38,000 355 475 0
2021-10-04 14:04:16 GMT 52.022415 -1.496506 38,000 355 475 64
2021-10-04 14:04:14 GMT 52.011932 -1.494768 38,000 355 475 64
2021-10-04 14:04:12 GMT 52.011932 -1.494768 38,000 355 475 64
2021-10-04 14:04:09 GMT 52.006256 -1.493835 38,000 355 475 0
2021-10-04 14:04:06 GMT 51.998611 -1.492538 38,000 355 475 0
2021-10-04 14:04:03 GMT 51.994034 -1.491776 38,000 355 475 0
2021-10-04 14:04:01 GMT 51.991196 -1.491318 38,000 355 475 0
2021-10-04 14:03:59 GMT 51.985302 -1.490295 38,000 355 475 0
2021-10-04 14:03:57 GMT 51.980896 -1.489563 38,000 355 475 0
2021-10-04 14:03:55 GMT 51.976776 -1.488876 38,000 355 475 0
2021-10-04 14:03:52 GMT 51.968918 -1.487627 38,000 355 475 0
2021-10-04 14:03:49 GMT 51.962585 -1.486529 38,000 355 475 0
2021-10-04 14:03:47 GMT 51.959061 -1.485977 38,000 355 475 0
2021-10-04 14:03:45 GMT 51.954712 -1.485214 38,000 355 475 0
2021-10-04 14:03:43 GMT 51.947937 -1.484070 38,000 355 475 0
2021-10-04 14:03:40 GMT 51.942902 -1.483307 38,000 355 475 0
2021-10-04 14:03:38 GMT 51.938564 -1.482527 38,000 355 475 0
2021-10-04 14:03:35 GMT 51.931549 -1.481400 38,000 355 475 0
2021-10-04 14:03:32 GMT 51.925232 -1.480331 38,000 355 475 0
2021-10-04 14:03:30 GMT 51.922165 -1.479874 38,000 355 474 0
2021-10-04 14:03:27 GMT 51.909531 -1.477814 38,000 355 474 0
2021-10-04 14:03:24 GMT 51.909531 -1.477814 38,000 355 474 0
2021-10-04 14:03:22 GMT 51.902580 -1.476641 38,000 355 474 0
2021-10-04 14:03:19 GMT 51.896484 -1.475677 38,000 355 474 0
2021-10-04 14:03:16 GMT 51.891685 -1.474915 38,000 355 474 0
2021-10-04 14:03:14 GMT 51.885178 -1.473801 38,000 355 473 0
2021-10-04 14:03:11 GMT 51.880600 -1.473059 38,000 355 473 0
2021-10-04 14:03:09 GMT 51.876022 -1.472316 38,000 355 473 -64
2021-10-04 14:03:07 GMT 51.869480 -1.471252 38,000 355 473 0
2021-10-04 14:03:04 GMT 51.863434 -1.470312 38,025 355 472 0
2021-10-04 14:03:01 GMT 51.859940 -1.469727 38,025 355 471 0
2021-10-04 14:02:59 GMT 51.854771 -1.468887 38,025 355 471 0
2021-10-04 14:02:56 GMT 51.848904 -1.467896 38,025 355 470 0
2021-10-04 14:02:54 GMT 51.835964 -1.465836 38,025 355 469 -64
2021-10-04 14:02:51 GMT 51.835964 -1.465836 38,025 355 469 -64
2021-10-04 14:02:48 GMT 51.830795 -1.464967 38,025 355 468 -64
2021-10-04 14:02:45 GMT 51.824158 -1.463854 38,025 355 467 0
2021-10-04 14:02:43 GMT 51.820927 -1.463394 38,025 355 465 0
2021-10-04 14:02:41 GMT 51.816410 -1.462631 38,025 355 466 0
2021-10-04 14:02:39 GMT 51.811058 -1.461792 38,025 355 465 0
2021-10-04 14:02:37 GMT 51.806587 -1.461029 38,025 355 465 0
2021-10-04 14:02:34 GMT 51.801422 -1.460190 38,025 355 459 0
2021-10-04 14:02:31 GMT 51.796116 -1.459351 38,025 355 464 64
2021-10-04 14:02:29 GMT 51.790146 -1.458361 38,025 355 463 64
2021-10-04 14:02:27 GMT 51.779755 -1.456728 38,000 355 462 64
2021-10-04 14:02:24 GMT 51.779755 -1.456728 38,000 355 462 64
2021-10-04 14:02:22 GMT 51.775269 -1.456060 38,000 355 461 64
2021-10-04 14:02:20 GMT 51.771240 -1.455392 38,000 355 461 64
2021-10-04 14:02:18 GMT 51.767212 -1.454798 38,000 355 460 0
2021-10-04 14:02:16 GMT 51.762363 -1.454010 38,000 355 459 0
2021-10-04 14:02:14 GMT 51.758972 -1.453462 38,000 355 460 0
2021-10-04 14:02:11 GMT 51.751373 -1.452274 38,000 355 459 0
2021-10-04 14:02:09 GMT 51.741898 -1.450789 38,000 355 458 0
2021-10-04 14:02:07 GMT 51.741898 -1.450789 38,000 355 458 0
2021-10-04 14:02:04 GMT 51.737045 -1.449973 38,000 355 457 0
2021-10-04 14:02:01 GMT 51.729500 -1.448822 38,000 355 455 -64
2021-10-04 14:01:58 GMT 51.723221 -1.447820 38,000 355 455 -64
2021-10-04 14:01:55 GMT 51.718605 -1.447067 38,000 355 455 -64
2021-10-04 14:01:53 GMT 51.714417 -1.446381 38,000 355 454 -64
2021-10-04 14:01:51 GMT 51.710266 -1.445667 38,000 355 453 -64
2021-10-04 14:01:49 GMT 51.699471 -1.443863 38,000 355 452 0
2021-10-04 14:01:46 GMT 51.699471 -1.443863 38,000 355 452 0
2021-10-04 14:01:44 GMT 51.694473 -1.443069 38,000 355 452 0
2021-10-04 14:01:41 GMT 51.689091 -1.442108 38,000 355 451 0
2021-10-04 14:01:39 GMT 51.679131 -1.440506 38,000 355 451 0
2021-10-04 14:01:36 GMT 51.679131 -1.440506 38,000 355 451 0
2021-10-04 14:01:34 GMT 51.674149 -1.439654 38,000 355 451 64
2021-10-04 14:01:31 GMT 51.667538 -1.438522 38,000 355 451 64
2021-10-04 14:01:28 GMT 51.661533 -1.437531 38,000 355 451 64
2021-10-04 14:01:26 GMT 51.659435 -1.437225 38,000 355 451 64
2021-10-04 14:01:24 GMT 51.654282 -1.436314 38,000 355 451 64
2021-10-04 14:01:22 GMT 51.650547 -1.435699 38,000 355 451 64
2021-10-04 14:01:19 GMT 51.642242 -1.434384 38,000 355 451 64
2021-10-04 14:01:16 GMT 51.633785 -1.432953 38,000 355 451 0
2021-10-04 14:01:13 GMT 51.631073 -1.432528 38,000 355 451 0
2021-10-04 14:01:11 GMT 51.625488 -1.431637 38,000 355 450 0
2021-10-04 14:01:08 GMT 51.614094 -1.429749 38,000 355 450 0
2021-10-04 14:01:05 GMT 51.614094 -1.429749 38,000 355 450 0
2021-10-04 14:01:03 GMT 51.608734 -1.428891 38,000 355 450 0
2021-10-04 14:01:00 GMT 51.604980 -1.428223 38,000 355 450 0
2021-10-04 14:00:58 GMT 51.598362 -1.427155 38,000 355 450 -64
2021-10-04 14:00:55 GMT 51.592163 -1.426218 38,000 355 450 -64
2021-10-04 14:00:52 GMT 51.589050 -1.425699 38,000 355 450 -64
2021-10-04 14:00:50 GMT 51.583694 -1.424808 38,000 355 450 0
2021-10-04 14:00:48 GMT 51.579346 -1.424140 38,000 355 450 0
2021-10-04 14:00:46 GMT 51.575638 -1.423546 38,000 355 450 0
2021-10-04 14:00:44 GMT 51.564835 -1.421764 38,000 355 451 0
2021-10-04 14:00:41 GMT 51.560932 -1.421204 38,000 355 451 64
2021-10-04 14:00:39 GMT 51.555347 -1.420288 38,000 355 451 64
2021-10-04 14:00:36 GMT 51.555347 -1.420288 38,000 355 451 64
2021-10-04 14:00:33 GMT 51.549759 -1.419373 38,000 355 451 0
2021-10-04 14:00:31 GMT 51.543755 -1.418381 38,000 355 451 0
2021-10-04 14:00:28 GMT 51.537750 -1.417465 38,000 355 451 -64
2021-10-04 14:00:25 GMT 51.531326 -1.416397 38,000 355 451 0
2021-10-04 14:00:23 GMT 51.526157 -1.415558 38,000 355 451 0
2021-10-04 14:00:20 GMT 51.522621 -1.415024 38,000 355 451 0
2021-10-04 14:00:18 GMT 51.516815 -1.414119 38,000 355 451 0
2021-10-04 14:00:16 GMT 51.505211 -1.412277 38,000 355 451 0
2021-10-04 14:00:13 GMT 51.502136 -1.411743 38,000 355 451 0
2021-10-04 14:00:10 GMT 51.502136 -1.411743 38,000 355 451 0
2021-10-04 14:00:08 GMT 51.497154 -1.410980 38,000 355 451 0
2021-10-04 14:00:06 GMT 51.491959 -1.410184 38,000 355 450 0
2021-10-04 14:00:03 GMT 51.484543 -1.408997 38,000 355 450 0
2021-10-04 14:00:00 GMT 51.481190 -1.408463 38,000 355 450 0
2021-10-04 13:59:58 GMT 51.469227 -1.406631 38,000 355 450 0
2021-10-04 13:59:55 GMT 51.469227 -1.406631 38,000 355 450 0
2021-10-04 13:59:52 GMT 51.464058 -1.405792 38,000 355 450 64
2021-10-04 13:59:50 GMT 51.459076 -1.405029 38,000 355 450 0
2021-10-04 13:59:47 GMT 51.454514 -1.404320 38,000 355 450 0
2021-10-04 13:59:45 GMT 51.448105 -1.403281 38,000 355 450 0
2021-10-04 13:59:43 GMT 51.443947 -1.402664 38,000 355 450 0
2021-10-04 13:59:40 GMT 51.437569 -1.401596 38,000 355 450 64
2021-10-04 13:59:37 GMT 51.432358 -1.400831 38,000 355 450 64
2021-10-04 13:59:34 GMT 51.418949 -1.398697 38,000 355 450 0
2021-10-04 13:59:31 GMT 51.418949 -1.398697 38,000 355 451 0
2021-10-04 13:59:28 GMT 51.414574 -1.397934 38,000 355 450 -64
2021-10-04 13:59:26 GMT 51.409607 -1.397194 38,000 355 450 0
2021-10-04 13:59:23 GMT 51.403820 -1.396255 38,000 355 450 0
2021-10-04 13:59:21 GMT 51.397816 -1.395264 38,000 355 450 0
2021-10-04 13:59:17 GMT 51.392624 -1.394447 38,000 355 450 0
2021-10-04 13:59:15 GMT 51.386410 -1.393433 38,000 355 451 0
2021-10-04 13:59:13 GMT 51.381042 -1.392591 38,000 355 451 0
2021-10-04 13:59:10 GMT 51.372349 -1.391144 38,000 355 451 0
2021-10-04 13:59:08 GMT 51.372349 -1.391144 38,000 355 451 0
2021-10-04 13:59:05 GMT 51.365112 -1.389993 38,000 355 451 0
2021-10-04 13:59:02 GMT 51.360535 -1.389325 38,000 355 451 64
2021-10-04 13:59:00 GMT 51.357220 -1.388779 38,000 355 451 64
2021-10-04 13:58:58 GMT 51.352055 -1.387939 38,000 355 451 64
2021-10-04 13:58:56 GMT 51.343533 -1.386642 38,000 355 452 64
2021-10-04 13:58:54 GMT 51.343533 -1.386642 38,000 355 452 64
2021-10-04 13:58:52 GMT 51.339996 -1.386032 38,000 355 452 64
2021-10-04 13:58:50 GMT 51.327759 -1.384129 38,000 355 452 0
2021-10-04 13:58:47 GMT 51.327759 -1.384129 38,000 355 452 0
2021-10-04 13:58:44 GMT 51.322353 -1.383209 38,000 355 452 0
2021-10-04 13:58:42 GMT 51.314671 -1.381989 38,000 355 452 0
2021-10-04 13:58:40 GMT 51.314671 -1.381989 38,000 355 452 0
2021-10-04 13:58:38 GMT 51.305546 -1.380539 38,000 355 453 0
2021-10-04 13:58:36 GMT 51.305546 -1.380539 38,000 355 453 0
2021-10-04 13:58:34 GMT 51.301575 -1.379898 38,000 355 453 -64
2021-10-04 13:58:32 GMT 51.292419 -1.378487 38,000 355 453 -64
2021-10-04 13:58:30 GMT 51.292419 -1.378487 38,000 355 453 -64
2021-10-04 13:58:27 GMT 51.286606 -1.377522 38,000 355 453 0
2021-10-04 13:58:24 GMT 51.281387 -1.376706 38,000 355 454 0
2021-10-04 13:58:22 GMT 51.277199 -1.376038 38,000 355 454 0
2021-10-04 13:58:20 GMT 51.266556 -1.374330 38,000 355 454 0
2021-10-04 13:58:17 GMT 51.266556 -1.374330 38,000 355 455 0
2021-10-04 13:58:14 GMT 51.260513 -1.373365 38,000 355 455 0
2021-10-04 13:58:12 GMT 51.256340 -1.372681 38,000 355 455 0
2021-10-04 13:58:10 GMT 51.250900 -1.371806 38,000 355 455 0
2021-10-04 13:58:07 GMT 51.245682 -1.371002 38,000 355 455 0
2021-10-04 13:58:05 GMT 51.239628 -1.370010 38,000 355 457 0
2021-10-04 13:58:02 GMT 51.235016 -1.369282 38,000 355 456 0
2021-10-04 13:57:59 GMT 51.221428 -1.367111 38,000 355 456 -64
2021-10-04 13:57:56 GMT 51.216385 -1.366313 38,000 355 456 0
2021-10-04 13:57:53 GMT 51.208649 -1.365051 38,000 355 456 0
2021-10-04 13:57:50 GMT 51.208649 -1.365051 38,000 355 456 0
2021-10-04 13:57:47 GMT 51.203384 -1.364235 38,000 355 457 0
2021-10-04 13:57:45 GMT 51.198990 -1.363492 38,000 355 457 0
2021-10-04 13:57:42 GMT 51.194382 -1.362762 38,000 355 457 0
2021-10-04 13:57:40 GMT 51.188049 -1.361785 38,000 355 457 0
2021-10-04 13:57:38 GMT 51.184929 -1.361313 38,000 355 457 0
2021-10-04 13:57:36 GMT 51.180927 -1.360703 38,000 355 457 0
2021-10-04 13:57:33 GMT 51.174828 -1.359787 38,000 355 458 64
2021-10-04 13:57:30 GMT 51.167892 -1.358643 38,000 355 458 64
2021-10-04 13:57:28 GMT 51.162827 -1.357925 38,000 355 458 64
2021-10-04 13:57:25 GMT 51.152718 -1.356354 38,000 355 459 0
2021-10-04 13:57:23 GMT 51.150009 -1.355921 38,000 355 459 0
2021-10-04 13:57:21 GMT 51.144287 -1.355030 38,000 355 459 -64
2021-10-04 13:57:19 GMT 51.144287 -1.355030 38,000 355 459 -64
2021-10-04 13:57:16 GMT 51.138798 -1.354141 38,000 355 459 -64
2021-10-04 13:57:13 GMT 51.132065 -1.353100 38,000 355 460 -64
2021-10-04 13:57:11 GMT 51.128906 -1.352655 38,000 355 459 0
2021-10-04 13:57:09 GMT 51.124458 -1.351929 38,000 355 459 0
2021-10-04 13:57:07 GMT 51.118149 -1.350947 38,000 355 459 64
2021-10-04 13:57:04 GMT 51.113708 -1.350205 38,000 355 460 64
2021-10-04 13:57:01 GMT 51.106537 -1.349106 38,000 355 460 64
2021-10-04 13:56:59 GMT 51.103558 -1.348648 38,000 355 460 0
2021-10-04 13:56:57 GMT 51.095947 -1.347384 38,000 355 460 0
2021-10-04 13:56:53 GMT 51.090683 -1.346568 38,000 355 460 -64
2021-10-04 13:56:51 GMT 51.086052 -1.345825 38,000 355 460 -64
2021-10-04 13:56:49 GMT 51.080139 -1.344910 38,000 355 460 -64
2021-10-04 13:56:46 GMT 51.073765 -1.343918 38,000 355 460 -64
2021-10-04 13:56:43 GMT 51.068085 -1.343002 38,000 355 460 0
2021-10-04 13:56:40 GMT 51.057701 -1.341324 38,000 355 460 64
2021-10-04 13:56:38 GMT 51.057701 -1.341324 38,000 355 460 64
2021-10-04 13:56:36 GMT 51.054749 -1.340852 38,000 355 460 64
2021-10-04 13:56:34 GMT 51.048626 -1.339874 38,000 355 460 64
2021-10-04 13:56:31 GMT 51.042061 -1.338806 38,000 355 460 64
2021-10-04 13:56:28 GMT 51.035706 -1.337808 38,000 355 460 64
2021-10-04 13:56:25 GMT 51.031075 -1.337051 38,000 355 460 0
2021-10-04 13:56:23 GMT 51.026840 -1.336365 38,000 355 460 64
2021-10-04 13:56:21 GMT 51.021580 -1.335526 38,000 355 460 64
2021-10-04 13:56:18 GMT 51.014786 -1.334393 38,000 355 460 64
2021-10-04 13:56:15 GMT 51.005035 -1.332835 38,000 355 461 0
2021-10-04 13:56:13 GMT 51.005035 -1.332835 38,000 355 461 0
2021-10-04 13:56:10 GMT 50.999142 -1.331787 38,000 355 461 0
2021-10-04 13:56:08 GMT 50.994690 -1.331053 38,000 355 461 -64
2021-10-04 13:56:06 GMT 50.988556 -1.330088 38,000 355 461 -64
2021-10-04 13:56:03 GMT 50.983246 -1.329197 38,000 355 461 -64
2021-10-04 13:56:00 GMT 50.978985 -1.328506 38,000 355 461 0
2021-10-04 13:55:58 GMT 50.974136 -1.327713 38,000 355 461 0
2021-10-04 13:55:55 GMT 50.960953 -1.325560 38,000 355 462 0
2021-10-04 13:55:52 GMT 50.955231 -1.324669 38,000 355 463 0
2021-10-04 13:55:50 GMT 50.955231 -1.324669 38,000 355 464 0
2021-10-04 13:55:47 GMT 50.949921 -1.323853 38,000 355 465 0
2021-10-04 13:55:45 GMT 50.939850 -1.322294 38,000 355 466 0
2021-10-04 13:55:42 GMT 50.939850 -1.322294 37,975 355 466 0
2021-10-04 13:55:40 GMT 50.931061 -1.320957 38,000 355 468 0
2021-10-04 13:55:38 GMT 50.931061 -1.320957 37,975 355 469 0
2021-10-04 13:55:36 GMT 50.924564 -1.319962 37,975 355 472 0
2021-10-04 13:55:33 GMT 50.919846 -1.319250 37,975 355 471 64
2021-10-04 13:55:30 GMT 50.913116 -1.318211 37,975 355 472 0
2021-10-04 13:55:27 GMT 50.906845 -1.317246 37,975 355 473 -64
2021-10-04 13:55:25 GMT 50.895493 -1.315539 37,975 355 475 -64
2021-10-04 13:55:22 GMT 50.890045 -1.314722 38,000 355 475 -64
2021-10-04 13:55:19 GMT 50.890045 -1.314722 38,000 355 475 -64
2021-10-04 13:55:17 GMT 50.885010 -1.313905 38,000 355 475 0
2021-10-04 13:55:15 GMT 50.881737 -1.313400 38,000 355 475 0
2021-10-04 13:55:12 GMT 50.874100 -1.312256 38,000 355 475 0
2021-10-04 13:55:10 GMT 50.869957 -1.311646 38,000 355 476 0
2021-10-04 13:55:07 GMT 50.863811 -1.310654 38,000 355 476 0
2021-10-04 13:55:05 GMT 50.860336 -1.310194 38,000 355 476 0
2021-10-04 13:55:03 GMT 50.854221 -1.309204 38,000 355 476 64
2021-10-04 13:55:00 GMT 50.845917 -1.307967 38,000 355 476 0
2021-10-04 13:54:57 GMT 50.843052 -1.307526 38,000 355 476 0
2021-10-04 13:54:55 GMT 50.837357 -1.306705 38,000 355 476 0
2021-10-04 13:54:52 GMT 50.831909 -1.305888 38,000 355 476 0
2021-10-04 13:54:50 GMT 50.825546 -1.304923 38,000 355 476 0
2021-10-04 13:54:47 GMT 50.815956 -1.303406 38,000 355 476 0
2021-10-04 13:54:45 GMT 50.815956 -1.303406 38,000 355 476 -64
2021-10-04 13:54:43 GMT 50.811127 -1.302696 38,000 355 476 -64
2021-10-04 13:54:41 GMT 50.805855 -1.301880 38,000 355 476 0
2021-10-04 13:54:38 GMT 50.798222 -1.300735 38,000 355 476 -64
2021-10-04 13:54:35 GMT 50.793823 -1.300024 38,000 355 476 -64
2021-10-04 13:54:32 GMT 50.786819 -1.298985 38,000 355 476 -64
2021-10-04 13:54:30 GMT 50.784393 -1.298539 38,000 355 476 0
2021-10-04 13:54:28 GMT 50.778076 -1.297574 38,000 355 476 0
2021-10-04 13:54:26 GMT 50.774757 -1.297073 38,000 355 476 0
2021-10-04 13:54:24 GMT 50.769516 -1.296238 38,000 355 476 0
2021-10-04 13:54:22 GMT 50.759678 -1.294708 38,000 355 476 0
2021-10-04 13:54:19 GMT 50.759678 -1.294708 38,000 355 476 0
2021-10-04 13:54:17 GMT 50.754414 -1.293945 38,000 355 476 0
2021-10-04 13:54:15 GMT 50.750061 -1.293195 38,000 355 476 0
2021-10-04 13:54:12 GMT 50.743477 -1.292191 38,000 355 476 0
2021-10-04 13:54:10 GMT 50.738663 -1.291487 38,000 355 476 0
2021-10-04 13:54:07 GMT 50.731888 -1.290448 38,000 355 476 0
2021-10-04 13:54:05 GMT 50.727695 -1.289825 38,000 355 476 0
2021-10-04 13:54:03 GMT 50.723553 -1.289139 38,000 355 476 0
2021-10-04 13:54:01 GMT 50.720711 -1.288681 38,000 355 476 0
2021-10-04 13:53:59 GMT 50.710842 -1.287155 38,000 355 476 0
2021-10-04 13:53:57 GMT 50.710842 -1.287155 38,000 355 476 0
2021-10-04 13:53:55 GMT 50.706253 -1.286514 38,000 355 477 0
2021-10-04 13:53:53 GMT 50.695293 -1.284790 38,000 355 477 0
2021-10-04 13:53:50 GMT 50.695293 -1.284790 38,000 355 477 0
2021-10-04 13:53:48 GMT 50.691151 -1.284103 38,000 355 477 0
2021-10-04 13:53:46 GMT 50.686543 -1.283417 38,000 355 477 64
2021-10-04 13:53:44 GMT 50.683052 -1.282883 38,000 355 477 64
2021-10-04 13:53:42 GMT 50.677559 -1.282043 38,000 355 477 64
2021-10-04 13:53:40 GMT 50.673183 -1.281357 38,000 355 477 0
2021-10-04 13:53:38 GMT 50.668991 -1.280724 38,000 355 477 0
2021-10-04 13:53:36 GMT 50.659378 -1.279257 38,000 355 477 0
2021-10-04 13:53:34 GMT 50.654755 -1.278534 38,000 355 477 0
2021-10-04 13:53:32 GMT 50.654755 -1.278534 38,000 355 477 0
2021-10-04 13:53:29 GMT 50.648392 -1.277522 38,000 355 477 0
2021-10-04 13:53:27 GMT 50.645111 -1.277012 38,000 355 477 0
2021-10-04 13:53:25 GMT 50.639664 -1.276196 38,000 355 477 0
2021-10-04 13:53:22 GMT 50.634155 -1.275354 38,000 355 477 0
2021-10-04 13:53:20 GMT 50.628662 -1.274559 38,000 355 477 0
2021-10-04 13:53:17 GMT 50.623215 -1.273691 38,000 355 477 0
2021-10-04 13:53:14 GMT 50.617722 -1.272824 38,000 355 477 0
2021-10-04 13:53:12 GMT 50.611359 -1.271884 38,000 355 477 0
2021-10-04 13:53:10 GMT 50.606781 -1.271162 38,000 355 477 0
2021-10-04 13:53:08 GMT 50.596024 -1.269499 38,000 355 477 0
2021-10-04 13:53:05 GMT 50.591217 -1.268776 38,000 355 477 0
2021-10-04 13:53:03 GMT 50.591217 -1.268776 38,000 355 477 0
2021-10-04 13:53:01 GMT 50.586826 -1.268104 38,000 355 477 0
2021-10-04 13:52:59 GMT 50.583523 -1.267585 38,000 355 477 0
2021-10-04 13:52:57 GMT 50.579147 -1.266917 38,000 355 476 -64
2021-10-04 13:52:55 GMT 50.570393 -1.265580 38,000 355 477 -64
2021-10-04 13:52:53 GMT 50.570393 -1.265580 38,000 355 476 0
2021-10-04 13:52:51 GMT 50.567322 -1.265061 38,000 355 476 -64
2021-10-04 13:52:49 GMT 50.561646 -1.264223 38,000 355 476 0
2021-10-04 13:52:47 GMT 50.554871 -1.263139 38,000 355 476 0
2021-10-04 13:52:44 GMT 50.549377 -1.262271 38,000 355 476 0
2021-10-04 13:52:41 GMT 50.544113 -1.261476 38,000 355 476 0
2021-10-04 13:52:39 GMT 50.540405 -1.260898 38,000 355 476 0
2021-10-04 13:52:37 GMT 50.529282 -1.259163 38,000 355 475 0
2021-10-04 13:52:34 GMT 50.529282 -1.259163 38,000 354 475 0
2021-10-04 13:52:32 GMT 50.520309 -1.257718 38,000 355 476 0
2021-10-04 13:52:30 GMT 50.520309 -1.257718 38,000 355 476 0
2021-10-04 13:52:28 GMT 50.515926 -1.257044 38,000 356 476 0
2021-10-04 13:52:26 GMT 50.510239 -1.256344 38,000 357 478 0
2021-10-04 13:52:23 GMT 50.504929 -1.255838 38,000 357 477 0
2021-10-04 13:52:21 GMT 50.500763 -1.255477 38,000 358 478 0
2021-10-04 13:52:19 GMT 50.496330 -1.255188 38,000 359 479 0
2021-10-04 13:52:17 GMT 50.491024 -1.254965 38,000 0 480 0
2021-10-04 13:52:14 GMT 50.478592 -1.254891 38,000 0 481 0
2021-10-04 13:52:11 GMT 50.478592 -1.254891 38,000 0 481 -64
2021-10-04 13:52:09 GMT 50.474636 -1.254891 38,000 0 481 -64
2021-10-04 13:52:07 GMT 50.467747 -1.254891 38,000 0 480 -64
2021-10-04 13:52:04 GMT 50.461323 -1.254965 38,000 0 480 0
2021-10-04 13:52:01 GMT 50.456203 -1.254965 38,000 0 480 0
2021-10-04 13:51:59 GMT 50.446472 -1.254971 38,000 0 480 0
2021-10-04 13:51:57 GMT 50.446472 -1.254971 38,000 0 480 0
2021-10-04 13:51:54 GMT 50.436264 -1.255043 38,000 0 479 64
2021-10-04 13:51:50 GMT 50.431622 -1.255114 38,000 0 479 64
2021-10-04 13:51:47 GMT 50.424313 -1.255114 38,000 0 479 64
2021-10-04 13:51:45 GMT 50.419659 -1.255114 38,000 0 479 64
2021-10-04 13:51:43 GMT 50.417469 -1.255188 38,000 0 479 64
2021-10-04 13:51:41 GMT 50.410812 -1.255188 38,000 0 479 0
2021-10-04 13:51:39 GMT 50.406830 -1.255188 38,000 0 479 0
2021-10-04 13:51:37 GMT 50.404202 -1.255262 38,000 0 479 0
2021-10-04 13:51:35 GMT 50.399551 -1.255260 38,000 0 480 0
2021-10-04 13:51:33 GMT 50.394882 -1.255260 38,000 0 480 0
2021-10-04 13:51:31 GMT 50.389118 -1.255336 38,000 0 479 0
2021-10-04 13:51:29 GMT 50.380043 -1.255411 38,000 0 480 0
2021-10-04 13:51:27 GMT 50.380043 -1.255411 38,000 0 480 -64
2021-10-04 13:51:25 GMT 50.377625 -1.255405 38,000 0 480 -64
2021-10-04 13:51:23 GMT 50.366356 -1.255485 38,000 0 479 0
2021-10-04 13:51:21 GMT 50.366356 -1.255485 38,000 0 479 0
2021-10-04 13:51:18 GMT 50.359047 -1.255559 38,000 0 479 0
2021-10-04 13:51:15 GMT 50.348419 -1.255622 38,000 0 479 0
2021-10-04 13:51:13 GMT 50.348419 -1.255622 38,000 0 479 0
2021-10-04 13:51:10 GMT 50.342010 -1.255694 38,000 0 479 0
2021-10-04 13:51:08 GMT 50.330742 -1.255782 38,000 0 479 0
2021-10-04 13:51:05 GMT 50.326740 -1.255782 38,000 0 479 0
2021-10-04 13:51:03 GMT 50.326740 -1.255782 38,000 0 479 0
2021-10-04 13:50:59 GMT 50.313263 -1.255911 38,000 0 479 0
2021-10-04 13:50:56 GMT 50.313263 -1.255911 38,000 0 478 0
2021-10-04 13:50:53 GMT 50.305527 -1.255983 38,000 0 478 0
2021-10-04 13:50:51 GMT 50.300251 -1.256005 38,000 0 478 0
2021-10-04 13:50:47 GMT 50.291176 -1.256079 38,000 0 478 0
2021-10-04 13:50:44 GMT 50.284798 -1.256153 38,000 0 478 0
2021-10-04 13:50:41 GMT 50.278381 -1.256200 38,000 0 478 0
2021-10-04 13:50:39 GMT 50.273994 -1.256301 38,000 0 478 0
2021-10-04 13:50:37 GMT 50.269775 -1.256344 38,000 0 478 0
2021-10-04 13:50:35 GMT 50.265385 -1.256376 38,000 0 478 0
2021-10-04 13:50:33 GMT 50.260731 -1.256450 38,000 0 478 0
2021-10-04 13:50:31 GMT 50.256546 -1.256489 38,000 0 478 0
2021-10-04 13:50:29 GMT 50.252163 -1.256598 38,000 0 478 0
2021-10-04 13:50:27 GMT 50.245972 -1.256673 38,000 0 478 0
2021-10-04 13:50:24 GMT 50.241119 -1.256706 38,000 0 478 0
2021-10-04 13:50:22 GMT 50.236290 -1.256821 38,000 0 477 0
2021-10-04 13:50:20 GMT 50.234055 -1.256821 38,000 0 477 0
2021-10-04 13:50:18 GMT 50.229904 -1.256850 38,000 0 477 -64
2021-10-04 13:50:16 GMT 50.223038 -1.256923 38,000 0 477 -64
2021-10-04 13:50:14 GMT 50.218647 -1.257044 38,000 0 477 -64
2021-10-04 13:50:12 GMT 50.216457 -1.257044 38,000 0 477 -64
2021-10-04 13:50:10 GMT 50.207199 -1.257140 38,000 0 477 -64
2021-10-04 13:50:08 GMT 50.207199 -1.257140 38,000 0 477 0
2021-10-04 13:50:06 GMT 50.202770 -1.257192 38,000 0 477 0
2021-10-04 13:50:04 GMT 50.197090 -1.257266 38,000 0 477 0
2021-10-04 13:50:02 GMT 50.188934 -1.257356 38,000 0 476 0
2021-10-04 13:49:58 GMT 50.182755 -1.257429 38,000 0 476 0
2021-10-04 13:49:55 GMT 50.177261 -1.257501 38,000 0 476 0
2021-10-04 13:49:53 GMT 50.171356 -1.257573 38,000 0 476 0
2021-10-04 13:49:50 GMT 50.165863 -1.257645 38,000 0 476 0
2021-10-04 13:49:48 GMT 50.162750 -1.257645 38,000 0 476 0
2021-10-04 13:49:46 GMT 50.157940 -1.257712 38,000 0 476 0
2021-10-04 13:49:44 GMT 50.149376 -1.257786 38,000 0 476 0
2021-10-04 13:49:42 GMT 50.149376 -1.257786 38,000 0 476 64
2021-10-04 13:49:40 GMT 50.140347 -1.257935 38,000 0 476 64
2021-10-04 13:49:38 GMT 50.140347 -1.257935 38,000 0 476 64
2021-10-04 13:49:36 GMT 50.135513 -1.257935 38,000 0 476 0
2021-10-04 13:49:33 GMT 50.129593 -1.258009 38,000 0 475 0
2021-10-04 13:49:30 GMT 50.122375 -1.258083 38,000 0 475 0
2021-10-04 13:49:27 GMT 50.117767 -1.258157 38,000 0 475 0
2021-10-04 13:49:25 GMT 50.112507 -1.258157 38,000 0 475 0
2021-10-04 13:49:23 GMT 50.101521 -1.258306 38,000 0 475 0
2021-10-04 13:49:20 GMT 50.101521 -1.258306 38,000 0 475 0
2021-10-04 13:49:18 GMT 50.096054 -1.258368 38,000 0 475 64
2021-10-04 13:49:16 GMT 50.091232 -1.258380 38,000 0 475 64
2021-10-04 13:49:13 GMT 50.078941 -1.258528 38,000 0 475 64
2021-10-04 13:49:10 GMT 50.078941 -1.258528 38,000 0 475 64
2021-10-04 13:49:08 GMT 50.071262 -1.258603 38,000 0 475 0
2021-10-04 13:49:06 GMT 50.064926 -1.258657 38,000 0 475 0
2021-10-04 13:49:04 GMT 50.064926 -1.258657 38,000 0 475 0
2021-10-04 13:49:00 GMT 50.057484 -1.258677 38,000 0 475 0
2021-10-04 13:48:58 GMT 50.051991 -1.258751 38,000 0 475 0
2021-10-04 13:48:55 GMT 50.046753 -1.258730 38,000 0 475 0
2021-10-04 13:48:53 GMT 50.041489 -1.258802 38,000 0 474 -64
2021-10-04 13:48:50 GMT 50.034668 -1.258802 38,000 0 474 -64
2021-10-04 13:48:47 GMT 50.029411 -1.258825 38,000 0 474 -64
2021-10-04 13:48:45 GMT 50.024849 -1.258900 38,000 0 474 0
2021-10-04 13:48:43 GMT 50.011917 -1.258946 38,000 0 474 0
2021-10-04 13:48:40 GMT 50.011917 -1.258946 38,000 0 474 0
2021-10-04 13:48:38 GMT 50.007980 -1.259019 38,000 0 474 0
2021-10-04 13:48:36 GMT 50.000084 -1.259048 38,000 0 474 0
2021-10-04 13:48:34 GMT 50.000084 -1.259048 38,000 0 474 0
2021-10-04 13:48:32 GMT 49.996822 -1.259122 38,000 0 474 0
2021-10-04 13:48:30 GMT 49.990681 -1.259122 38,000 0 474 0
2021-10-04 13:48:28 GMT 49.984814 -1.259197 38,000 0 474 0
2021-10-04 13:48:25 GMT 49.981293 -1.259236 38,000 0 474 0
2021-10-04 13:48:23 GMT 49.976028 -1.259236 38,000 0 474 0
2021-10-04 13:48:20 GMT 49.965317 -1.259308 38,000 0 474 -64
2021-10-04 13:48:18 GMT 49.965317 -1.259308 38,000 0 473 -64
2021-10-04 13:48:16 GMT 49.960094 -1.259345 38,000 0 474 -64
2021-10-04 13:48:13 GMT 49.953094 -1.259380 38,000 0 474 -64
2021-10-04 13:48:11 GMT 49.948517 -1.259452 38,000 0 473 -64
2021-10-04 13:48:07 GMT 49.941925 -1.259452 38,000 0 473 -64
2021-10-04 13:48:05 GMT 49.936260 -1.259493 38,000 0 473 -64
2021-10-04 13:48:03 GMT 49.932129 -1.259525 38,000 0 473 0
2021-10-04 13:48:01 GMT 49.928833 -1.259525 38,000 0 473 0
2021-10-04 13:47:59 GMT 49.924255 -1.259525 38,000 0 473 0
2021-10-04 13:47:57 GMT 49.917938 -1.259597 38,000 0 473 0
2021-10-04 13:47:54 GMT 49.912891 -1.259642 38,000 0 473 0
2021-10-04 13:47:52 GMT 49.902882 -1.259716 38,000 0 473 0
2021-10-04 13:47:50 GMT 49.902882 -1.259716 38,000 0 473 0
2021-10-04 13:47:48 GMT 49.899170 -1.259742 38,000 0 473 0
2021-10-04 13:47:46 GMT 49.895691 -1.259814 38,000 0 472 64
2021-10-04 13:47:44 GMT 49.892174 -1.259790 38,000 0 472 64
2021-10-04 13:47:42 GMT 49.885426 -1.259865 38,000 0 472 0
2021-10-04 13:47:39 GMT 49.873878 -1.260013 38,000 0 472 0
2021-10-04 13:47:36 GMT 49.873878 -1.260013 38,000 0 472 0
2021-10-04 13:47:34 GMT 49.869095 -1.260103 38,000 0 472 0
2021-10-04 13:47:31 GMT 49.862320 -1.260175 38,000 0 472 0
2021-10-04 13:47:28 GMT 49.855591 -1.260247 38,000 0 472 0
2021-10-04 13:47:26 GMT 49.851196 -1.260320 38,000 0 471 0
2021-10-04 13:47:24 GMT 49.840759 -1.260392 38,000 0 471 0
2021-10-04 13:47:21 GMT 49.840759 -1.260392 38,000 0 471 0
2021-10-04 13:47:19 GMT 49.834488 -1.260464 38,000 0 471 0
2021-10-04 13:47:16 GMT 49.825104 -1.260609 38,000 0 471 0
2021-10-04 13:47:14 GMT 49.825104 -1.260609 38,000 0 471 0
2021-10-04 13:47:12 GMT 49.822083 -1.260609 38,000 0 471 0
2021-10-04 13:47:10 GMT 49.817505 -1.260681 38,000 0 471 0
2021-10-04 13:47:08 GMT 49.812523 -1.260755 38,000 0 470 0
2021-10-04 13:47:06 GMT 49.808167 -1.260826 38,000 0 470 -64
2021-10-04 13:47:04 GMT 49.802982 -1.260830 38,000 0 470 -64
2021-10-04 13:47:01 GMT 49.796036 -1.260898 38,000 0 470 0
2021-10-04 13:46:58 GMT 49.785370 -1.261043 38,000 0 470 0
2021-10-04 13:46:56 GMT 49.781471 -1.261127 38,000 0 470 0
2021-10-04 13:46:54 GMT 49.781471 -1.261127 38,000 0 470 0
2021-10-04 13:46:52 GMT 49.778446 -1.261127 38,000 0 470 0
2021-10-04 13:46:50 GMT 49.773884 -1.261201 38,000 0 470 0
2021-10-04 13:46:48 GMT 49.769554 -1.261201 38,000 0 469 0
2021-10-04 13:46:45 GMT 49.762386 -1.261275 38,000 0 469 0
2021-10-04 13:46:42 GMT 49.756760 -1.261332 38,000 0 469 0
2021-10-04 13:46:39 GMT 49.748520 -1.261404 38,000 0 469 0
2021-10-04 13:46:37 GMT 49.744419 -1.261423 38,000 0 469 0
2021-10-04 13:46:35 GMT 49.741196 -1.261476 38,000 0 469 0
2021-10-04 13:46:32 GMT 49.735336 -1.261548 38,000 0 469 0
2021-10-04 13:46:29 GMT 49.728825 -1.261572 38,000 0 469 0
2021-10-04 13:46:27 GMT 49.724075 -1.261621 38,000 0 468 0
2021-10-04 13:46:25 GMT 49.718441 -1.261646 38,000 0 468 0
2021-10-04 13:46:22 GMT 49.712860 -1.261693 38,000 0 468 0
2021-10-04 13:46:19 GMT 49.701172 -1.261795 38,000 0 468 0
2021-10-04 13:46:17 GMT 49.701172 -1.261795 38,000 0 468 0
2021-10-04 13:46:14 GMT 49.696838 -1.261765 38,000 0 468 0
2021-10-04 13:46:12 GMT 49.691025 -1.261838 38,000 0 467 0
2021-10-04 13:46:09 GMT 49.684319 -1.261869 38,000 0 467 0
2021-10-04 13:46:07 GMT 49.671616 -1.261982 38,000 0 467 0
2021-10-04 13:46:04 GMT 49.671616 -1.261982 38,000 0 467 0
2021-10-04 13:46:01 GMT 49.667282 -1.262017 38,000 0 467 0
2021-10-04 13:45:58 GMT 49.661270 -1.262054 38,000 0 467 0
2021-10-04 13:45:56 GMT 49.657181 -1.262092 38,000 0 467 0
2021-10-04 13:45:53 GMT 49.646393 -1.262199 38,000 0 467 0
2021-10-04 13:45:50 GMT 49.646393 -1.262199 38,000 0 466 0
2021-10-04 13:45:48 GMT 49.640373 -1.262240 38,000 0 466 0
2021-10-04 13:45:46 GMT 49.635635 -1.262271 38,000 0 466 0
2021-10-04 13:45:44 GMT 49.631744 -1.262271 38,000 0 466 0
2021-10-04 13:45:42 GMT 49.626175 -1.262314 38,000 0 466 0
2021-10-04 13:45:40 GMT 49.620575 -1.262344 38,000 0 466 0
2021-10-04 13:45:37 GMT 49.616028 -1.262388 38,000 0 466 0
2021-10-04 13:45:35 GMT 49.607666 -1.262488 38,000 0 466 0
2021-10-04 13:45:33 GMT 49.607666 -1.262488 38,000 0 466 0
2021-10-04 13:45:31 GMT 49.603363 -1.262488 38,000 0 466 0
2021-10-04 13:45:29 GMT 49.597961 -1.262560 38,000 0 466 0
2021-10-04 13:45:27 GMT 49.593868 -1.262537 38,000 0 466 0
2021-10-04 13:45:25 GMT 49.590454 -1.262560 38,000 0 466 0
2021-10-04 13:45:23 GMT 49.580750 -1.262633 38,000 0 466 0
2021-10-04 13:45:21 GMT 49.580750 -1.262633 38,000 0 466 0
2021-10-04 13:45:18 GMT 49.567841 -1.262705 38,000 0 466 0
2021-10-04 13:45:15 GMT 49.567841 -1.262705 38,000 0 466 0
2021-10-04 13:45:12 GMT 49.563354 -1.262777 38,000 0 466 0
2021-10-04 13:45:10 GMT 49.556904 -1.262760 38,000 0 466 64
2021-10-04 13:45:06 GMT 49.547222 -1.262834 38,000 0 466 0
2021-10-04 13:45:03 GMT 49.533646 -1.262994 38,000 0 466 0
2021-10-04 13:44:59 GMT 49.533646 -1.262994 38,000 0 466 0
2021-10-04 13:44:56 GMT 49.527206 -1.263057 38,000 0 466 0
2021-10-04 13:44:54 GMT 49.522644 -1.263057 38,000 0 466 -64
2021-10-04 13:44:52 GMT 49.518780 -1.263131 38,000 0 466 -64
2021-10-04 13:44:49 GMT 49.514053 -1.263139 38,000 0 466 -64
2021-10-04 13:44:46 GMT 49.505001 -1.263205 38,000 0 466 0
2021-10-04 13:44:44 GMT 49.501789 -1.263205 38,000 0 466 0
2021-10-04 13:44:42 GMT 49.498760 -1.263279 38,000 0 466 0
2021-10-04 13:44:40 GMT 49.492310 -1.263283 38,000 0 466 0
2021-10-04 13:44:38 GMT 49.488892 -1.263354 38,000 0 466 0
2021-10-04 13:44:36 GMT 49.484142 -1.263354 38,000 0 466 0
2021-10-04 13:44:33 GMT 49.477249 -1.263428 38,000 0 465 0
2021-10-04 13:44:30 GMT 49.468231 -1.263500 38,000 0 465 0
2021-10-04 13:44:26 GMT 49.458572 -1.263645 38,000 0 465 0
2021-10-04 13:44:24 GMT 49.458572 -1.263645 38,000 0 465 0
2021-10-04 13:44:20 GMT 49.452114 -1.263650 38,000 0 464 0
2021-10-04 13:44:18 GMT 49.445457 -1.263725 38,000 0 465 0
2021-10-04 13:44:15 GMT 49.439896 -1.263789 38,000 0 465 0
2021-10-04 13:44:13 GMT 49.435822 -1.263799 38,000 0 465 0
2021-10-04 13:44:11 GMT 49.431107 -1.263861 38,000 0 465 0
2021-10-04 13:44:08 GMT 49.425072 -1.263934 38,000 0 465 0
2021-10-04 13:44:06 GMT 49.419716 -1.263934 38,000 0 465 0
2021-10-04 13:44:04 GMT 49.416504 -1.263991 38,000 0 465 0
2021-10-04 13:44:01 GMT 49.409866 -1.264062 38,000 0 465 0
2021-10-04 13:43:58 GMT 49.401466 -1.264151 38,000 0 465 0
2021-10-04 13:43:55 GMT 49.389877 -1.264223 38,000 0 465 64
2021-10-04 13:43:52 GMT 49.389877 -1.264223 38,000 0 465 0
2021-10-04 13:43:48 GMT 49.380657 -1.264295 38,000 0 464 0
2021-10-04 13:43:45 GMT 49.375946 -1.264273 38,000 0 464 0
2021-10-04 13:43:42 GMT 49.369308 -1.264343 38,000 0 465 0
2021-10-04 13:43:40 GMT 49.363541 -1.264343 38,000 0 465 0
2021-10-04 13:43:37 GMT 49.358368 -1.264414 38,000 0 464 0
2021-10-04 13:43:35 GMT 49.354706 -1.264414 38,000 0 464 0
2021-10-04 13:43:33 GMT 49.349579 -1.264414 38,000 0 464 0
2021-10-04 13:43:31 GMT 49.346165 -1.264440 38,000 0 464 0
2021-10-04 13:43:28 GMT 49.338867 -1.264484 38,000 0 464 0
2021-10-04 13:43:25 GMT 49.332012 -1.264512 38,000 0 464 0
2021-10-04 13:43:23 GMT 49.327728 -1.264512 38,000 0 464 0
2021-10-04 13:43:20 GMT 49.321289 -1.264555 38,000 0 464 0
2021-10-04 13:43:17 GMT 49.312740 -1.264584 38,000 0 464 0
2021-10-04 13:43:14 GMT 49.308224 -1.264656 38,000 0 464 0
2021-10-04 13:43:11 GMT 49.301788 -1.264695 38,000 0 464 0
2021-10-04 13:43:08 GMT 49.289383 -1.264766 38,000 0 464 0
2021-10-04 13:43:05 GMT 49.289383 -1.264766 38,000 0 464 0
2021-10-04 13:43:03 GMT 49.279312 -1.264801 38,000 0 464 0
2021-10-04 13:43:00 GMT 49.279312 -1.264801 38,000 0 464 0
2021-10-04 13:42:57 GMT 49.272888 -1.264873 38,000 0 464 0
2021-10-04 13:42:55 GMT 49.267536 -1.264873 38,000 0 464 0
2021-10-04 13:42:53 GMT 49.263245 -1.264907 38,000 0 464 0
2021-10-04 13:42:50 GMT 49.258320 -1.264946 38,000 0 464 -64
2021-10-04 13:42:47 GMT 49.251480 -1.264977 38,000 0 463 -64
2021-10-04 13:42:45 GMT 49.245052 -1.265018 38,000 0 463 -64
2021-10-04 13:42:42 GMT 49.241001 -1.265018 38,000 0 463 0
2021-10-04 13:42:40 GMT 49.236069 -1.265090 38,000 0 463 0
2021-10-04 13:42:37 GMT 49.227081 -1.265118 38,000 0 463 0
2021-10-04 13:42:34 GMT 49.218098 -1.265235 38,000 0 463 0
2021-10-04 13:42:31 GMT 49.218098 -1.265235 38,000 0 463 0
2021-10-04 13:42:29 GMT 49.214046 -1.265235 38,000 0 463 0
2021-10-04 13:42:27 GMT 49.208679 -1.265329 38,000 0 463 0
2021-10-04 13:42:25 GMT 49.202271 -1.265329 38,000 0 463 0
2021-10-04 13:42:23 GMT 49.199295 -1.265400 38,000 0 464 0
2021-10-04 13:42:20 GMT 49.193287 -1.265452 38,000 0 464 0
2021-10-04 13:42:17 GMT 49.187714 -1.265470 38,000 0 464 0
2021-10-04 13:42:14 GMT 49.181320 -1.265524 38,000 0 464 0
2021-10-04 13:42:12 GMT 49.170593 -1.265611 38,000 0 464 0
2021-10-04 13:42:09 GMT 49.170593 -1.265611 38,000 0 464 0
2021-10-04 13:42:05 GMT 49.161850 -1.265752 38,000 0 464 0
2021-10-04 13:42:03 GMT 49.154972 -1.265813 38,000 0 464 0
2021-10-04 13:42:00 GMT 49.150040 -1.265813 38,000 0 464 0
2021-10-04 13:41:57 GMT 49.144913 -1.265893 38,000 0 464 0
2021-10-04 13:41:55 GMT 49.139797 -1.265957 38,000 0 464 0
2021-10-04 13:41:52 GMT 49.132301 -1.266030 38,000 0 464 0
2021-10-04 13:41:49 GMT 49.128441 -1.266102 38,000 0 464 0
2021-10-04 13:41:46 GMT 49.120525 -1.266247 38,000 0 463 0
2021-10-04 13:41:44 GMT 49.110901 -1.266104 38,000 0 463 0
2021-10-04 13:41:42 GMT 49.110901 -1.266104 38,000 359 462 0
2021-10-04 13:41:39 GMT 49.106644 -1.265963 38,000 358 462 0
2021-10-04 13:41:36 GMT 49.097900 -1.265379 38,000 357 461 64
2021-10-04 13:41:33 GMT 49.093246 -1.264946 38,000 356 460 64
2021-10-04 13:41:31 GMT 49.088776 -1.264440 38,000 356 459 64
2021-10-04 13:41:28 GMT 49.082428 -1.263569 38,000 354 458 0
2021-10-04 13:41:25 GMT 49.076752 -1.262653 38,000 353 458 0
2021-10-04 13:41:23 GMT 49.071304 -1.261597 38,000 353 458 0
2021-10-04 13:41:21 GMT 49.068146 -1.260892 38,000 352 457 0
2021-10-04 13:41:19 GMT 49.062939 -1.259669 38,000 350 455 0
2021-10-04 13:41:16 GMT 49.057728 -1.258296 38,000 350 455 0
2021-10-04 13:41:14 GMT 49.052979 -1.256923 38,000 350 455 0
2021-10-04 13:41:12 GMT 49.047810 -1.255477 38,000 350 455 0
2021-10-04 13:41:10 GMT 49.043884 -1.254272 38,000 350 455 0
2021-10-04 13:41:05 GMT 49.034180 -1.251455 38,000 350 455 0
2021-10-04 13:41:03 GMT 49.029831 -1.250188 38,000 350 455 0
2021-10-04 13:41:00 GMT 49.020767 -1.247512 38,000 350 455 0
2021-10-04 13:40:55 GMT 49.012897 -1.245286 38,000 350 455 0
2021-10-04 13:40:53 GMT 49.008568 -1.243985 38,000 350 455 0
2021-10-04 13:40:51 GMT 49.006519 -1.243407 38,000 350 455 0
2021-10-04 13:40:49 GMT 49.001350 -1.241889 38,000 350 455 0
2021-10-04 13:40:46 GMT 48.994720 -1.239976 38,000 350 455 0
2021-10-04 13:40:44 GMT 48.990829 -1.238853 38,000 350 455 0
2021-10-04 13:40:42 GMT 48.986664 -1.237652 38,000 350 455 0
2021-10-04 13:40:40 GMT 48.982124 -1.236323 38,000 350 455 0
2021-10-04 13:40:36 GMT 48.973652 -1.233866 38,000 350 455 0
2021-10-04 13:40:33 GMT 48.967693 -1.232131 38,000 350 455 0
2021-10-04 13:40:30 GMT 48.963776 -1.230962 38,000 350 455 0
2021-10-04 13:40:28 GMT 48.958191 -1.229412 38,000 350 455 0
2021-10-04 13:40:25 GMT 48.948257 -1.226525 38,000 350 455 0
2021-10-04 13:40:23 GMT 48.948257 -1.226525 38,000 350 456 0
2021-10-04 13:40:21 GMT 48.943535 -1.225120 38,000 350 455 0
2021-10-04 13:40:19 GMT 48.939377 -1.223919 38,000 350 455 0
2021-10-04 13:40:16 GMT 48.932781 -1.222012 38,000 350 455 0
2021-10-04 13:40:12 GMT 48.924309 -1.219555 38,000 350 455 0
2021-10-04 13:40:08 GMT 48.907967 -1.214784 38,000 350 455 64
2021-10-04 13:40:05 GMT 48.907967 -1.214784 38,000 350 455 0
2021-10-04 13:40:02 GMT 48.905083 -1.213917 38,000 350 455 0
2021-10-04 13:40:00 GMT 48.897263 -1.211595 38,000 350 455 0
2021-10-04 13:39:58 GMT 48.897263 -1.211595 38,000 350 455 0
2021-10-04 13:39:56 GMT 48.890854 -1.209764 38,000 350 455 0
2021-10-04 13:39:53 GMT 48.885681 -1.208214 38,000 350 455 0
2021-10-04 13:39:51 GMT 48.880920 -1.206876 38,000 350 455 0
2021-10-04 13:39:49 GMT 48.869339 -1.203496 38,000 350 455 64
2021-10-04 13:39:45 GMT 48.863976 -1.201919 38,000 350 455 64
2021-10-04 13:39:43 GMT 48.863976 -1.201919 38,000 350 455 64
2021-10-04 13:39:41 GMT 48.860252 -1.200835 38,000 350 455 0
2021-10-04 13:39:38 GMT 48.854294 -1.199100 38,000 350 455 0
2021-10-04 13:39:36 GMT 48.846611 -1.196932 38,000 350 455 0
2021-10-04 13:39:32 GMT 48.842102 -1.195608 38,000 350 455 0
2021-10-04 13:39:30 GMT 48.837753 -1.194341 38,000 350 455 0
2021-10-04 13:39:26 GMT 48.830109 -1.192087 38,000 350 455 0
2021-10-04 13:39:23 GMT 48.823105 -1.190065 38,000 350 455 0
2021-10-04 13:39:21 GMT 48.818939 -1.188847 38,000 350 455 0
2021-10-04 13:39:18 GMT 48.812759 -1.187087 38,000 350 455 0
2021-10-04 13:39:16 GMT 48.808823 -1.185890 38,000 350 455 0
2021-10-04 13:39:12 GMT 48.800571 -1.183488 38,000 350 455 0
2021-10-04 13:39:09 GMT 48.794403 -1.181735 38,000 350 455 0
2021-10-04 13:39:06 GMT 48.787769 -1.179802 38,000 350 454 0
2021-10-04 13:39:03 GMT 48.780972 -1.177778 38,000 350 454 0
2021-10-04 13:39:00 GMT 48.775852 -1.176332 38,000 350 454 0
2021-10-04 13:38:57 GMT 48.770870 -1.174887 38,000 350 454 0
2021-10-04 13:38:54 GMT 48.764912 -1.173152 38,000 350 454 0
2021-10-04 13:38:52 GMT 48.759327 -1.171490 38,000 350 454 0
2021-10-04 13:38:50 GMT 48.756042 -1.170537 38,000 350 454 0
2021-10-04 13:38:46 GMT 48.743080 -1.166791 38,000 350 453 0
2021-10-04 13:38:42 GMT 48.738739 -1.165537 38,000 350 454 0
2021-10-04 13:38:39 GMT 48.733612 -1.164058 38,000 350 454 0
2021-10-04 13:38:35 GMT 48.724972 -1.161587 38,000 350 454 0
2021-10-04 13:38:33 GMT 48.719803 -1.160070 38,000 350 454 0
2021-10-04 13:38:30 GMT 48.713608 -1.158353 38,000 350 454 0
2021-10-04 13:38:25 GMT 48.703136 -1.155299 38,000 350 453 0
2021-10-04 13:38:22 GMT 48.697784 -1.153781 38,000 350 454 0
2021-10-04 13:38:20 GMT 48.693237 -1.152508 38,000 350 453 0
2021-10-04 13:38:17 GMT 48.685867 -1.150395 38,000 350 453 0
2021-10-04 13:38:14 GMT 48.679676 -1.148577 38,000 350 453 0
2021-10-04 13:38:11 GMT 48.675797 -1.147508 38,000 350 453 0
2021-10-04 13:38:09 GMT 48.672272 -1.146452 38,000 350 453 0
2021-10-04 13:38:04 GMT 48.661194 -1.143301 38,000 350 452 0
2021-10-04 13:38:01 GMT 48.655060 -1.141522 38,000 350 452 0
2021-10-04 13:37:58 GMT 48.648903 -1.139687 38,000 350 452 0
2021-10-04 13:37:54 GMT 48.634567 -1.135567 38,000 350 452 0
2021-10-04 13:37:51 GMT 48.634567 -1.135567 38,000 350 451 0
2021-10-04 13:37:48 GMT 48.628418 -1.133775 38,000 350 451 64
2021-10-04 13:37:44 GMT 48.617386 -1.130535 38,000 350 452 64
2021-10-04 13:37:41 GMT 48.614090 -1.129620 38,000 350 451 64
2021-10-04 13:37:39 GMT 48.609787 -1.128352 38,000 350 451 64
2021-10-04 13:37:37 GMT 48.605705 -1.127183 38,000 350 452 64
2021-10-04 13:37:34 GMT 48.599560 -1.125376 38,000 350 452 0
2021-10-04 13:37:32 GMT 48.594223 -1.123845 38,000 350 452 0
2021-10-04 13:37:30 GMT 48.591980 -1.123211 38,000 350 452 0
2021-10-04 13:37:27 GMT 48.586029 -1.121451 38,000 350 452 -64
2021-10-04 13:37:22 GMT 48.574356 -1.118141 38,000 350 451 -64
2021-10-04 13:37:20 GMT 48.571907 -1.117425 38,000 350 451 -64
2021-10-04 13:37:17 GMT 48.565575 -1.115618 38,000 350 451 0
2021-10-04 13:37:14 GMT 48.559196 -1.113739 38,000 350 451 0
2021-10-04 13:37:10 GMT 48.549820 -1.111028 38,000 350 449 0
2021-10-04 13:37:07 GMT 48.544693 -1.109619 38,000 350 449 0
2021-10-04 13:37:04 GMT 48.539413 -1.108101 38,000 350 449 0
2021-10-04 13:37:01 GMT 48.531647 -1.105887 38,000 350 449 0
2021-10-04 13:36:59 GMT 48.526932 -1.104549 38,000 350 448 0
2021-10-04 13:36:54 GMT 48.518791 -1.102247 38,000 350 448 0
2021-10-04 13:36:51 GMT 48.510635 -1.099971 38,000 350 448 0
2021-10-04 13:36:49 GMT 48.506378 -1.098703 38,000 350 445 64
2021-10-04 13:36:44 GMT 48.497864 -1.096309 38,000 350 447 0
2021-10-04 13:36:40 GMT 48.483040 -1.092128 38,000 350 446 64
2021-10-04 13:36:37 GMT 48.483040 -1.092128 38,000 350 446 64
2021-10-04 13:36:35 GMT 48.479004 -1.090956 38,000 350 445 64
2021-10-04 13:36:31 GMT 48.469894 -1.088421 38,000 350 445 64
2021-10-04 13:36:28 GMT 48.464813 -1.086942 38,000 350 445 -64
2021-10-04 13:36:22 GMT 48.452080 -1.083382 38,000 350 444 -64
2021-10-04 13:36:19 GMT 48.446636 -1.081864 38,000 350 444 -64
2021-10-04 13:36:16 GMT 48.440598 -1.080111 38,000 350 444 -64
2021-10-04 13:36:13 GMT 48.428291 -1.076660 38,000 350 442 0
2021-10-04 13:36:10 GMT 48.428291 -1.076660 38,000 350 442 0
2021-10-04 13:36:07 GMT 48.422474 -1.074998 38,000 350 442 0
2021-10-04 13:36:04 GMT 48.415443 -1.072974 38,000 350 442 0
2021-10-04 13:36:02 GMT 48.413628 -1.072468 38,000 350 442 0
2021-10-04 13:36:00 GMT 48.408417 -1.070950 38,000 350 441 0
2021-10-04 13:35:57 GMT 48.402832 -1.069336 38,000 350 441 0
2021-10-04 13:35:53 GMT 48.395195 -1.067192 38,000 350 442 64
2021-10-04 13:35:50 GMT 48.388184 -1.065181 38,000 350 442 64
2021-10-04 13:35:48 GMT 48.383148 -1.063702 38,000 350 441 -64
2021-10-04 13:35:43 GMT 48.373920 -1.061048 38,000 350 441 -64
2021-10-04 13:35:40 GMT 48.362282 -1.057651 38,000 350 441 -64
2021-10-04 13:35:37 GMT 48.362282 -1.057651 38,000 350 441 -64
2021-10-04 13:35:34 GMT 48.357468 -1.056307 38,000 350 441 0
2021-10-04 13:35:32 GMT 48.353897 -1.055251 38,000 350 442 64
2021-10-04 13:35:30 GMT 48.347672 -1.053490 38,000 350 441 0
2021-10-04 13:35:27 GMT 48.343460 -1.052223 38,000 350 441 0
2021-10-04 13:35:25 GMT 48.338058 -1.050673 38,000 350 442 64
2021-10-04 13:35:20 GMT 48.325832 -1.047171 38,000 350 441 0
2021-10-04 13:35:18 GMT 48.324005 -1.046659 38,000 350 441 0
2021-10-04 13:35:14 GMT 48.316429 -1.044424 38,000 350 441 0
2021-10-04 13:35:10 GMT 48.300972 -1.040015 38,000 350 442 0
2021-10-04 13:35:06 GMT 48.300972 -1.040015 38,000 350 443 0
2021-10-04 13:35:02 GMT 48.293152 -1.037774 38,000 350 443 0
2021-10-04 13:34:59 GMT 48.287109 -1.036025 38,000 350 442 -64
2021-10-04 13:34:57 GMT 48.273239 -1.032011 38,000 350 442 0
2021-10-04 13:34:53 GMT 48.273239 -1.032011 38,000 350 442 0
2021-10-04 13:34:51 GMT 48.270248 -1.031197 38,000 350 442 -64
2021-10-04 13:34:48 GMT 48.264999 -1.029687 38,000 350 442 -64
2021-10-04 13:34:46 GMT 48.248135 -1.024836 38,000 350 442 0
2021-10-04 13:34:40 GMT 48.248135 -1.024836 38,000 350 442 0
2021-10-04 13:34:36 GMT 48.240082 -1.022596 38,000 350 442 0
2021-10-04 13:34:33 GMT 48.234467 -1.021024 38,000 350 442 0
2021-10-04 13:34:31 GMT 48.228863 -1.019416 38,000 350 443 0
2021-10-04 13:34:28 GMT 48.223415 -1.017898 38,000 350 443 0
2021-10-04 13:34:25 GMT 48.216759 -1.016019 38,000 350 443 0
2021-10-04 13:34:21 GMT 48.208939 -1.013850 38,000 350 443 0
2021-10-04 13:34:19 GMT 48.204704 -1.012694 38,000 350 443 0
2021-10-04 13:34:15 GMT 48.198669 -1.011024 38,000 350 443 0
2021-10-04 13:34:10 GMT 48.187386 -1.007923 38,000 350 442 0
2021-10-04 13:34:08 GMT 48.183380 -1.006798 38,000 350 442 0
2021-10-04 13:34:05 GMT 48.177155 -1.005038 38,000 350 442 64
2021-10-04 13:33:59 GMT 48.165894 -1.001939 38,000 350 441 64
2021-10-04 13:33:57 GMT 48.162899 -1.001057 38,000 350 441 64
2021-10-04 13:33:55 GMT 48.157497 -0.999545 38,000 350 441 0
2021-10-04 13:33:52 GMT 48.151260 -0.997784 38,000 350 441 0
2021-10-04 13:33:49 GMT 48.146484 -0.996391 38,000 350 441 0
2021-10-04 13:33:47 GMT 48.141678 -0.995087 38,000 350 441 0
2021-10-04 13:33:44 GMT 48.135452 -0.993301 38,000 350 441 0
2021-10-04 13:33:40 GMT 48.127853 -0.991104 38,000 350 441 0
2021-10-04 13:33:38 GMT 48.123413 -0.989868 38,000 350 441 0
2021-10-04 13:33:34 GMT 48.111420 -0.986435 38,000 350 441 64
2021-10-04 13:33:31 GMT 48.111420 -0.986435 38,000 350 441 64
2021-10-04 13:33:29 GMT 48.106197 -0.984967 38,000 350 441 0
2021-10-04 13:33:27 GMT 48.100983 -0.983482 38,000 350 441 0
2021-10-04 13:33:24 GMT 48.087578 -0.979685 38,000 350 441 -64
2021-10-04 13:33:20 GMT 48.082176 -0.978206 38,000 350 441 -64
2021-10-04 13:33:17 GMT 48.076359 -0.976516 38,000 350 441 -64
2021-10-04 13:33:15 GMT 48.076359 -0.976516 38,000 350 441 -64
2021-10-04 13:33:09 GMT 48.066116 -0.973628 38,000 350 441 0
2021-10-04 13:33:07 GMT 48.060928 -0.972153 38,000 350 441 64
2021-10-04 13:33:04 GMT 48.054478 -0.970389 38,000 350 441 64
2021-10-04 13:33:01 GMT 48.050674 -0.969269 38,000 350 441 64
2021-10-04 13:32:58 GMT 48.038223 -0.965767 38,000 350 441 64
2021-10-04 13:32:56 GMT 48.038223 -0.965767 38,000 350 442 0
2021-10-04 13:32:53 GMT 48.031219 -0.963776 38,000 350 442 0
2021-10-04 13:32:49 GMT 48.024994 -0.961990 38,000 350 442 0
2021-10-04 13:32:47 GMT 48.020168 -0.960670 38,000 350 442 -64
2021-10-04 13:32:42 GMT 48.011307 -0.958214 38,000 350 442 0
2021-10-04 13:32:39 GMT 48.004295 -0.956233 38,000 350 442 0
2021-10-04 13:32:36 GMT 48.000458 -0.955124 38,000 350 442 0
2021-10-04 13:32:33 GMT 47.987022 -0.951374 38,000 350 442 -64
2021-10-04 13:32:30 GMT 47.987022 -0.951374 38,000 350 442 -64
2021-10-04 13:32:28 GMT 47.982559 -0.950111 38,000 350 442 -64
2021-10-04 13:32:25 GMT 47.977760 -0.948768 38,000 350 442 -64
2021-10-04 13:32:21 GMT 47.969521 -0.946444 38,000 350 442 64
2021-10-04 13:32:18 GMT 47.962692 -0.944550 38,000 350 441 0
2021-10-04 13:32:16 GMT 47.959900 -0.943794 38,000 350 441 0
2021-10-04 13:32:14 GMT 47.954086 -0.942146 38,000 350 440 0
2021-10-04 13:32:09 GMT 47.945847 -0.939880 38,000 350 440 0
2021-10-04 13:32:06 GMT 47.939075 -0.937923 38,000 350 440 0
2021-10-04 13:32:03 GMT 47.933075 -0.936310 38,000 350 440 0
2021-10-04 13:32:01 GMT 47.929066 -0.935176 38,000 350 440 0
2021-10-04 13:31:58 GMT 47.923874 -0.933701 38,000 350 440 0
2021-10-04 13:31:56 GMT 47.918873 -0.932359 38,000 350 439 0
2021-10-04 13:31:54 GMT 47.916092 -0.931572 38,000 350 439 0
2021-10-04 13:31:51 GMT 47.909088 -0.929581 38,000 350 438 0
2021-10-04 13:31:49 GMT 47.905106 -0.928482 38,000 350 438 0
2021-10-04 13:31:46 GMT 47.892746 -0.925117 38,000 350 438 0
2021-10-04 13:31:43 GMT 47.892746 -0.925117 38,000 350 438 0
2021-10-04 13:31:37 GMT 47.880653 -0.921725 38,000 350 437 0
2021-10-04 13:31:34 GMT 47.876678 -0.920654 38,000 350 436 0
2021-10-04 13:31:32 GMT 47.872318 -0.919401 38,000 350 436 0
2021-10-04 13:31:29 GMT 47.866547 -0.917851 38,000 350 435 0
2021-10-04 13:31:26 GMT 47.859055 -0.915710 38,000 350 435 64
2021-10-04 13:31:23 GMT 47.852142 -0.913788 38,000 350 435 0
2021-10-04 13:31:18 GMT 47.844635 -0.911728 38,000 350 434 0
2021-10-04 13:31:15 GMT 47.827492 -0.906935 38,000 350 434 0
2021-10-04 13:31:11 GMT 47.827492 -0.906935 38,000 350 433 0
2021-10-04 13:31:08 GMT 47.821564 -0.905342 38,000 350 433 0
2021-10-04 13:31:05 GMT 47.817665 -0.904259 38,000 350 433 0
2021-10-04 13:31:02 GMT 47.811722 -0.902596 38,000 350 433 0
2021-10-04 13:30:57 GMT 47.803299 -0.900261 38,000 350 433 0
2021-10-04 13:30:54 GMT 47.796387 -0.898338 38,000 350 433 0
2021-10-04 13:30:51 GMT 47.791489 -0.896965 38,000 350 433 0
2021-10-04 13:30:48 GMT 47.782013 -0.894287 38,000 350 434 0
2021-10-04 13:30:45 GMT 47.778099 -0.893203 38,000 350 434 0
2021-10-04 13:30:43 GMT 47.767822 -0.890373 38,000 350 434 0
2021-10-04 13:30:38 GMT 47.763901 -0.889259 38,000 350 434 0
2021-10-04 13:30:35 GMT 47.757755 -0.887569 38,000 350 434 0
2021-10-04 13:30:32 GMT 47.750656 -0.885567 38,000 350 434 0
2021-10-04 13:30:28 GMT 47.745560 -0.884118 38,000 350 434 0
2021-10-04 13:30:26 GMT 47.741776 -0.883095 38,000 350 434 0
2021-10-04 13:30:23 GMT 47.735687 -0.881378 38,000 350 434 -64
2021-10-04 13:30:20 GMT 47.728775 -0.879456 38,000 350 434 -64
2021-10-04 13:30:17 GMT 47.723633 -0.877991 38,000 350 435 -64
2021-10-04 13:30:14 GMT 47.716743 -0.876089 38,000 350 435 -64
2021-10-04 13:30:12 GMT 47.713158 -0.875033 38,000 350 434 0
2021-10-04 13:30:10 GMT 47.709229 -0.873962 38,000 350 435 0
2021-10-04 13:30:07 GMT 47.703289 -0.872286 38,000 350 435 0
2021-10-04 13:30:03 GMT 47.696400 -0.870314 38,000 350 435 0
2021-10-04 13:30:01 GMT 47.691238 -0.868881 38,000 350 435 0
2021-10-04 13:29:58 GMT 47.684948 -0.867075 38,000 350 435 0
2021-10-04 13:29:54 GMT 47.676846 -0.864821 38,000 350 435 0
2021-10-04 13:29:52 GMT 47.675262 -0.864328 38,000 350 435 0
2021-10-04 13:29:48 GMT 47.665146 -0.861534 38,000 350 435 0
2021-10-04 13:29:45 GMT 47.659836 -0.860023 38,000 350 435 0
2021-10-04 13:29:42 GMT 47.654873 -0.858624 38,000 350 435 0
2021-10-04 13:29:38 GMT 47.646961 -0.856441 38,000 350 436 -64
2021-10-04 13:29:35 GMT 47.640244 -0.854530 38,000 350 436 0
2021-10-04 13:29:32 GMT 47.635090 -0.853060 38,000 350 436 0
2021-10-04 13:29:29 GMT 47.626198 -0.850595 38,000 350 436 64
2021-10-04 13:29:26 GMT 47.622799 -0.849680 38,000 350 437 0
2021-10-04 13:29:22 GMT 47.614883 -0.847527 38,000 350 436 0
2021-10-04 13:29:18 GMT 47.606369 -0.845123 38,000 350 437 -64
2021-10-04 13:29:14 GMT 47.593872 -0.841690 38,000 350 437 0
2021-10-04 13:29:07 GMT 47.585724 -0.839424 38,000 350 437 -64
2021-10-04 13:29:04 GMT 47.578995 -0.837567 38,000 350 438 0
2021-10-04 13:29:01 GMT 47.572998 -0.835922 38,000 350 438 0
2021-10-04 13:28:56 GMT 47.563660 -0.833313 38,000 350 439 0
2021-10-04 13:28:53 GMT 47.553482 -0.830524 38,000 350 440 64
2021-10-04 13:28:51 GMT 47.545120 -0.828163 38,000 350 440 64
2021-10-04 13:28:48 GMT 47.545120 -0.828163 38,000 350 440 0
2021-10-04 13:28:43 GMT 47.532906 -0.824820 38,000 350 441 0
2021-10-04 13:28:38 GMT 47.526901 -0.823151 38,000 350 441 0
2021-10-04 13:28:36 GMT 47.522480 -0.821932 38,000 350 441 0
2021-10-04 13:28:33 GMT 47.516289 -0.820242 38,000 350 442 0
2021-10-04 13:28:31 GMT 47.513077 -0.819327 38,000 350 442 0
2021-10-04 13:28:28 GMT 47.506840 -0.817636 38,000 350 443 0
2021-10-04 13:28:25 GMT 47.501808 -0.816228 38,000 350 443 -64
2021-10-04 13:28:22 GMT 47.495571 -0.814538 38,000 350 443 -64
2021-10-04 13:28:20 GMT 47.492569 -0.813675 38,000 350 443 -64
2021-10-04 13:28:17 GMT 47.485516 -0.811791 38,000 350 444 64
2021-10-04 13:28:15 GMT 47.482086 -0.810860 38,000 350 444 0
2021-10-04 13:28:11 GMT 47.472389 -0.808199 38,000 350 445 0
2021-10-04 13:28:08 GMT 47.467712 -0.806946 38,000 350 446 -64
2021-10-04 13:28:05 GMT 47.459839 -0.804749 38,000 350 446 -64
2021-10-04 13:28:01 GMT 47.452930 -0.802847 38,000 350 446 -64
2021-10-04 13:27:59 GMT 47.448879 -0.801720 38,000 350 447 0
2021-10-04 13:27:56 GMT 47.440315 -0.799396 38,000 350 447 64
2021-10-04 13:27:52 GMT 47.433014 -0.797401 38,000 350 448 64
2021-10-04 13:27:49 GMT 47.426907 -0.795664 38,000 350 448 0
2021-10-04 13:27:44 GMT 47.419189 -0.793556 38,000 350 449 0
2021-10-04 13:27:40 GMT 47.410194 -0.791086 38,000 350 449 0
2021-10-04 13:27:36 GMT 47.391251 -0.785875 38,000 350 449 0
2021-10-04 13:27:31 GMT 47.391251 -0.785875 38,000 350 449 0
2021-10-04 13:27:28 GMT 47.385086 -0.784218 38,000 350 449 0
2021-10-04 13:27:21 GMT 47.371044 -0.780311 38,000 350 449 0
2021-10-04 13:27:18 GMT 47.365925 -0.778902 38,000 350 450 0
2021-10-04 13:27:15 GMT 47.356522 -0.776321 38,000 350 450 0
2021-10-04 13:27:11 GMT 47.350796 -0.774747 38,000 350 450 0
2021-10-04 13:27:09 GMT 47.347301 -0.773832 38,000 350 450 0
2021-10-04 13:27:06 GMT 47.339344 -0.771649 38,000 350 450 0
2021-10-04 13:27:03 GMT 47.335236 -0.770554 38,000 350 450 0
2021-10-04 13:27:00 GMT 47.329102 -0.768832 38,000 350 450 64
2021-10-04 13:26:58 GMT 47.322769 -0.767141 38,000 350 450 0
2021-10-04 13:26:54 GMT 47.308434 -0.763268 38,000 350 450 0
2021-10-04 13:26:51 GMT 47.308434 -0.763268 38,000 350 450 0
2021-10-04 13:26:48 GMT 47.304569 -0.762212 38,000 350 450 0
2021-10-04 13:26:45 GMT 47.297379 -0.760254 38,000 350 451 64
2021-10-04 13:26:41 GMT 47.289185 -0.758057 38,000 350 451 64
2021-10-04 13:26:39 GMT 47.285297 -0.757000 38,000 350 451 0
2021-10-04 13:26:34 GMT 47.274445 -0.754074 38,000 350 451 0
2021-10-04 13:26:31 GMT 47.264210 -0.751296 38,000 350 451 -64
2021-10-04 13:26:26 GMT 47.258881 -0.749886 38,000 350 451 -64
2021-10-04 13:26:23 GMT 47.253548 -0.748408 38,000 350 451 -64
2021-10-04 13:26:19 GMT 47.245377 -0.746246 38,000 350 450 0
2021-10-04 13:26:16 GMT 47.237579 -0.744112 38,000 350 450 0
2021-10-04 13:26:13 GMT 47.232040 -0.742634 38,000 350 450 0
2021-10-04 13:26:10 GMT 47.224079 -0.740450 38,000 350 450 0
2021-10-04 13:26:04 GMT 47.212418 -0.737251 38,000 350 450 0
2021-10-04 13:25:59 GMT 47.203224 -0.734746 38,000 350 450 0
2021-10-04 13:25:56 GMT 47.195847 -0.732788 38,000 350 450 0
2021-10-04 13:25:54 GMT 47.192799 -0.731929 38,000 350 450 0
2021-10-04 13:25:51 GMT 47.187057 -0.730385 38,000 350 450 0
2021-10-04 13:25:48 GMT 47.179504 -0.728325 38,000 350 450 0
2021-10-04 13:25:43 GMT 47.170731 -0.725943 38,000 350 450 0
2021-10-04 13:25:39 GMT 47.162724 -0.723760 38,000 350 450 0
2021-10-04 13:25:37 GMT 47.154343 -0.721436 38,000 350 450 0
2021-10-04 13:25:35 GMT 47.154343 -0.721436 38,000 350 450 0
2021-10-04 13:25:32 GMT 47.148239 -0.719742 38,000 350 450 0
2021-10-04 13:25:29 GMT 47.136749 -0.716652 38,000 350 450 0
2021-10-04 13:25:26 GMT 47.129810 -0.714745 38,000 350 450 0
2021-10-04 13:25:23 GMT 47.129810 -0.714745 38,000 350 450 0
2021-10-04 13:25:20 GMT 47.117935 -0.711502 38,000 350 450 0
2021-10-04 13:25:17 GMT 47.117935 -0.711502 38,000 350 450 0
2021-10-04 13:25:14 GMT 47.110794 -0.709511 38,000 350 450 0
2021-10-04 13:25:11 GMT 47.104477 -0.707794 38,000 350 450 0
2021-10-04 13:25:08 GMT 47.098343 -0.706153 38,000 350 450 -64
2021-10-04 13:25:05 GMT 47.092384 -0.704534 38,000 350 450 0
2021-10-04 13:25:02 GMT 47.087082 -0.703056 38,000 350 450 0
2021-10-04 13:24:59 GMT 47.079895 -0.701134 38,000 350 450 0
2021-10-04 13:24:56 GMT 47.073765 -0.699463 38,000 350 450 0
2021-10-04 13:24:53 GMT 47.068874 -0.698125 38,000 350 450 0
2021-10-04 13:24:48 GMT 47.058838 -0.695435 38,000 350 450 0
2021-10-04 13:24:45 GMT 47.051884 -0.693547 38,000 350 450 0
2021-10-04 13:24:42 GMT 47.038803 -0.689955 38,000 350 450 0
2021-10-04 13:24:39 GMT 47.038803 -0.689955 38,000 350 450 0
2021-10-04 13:24:36 GMT 47.033478 -0.688499 38,000 350 450 0
2021-10-04 13:24:32 GMT 47.025467 -0.686371 38,000 350 450 0
2021-10-04 13:24:29 GMT 47.018326 -0.684380 38,000 350 450 0
2021-10-04 13:24:26 GMT 47.013199 -0.683006 38,000 350 450 0
2021-10-04 13:24:22 GMT 47.004410 -0.680603 38,000 350 450 0
2021-10-04 13:24:19 GMT 46.993134 -0.677561 38,000 350 450 0
2021-10-04 13:24:16 GMT 46.993134 -0.677561 38,000 350 450 0
2021-10-04 13:24:13 GMT 46.986603 -0.675797 38,000 350 450 0
2021-10-04 13:24:08 GMT 46.971863 -0.671814 38,000 350 450 0
2021-10-04 13:24:06 GMT 46.971863 -0.671814 38,000 350 450 0
2021-10-04 13:24:03 GMT 46.965500 -0.670097 38,000 350 450 0
2021-10-04 13:23:58 GMT 46.955891 -0.667490 38,000 350 450 0
2021-10-04 13:23:56 GMT 46.951401 -0.666252 38,000 350 450 0
2021-10-04 13:23:51 GMT 46.940552 -0.663368 38,000 350 450 0
2021-10-04 13:23:48 GMT 46.933777 -0.661583 38,000 350 450 0
2021-10-04 13:23:45 GMT 46.930103 -0.660588 38,000 350 450 0
2021-10-04 13:23:42 GMT 46.924377 -0.659039 38,000 350 450 -64
2021-10-04 13:23:38 GMT 46.914135 -0.656292 38,000 350 450 -64
2021-10-04 13:23:36 GMT 46.909851 -0.655165 38,000 350 450 0
2021-10-04 13:23:30 GMT 46.898586 -0.652137 38,000 350 449 0
2021-10-04 13:23:26 GMT 46.890205 -0.649884 38,000 350 449 0
2021-10-04 13:23:22 GMT 46.871429 -0.644829 38,000 350 449 0
2021-10-04 13:23:17 GMT 46.871429 -0.644829 38,000 350 449 0
2021-10-04 13:23:13 GMT 46.862457 -0.642432 38,000 350 449 0
2021-10-04 13:23:10 GMT 46.857559 -0.641159 38,000 350 449 0
2021-10-04 13:23:07 GMT 46.850407 -0.639198 38,000 350 449 0
2021-10-04 13:23:04 GMT 46.844925 -0.637743 38,000 350 449 0
2021-10-04 13:23:02 GMT 46.841652 -0.636864 38,000 350 449 0
2021-10-04 13:22:59 GMT 46.829830 -0.633774 38,000 350 449 0
2021-10-04 13:22:56 GMT 46.829830 -0.633774 38,000 350 449 0
2021-10-04 13:22:54 GMT 46.823078 -0.631989 38,000 350 448 0
2021-10-04 13:22:51 GMT 46.818604 -0.630776 38,000 350 447 0
2021-10-04 13:22:46 GMT 46.808990 -0.628230 38,000 350 448 0
2021-10-04 13:22:44 GMT 46.805969 -0.627427 38,000 350 449 0
2021-10-04 13:22:42 GMT 46.800247 -0.625886 38,000 350 448 0
2021-10-04 13:22:38 GMT 46.792511 -0.623809 38,000 350 448 64
2021-10-04 13:22:34 GMT 46.784721 -0.621758 38,000 350 448 0
2021-10-04 13:22:32 GMT 46.779465 -0.620326 38,000 350 448 0
2021-10-04 13:22:29 GMT 46.775162 -0.619187 38,000 350 448 0
2021-10-04 13:22:25 GMT 46.765354 -0.616539 38,000 350 448 0
2021-10-04 13:22:22 GMT 46.760056 -0.615100 38,000 350 448 0
2021-10-04 13:22:19 GMT 46.754368 -0.613586 38,000 350 448 -64
2021-10-04 13:22:16 GMT 46.748455 -0.611938 38,000 350 448 -64
2021-10-04 13:22:14 GMT 46.743164 -0.610545 38,000 350 448 -64
2021-10-04 13:22:09 GMT 46.726456 -0.605990 38,000 350 448 0
2021-10-04 13:22:05 GMT 46.726456 -0.605990 38,000 350 447 0
2021-10-04 13:22:03 GMT 46.720757 -0.604523 38,000 350 447 0
2021-10-04 13:21:59 GMT 46.712448 -0.602238 38,000 350 447 0
2021-10-04 13:21:56 GMT 46.707138 -0.600832 38,000 350 447 0
2021-10-04 13:21:53 GMT 46.701065 -0.599167 38,000 350 447 0
2021-10-04 13:21:49 GMT 46.693336 -0.597107 38,000 350 447 0
2021-10-04 13:21:46 GMT 46.685844 -0.595116 38,000 350 447 0
2021-10-04 13:21:43 GMT 46.678719 -0.593193 38,000 350 447 0
2021-10-04 13:21:41 GMT 46.676674 -0.592644 38,000 350 447 0
2021-10-04 13:21:38 GMT 46.669785 -0.590850 38,000 350 446 0
2021-10-04 13:21:35 GMT 46.665314 -0.589622 38,000 350 447 0
2021-10-04 13:21:33 GMT 46.659447 -0.588043 38,000 350 446 0
2021-10-04 13:21:30 GMT 46.654953 -0.586831 38,000 350 445 0
2021-10-04 13:21:27 GMT 46.648460 -0.585091 38,000 350 445 0
2021-10-04 13:21:22 GMT 46.637337 -0.582138 38,000 350 444 0
2021-10-04 13:21:17 GMT 46.627651 -0.579597 38,000 350 444 64
2021-10-04 13:21:14 GMT 46.623413 -0.578457 38,000 350 443 64
2021-10-04 13:21:12 GMT 46.618378 -0.577117 38,000 350 443 64
2021-10-04 13:21:08 GMT 46.610336 -0.574928 38,000 350 442 0
2021-10-04 13:21:05 GMT 46.603088 -0.573031 38,000 350 441 0
2021-10-04 13:21:03 GMT 46.599907 -0.572113 38,000 350 439 0
2021-10-04 13:21:00 GMT 46.594505 -0.570671 38,000 350 439 0
2021-10-04 13:20:57 GMT 46.580338 -0.566868 38,000 350 439 64
2021-10-04 13:20:53 GMT 46.580338 -0.566868 38,000 350 438 64
2021-10-04 13:20:50 GMT 46.573380 -0.564992 38,000 350 438 0
2021-10-04 13:20:47 GMT 46.566788 -0.563250 38,000 350 436 0
2021-10-04 13:20:43 GMT 46.558056 -0.560921 38,000 350 436 0
2021-10-04 13:20:39 GMT 46.552917 -0.559566 38,000 350 436 0
2021-10-04 13:20:36 GMT 46.546005 -0.557690 38,000 350 435 64
2021-10-04 13:20:31 GMT 46.535713 -0.555016 38,000 350 434 -64
2021-10-04 13:20:26 GMT 46.525635 -0.552331 38,000 350 434 -64
2021-10-04 13:20:23 GMT 46.519745 -0.550758 38,000 350 434 0
2021-10-04 13:20:21 GMT 46.515793 -0.549718 38,000 350 434 0
2021-10-04 13:20:16 GMT 46.506912 -0.547374 38,000 350 434 64
2021-10-04 13:20:13 GMT 46.495468 -0.544359 38,000 350 434 64
2021-10-04 13:20:10 GMT 46.495468 -0.544359 38,000 350 434 64
2021-10-04 13:20:07 GMT 46.488136 -0.542450 38,000 350 434 0
2021-10-04 13:20:03 GMT 46.480637 -0.540474 38,000 350 435 0
2021-10-04 13:20:00 GMT 46.469604 -0.537526 38,000 350 434 -64
2021-10-04 13:19:57 GMT 46.469604 -0.537526 38,000 350 434 -64
2021-10-04 13:19:53 GMT 46.460903 -0.535240 38,000 350 434 0
2021-10-04 13:19:51 GMT 46.455780 -0.533842 38,000 350 434 -64
2021-10-04 13:19:45 GMT 46.445724 -0.531189 38,000 350 434 0
2021-10-04 13:19:40 GMT 46.434834 -0.528305 38,000 350 434 -64
2021-10-04 13:19:36 GMT 46.427765 -0.526473 38,000 350 434 0
2021-10-04 13:19:33 GMT 46.421631 -0.524865 38,000 350 434 0
2021-10-04 13:19:30 GMT 46.415329 -0.523224 38,000 350 434 0
2021-10-04 13:19:25 GMT 46.405289 -0.520578 38,000 350 433 0
2021-10-04 13:19:22 GMT 46.398617 -0.518761 38,000 350 434 0
2021-10-04 13:19:19 GMT 46.394669 -0.517764 38,000 350 434 0
2021-10-04 13:19:15 GMT 46.386200 -0.515554 38,000 350 433 0
2021-10-04 13:19:10 GMT 46.376129 -0.512924 38,000 350 434 0
2021-10-04 13:19:05 GMT 46.365280 -0.510060 38,000 350 433 0
2021-10-04 13:19:00 GMT 46.356033 -0.507649 38,000 350 433 0
2021-10-04 13:18:54 GMT 46.344429 -0.504547 38,000 350 432 0
2021-10-04 13:18:49 GMT 46.334373 -0.501938 38,000 350 432 0
2021-10-04 13:18:45 GMT 46.326920 -0.500012 38,000 350 432 0
2021-10-04 13:18:43 GMT 46.323944 -0.499208 38,000 350 432 0
2021-10-04 13:18:40 GMT 46.315887 -0.497131 38,000 350 431 0
2021-10-04 13:18:33 GMT 46.303139 -0.493835 38,000 350 431 0
2021-10-04 13:18:29 GMT 46.296665 -0.492119 38,000 350 431 0
2021-10-04 13:18:23 GMT 46.283478 -0.488691 38,000 350 431 64
2021-10-04 13:18:18 GMT 46.274094 -0.486212 38,000 350 431 64
2021-10-04 13:18:15 GMT 46.267227 -0.484403 38,000 350 431 0
2021-10-04 13:18:13 GMT 46.264267 -0.483604 38,000 350 431 0
2021-10-04 13:18:09 GMT 46.256653 -0.481590 38,000 350 431 0
2021-10-04 13:18:06 GMT 46.250748 -0.480049 38,000 350 431 -64
2021-10-04 13:18:03 GMT 46.243927 -0.478240 38,000 350 431 64
2021-10-04 13:17:59 GMT 46.236286 -0.476189 38,000 350 431 64
2021-10-04 13:17:55 GMT 46.227631 -0.473886 38,000 350 431 -64
2021-10-04 13:17:53 GMT 46.222553 -0.472549 38,000 350 431 -64
2021-10-04 13:17:50 GMT 46.219807 -0.471794 38,000 350 430 -64
2021-10-04 13:17:47 GMT 46.211941 -0.469734 38,000 350 430 -64
2021-10-04 13:17:43 GMT 46.205097 -0.467949 38,000 350 431 -64
2021-10-04 13:17:40 GMT 46.200211 -0.466651 38,000 350 430 -64
2021-10-04 13:17:37 GMT 46.194298 -0.465134 38,000 350 430 -64
2021-10-04 13:17:34 GMT 46.188248 -0.463554 38,000 350 430 0
2021-10-04 13:17:32 GMT 46.184738 -0.462632 38,000 350 430 0
2021-10-04 13:17:27 GMT 46.174931 -0.460052 38,000 350 429 64
2021-10-04 13:17:23 GMT 46.164963 -0.457473 38,000 350 429 0
2021-10-04 13:17:20 GMT 46.158733 -0.455795 38,000 350 429 0
2021-10-04 13:17:17 GMT 46.154819 -0.454834 38,000 350 429 0
2021-10-04 13:17:14 GMT 46.148163 -0.453049 38,000 350 429 0
2021-10-04 13:17:10 GMT 46.140518 -0.451109 38,000 350 429 0
2021-10-04 13:17:07 GMT 46.134663 -0.449547 38,000 350 429 0
2021-10-04 13:17:04 GMT 46.128433 -0.447894 38,000 350 430 0
2021-10-04 13:17:01 GMT 46.122978 -0.446457 38,000 350 430 0
2021-10-04 13:16:56 GMT 46.114746 -0.444276 38,000 350 429 0
2021-10-04 13:16:53 GMT 46.107944 -0.442474 38,000 350 429 0
2021-10-04 13:16:50 GMT 46.102432 -0.441061 38,000 350 429 0
2021-10-04 13:16:46 GMT 46.093468 -0.438698 38,000 350 429 -64
2021-10-04 13:16:41 GMT 46.085083 -0.436506 38,000 350 429 0
2021-10-04 13:16:38 GMT 46.076660 -0.434295 38,000 350 429 64
2021-10-04 13:16:35 GMT 46.072750 -0.433273 38,000 350 429 64
2021-10-04 13:16:32 GMT 46.065353 -0.431347 38,000 350 429 0
2021-10-04 13:16:28 GMT 46.059677 -0.429874 38,000 350 429 -64
2021-10-04 13:16:25 GMT 46.053802 -0.428329 38,000 350 429 -64
2021-10-04 13:16:22 GMT 46.047935 -0.426819 38,000 350 429 0
2021-10-04 13:16:20 GMT 46.039745 -0.424622 38,000 350 429 0
2021-10-04 13:16:15 GMT 46.033859 -0.423108 38,000 350 429 0
2021-10-04 13:16:12 GMT 46.026848 -0.421326 38,000 350 429 0
2021-10-04 13:16:08 GMT 46.020172 -0.419624 38,000 350 429 0
2021-10-04 13:16:05 GMT 46.013351 -0.417815 38,000 350 429 0
2021-10-04 13:16:01 GMT 46.005527 -0.415833 38,000 350 429 0
2021-10-04 13:15:58 GMT 46.000076 -0.414399 38,000 350 429 0
2021-10-04 13:15:54 GMT 45.991882 -0.412322 38,000 350 429 0
2021-10-04 13:15:51 GMT 45.984440 -0.410408 38,000 350 429 0
2021-10-04 13:15:48 GMT 45.973343 -0.407566 38,000 350 429 0
2021-10-04 13:15:44 GMT 45.973343 -0.407566 38,000 350 429 0
2021-10-04 13:15:41 GMT 45.967075 -0.405945 38,000 350 429 0
2021-10-04 13:15:38 GMT 45.960434 -0.404216 38,000 350 429 0
2021-10-04 13:15:33 GMT 45.949291 -0.401344 38,000 350 429 0
2021-10-04 13:15:29 GMT 45.943039 -0.399728 38,000 350 429 -64
2021-10-04 13:15:26 GMT 45.936817 -0.398048 38,000 350 429 -128
2021-10-04 13:15:23 GMT 45.933105 -0.397116 38,000 350 429 -64
2021-10-04 13:15:20 GMT 45.923309 -0.394570 38,000 350 429 64
2021-10-04 13:15:17 GMT 45.919033 -0.393448 38,000 350 429 64
2021-10-04 13:15:13 GMT 45.911819 -0.391594 38,000 350 429 64
2021-10-04 13:15:10 GMT 45.901062 -0.388742 38,000 350 429 -64
2021-10-04 13:15:07 GMT 45.901062 -0.388742 38,000 350 429 -64
2021-10-04 13:15:03 GMT 45.886402 -0.384933 38,000 350 430 0
2021-10-04 13:14:57 GMT 45.870987 -0.380904 38,000 350 430 64
2021-10-04 13:14:52 GMT 45.870987 -0.380904 38,000 350 430 0
2021-10-04 13:14:47 GMT 45.861031 -0.378273 38,000 350 429 -64
2021-10-04 13:14:44 GMT 45.855350 -0.376762 38,000 350 429 -64
2021-10-04 13:14:41 GMT 45.848553 -0.374977 38,000 350 430 -64
2021-10-04 13:14:35 GMT 45.837799 -0.372195 38,000 350 430 64
2021-10-04 13:14:31 GMT 45.828629 -0.369759 38,000 350 430 64
2021-10-04 13:14:28 GMT 45.824718 -0.368729 38,000 350 430 0
2021-10-04 13:14:24 GMT 45.817875 -0.366875 38,000 350 430 0
2021-10-04 13:14:20 GMT 45.808102 -0.364334 38,000 350 430 0
2021-10-04 13:14:17 GMT 45.802048 -0.362823 38,000 350 430 0
2021-10-04 13:14:11 GMT 45.790878 -0.359936 38,000 350 431 0
2021-10-04 13:14:06 GMT 45.781631 -0.357525 38,000 350 431 -64
2021-10-04 13:14:00 GMT 45.758881 -0.351629 38,000 350 431 0
2021-10-04 13:13:54 GMT 45.752190 -0.349915 38,000 351 432 64
2021-10-04 13:13:51 GMT 45.752190 -0.349915 38,000 350 431 64
2021-10-04 13:13:48 GMT 45.743317 -0.347677 38,000 351 432 64
2021-10-04 13:13:40 GMT 45.730545 -0.344421 38,000 350 432 0
2021-10-04 13:13:38 GMT 45.726028 -0.343254 38,000 344 431 0
2021-10-04 13:13:35 GMT 45.719929 -0.341743 38,000 350 432 0
2021-10-04 13:13:31 GMT 45.711086 -0.339478 38,000 350 432 0
2021-10-04 13:13:28 GMT 45.707733 -0.338654 38,000 350 432 0
2021-10-04 13:13:24 GMT 45.689438 -0.334011 38,000 350 432 -64
2021-10-04 13:13:19 GMT 45.689438 -0.334011 38,000 350 432 -64
2021-10-04 13:13:16 GMT 45.681198 -0.331924 38,000 350 432 64
2021-10-04 13:13:08 GMT 45.666813 -0.328285 38,000 351 432 0
2021-10-04 13:13:05 GMT 45.661697 -0.327044 38,000 350 432 0
2021-10-04 13:13:02 GMT 45.655411 -0.325333 38,000 350 431 -64
2021-10-04 13:12:59 GMT 45.650520 -0.323891 38,000 347 431 -128
2021-10-04 13:12:57 GMT 45.645676 -0.322288 38,000 347 431 -64
2021-10-04 13:12:53 GMT 45.637939 -0.319541 38,000 344 430 64
2021-10-04 13:12:50 GMT 45.631992 -0.317093 38,000 344 430 64
2021-10-04 13:12:47 GMT 45.626678 -0.314852 38,000 344 431 64
2021-10-04 13:12:43 GMT 45.619446 -0.311771 38,000 344 430 -64
2021-10-04 13:12:40 GMT 45.612396 -0.308756 38,000 344 430 -64
2021-10-04 13:12:36 GMT 45.605133 -0.305695 38,000 344 430 128
2021-10-04 13:12:33 GMT 45.593681 -0.300819 38,000 344 430 128
2021-10-04 13:12:30 GMT 45.590469 -0.299446 38,000 344 430 64
2021-10-04 13:12:24 GMT 45.583019 -0.296288 38,000 344 430 -64
2021-10-04 13:12:20 GMT 45.574631 -0.292678 38,000 344 430 -64
2021-10-04 13:12:18 GMT 45.571793 -0.291473 38,000 344 429 -64
2021-10-04 13:12:15 GMT 45.565292 -0.288726 38,000 344 429 -64
2021-10-04 13:12:12 GMT 45.560532 -0.286716 38,000 344 429 0
2021-10-04 13:12:08 GMT 45.552521 -0.283300 38,000 344 430 64
2021-10-04 13:12:05 GMT 45.545517 -0.280282 38,000 344 430 64
2021-10-04 13:12:02 GMT 45.540379 -0.278075 38,000 344 430 64
2021-10-04 13:11:59 GMT 45.535583 -0.276065 38,000 344 430 0
2021-10-04 13:11:55 GMT 45.522270 -0.270371 38,000 344 430 0
2021-10-04 13:11:52 GMT 45.513889 -0.266820 38,000 344 429 -64
2021-10-04 13:11:48 GMT 45.513889 -0.266820 38,000 344 429 -64
2021-10-04 13:11:45 GMT 45.506863 -0.263806 38,000 344 429 -64
2021-10-04 13:11:42 GMT 45.502304 -0.261906 38,000 344 429 -64
2021-10-04 13:11:35 GMT 45.489170 -0.256303 38,000 344 429 64
2021-10-04 13:11:32 GMT 45.483444 -0.253928 38,000 344 429 128
2021-10-04 13:11:26 GMT 45.472645 -0.249336 38,000 344 428 -64
2021-10-04 13:11:21 GMT 45.463333 -0.245384 38,000 344 428 -64
2021-10-04 13:11:15 GMT 45.444763 -0.237514 38,000 344 427 0
2021-10-04 13:11:11 GMT 45.444763 -0.237514 38,000 344 427 0
2021-10-04 13:11:07 GMT 45.436428 -0.233995 38,000 344 426 0
2021-10-04 13:11:05 GMT 45.432266 -0.232217 38,000 344 426 0
2021-10-04 13:11:02 GMT 45.425442 -0.229373 38,000 344 425 64
2021-10-04 13:10:54 GMT 45.412033 -0.223650 38,000 344 426 64
2021-10-04 13:10:51 GMT 45.406353 -0.221267 38,000 344 426 0
2021-10-04 13:10:44 GMT 45.392990 -0.215607 38,000 344 426 0
2021-10-04 13:10:41 GMT 45.387131 -0.213122 38,000 344 426 0
2021-10-04 13:10:38 GMT 45.380905 -0.210506 38,000 344 426 -64
2021-10-04 13:10:32 GMT 45.370510 -0.206128 38,000 344 426 -64
2021-10-04 13:10:29 GMT 45.366165 -0.204293 38,000 344 426 0
2021-10-04 13:10:27 GMT 45.361294 -0.202175 38,000 344 425 64
2021-10-04 13:10:23 GMT 45.351467 -0.197955 38,000 344 426 0
2021-10-04 13:10:19 GMT 45.346207 -0.195727 38,000 344 425 64
2021-10-04 13:10:12 GMT 45.332245 -0.189776 38,000 344 426 192
2021-10-04 13:10:09 GMT 45.327896 -0.187945 38,000 344 426 128
2021-10-04 13:10:04 GMT 45.317871 -0.183759 38,000 344 427 -128
2021-10-04 13:10:01 GMT 45.310318 -0.180490 38,000 344 427 -128
2021-10-04 13:09:57 GMT 45.292767 -0.173102 38,000 344 426 64
2021-10-04 13:09:52 GMT 45.292767 -0.173102 38,000 344 426 64
2021-10-04 13:09:48 GMT 45.288017 -0.171092 38,000 344 426 64
2021-10-04 13:09:45 GMT 45.282944 -0.168948 38,000 344 426 64
2021-10-04 13:09:41 GMT 45.273262 -0.164862 38,000 344 427 0
2021-10-04 13:09:38 GMT 45.253372 -0.156490 38,000 344 427 0
2021-10-04 13:09:31 GMT 45.253372 -0.156490 38,000 344 429 0
2021-10-04 13:09:27 GMT 45.248077 -0.154278 38,000 344 429 0
2021-10-04 13:09:22 GMT 45.237808 -0.149885 38,000 344 429 64
2021-10-04 13:09:19 GMT 45.231537 -0.147269 38,000 344 430 -64
2021-10-04 13:09:16 GMT 45.227188 -0.145373 38,000 344 429 0
2021-10-04 13:09:13 GMT 45.220333 -0.142487 38,000 344 430 -64
2021-10-04 13:09:09 GMT 45.213257 -0.139540 38,000 344 430 0
2021-10-04 13:09:06 GMT 45.208282 -0.137460 38,000 344 433 -64
2021-10-04 13:09:03 GMT 45.200268 -0.134114 38,000 344 430 64
2021-10-04 13:09:00 GMT 45.191711 -0.130463 38,000 344 431 0
2021-10-04 13:08:56 GMT 45.189011 -0.129351 38,000 344 431 0
2021-10-04 13:08:53 GMT 45.180389 -0.125740 38,000 344 432 0
2021-10-04 13:08:50 GMT 45.176605 -0.124119 38,000 344 433 0
2021-10-04 13:08:46 GMT 45.168938 -0.120850 38,000 344 433 -64
2021-10-04 13:08:41 GMT 45.159897 -0.116991 38,000 344 433 -64
2021-10-04 13:08:38 GMT 45.153763 -0.114441 38,000 344 433 -64
2021-10-04 13:08:35 GMT 45.147812 -0.111891 38,000 344 433 0
2021-10-04 13:08:31 GMT 45.140167 -0.108621 38,000 344 433 0
2021-10-04 13:08:28 GMT 45.127487 -0.103324 38,000 344 433 0
2021-10-04 13:08:24 GMT 45.127487 -0.103324 38,000 344 433 0
2021-10-04 13:08:20 GMT 45.119823 -0.100083 38,000 344 433 -64
2021-10-04 13:08:16 GMT 45.107536 -0.094925 38,025 344 433 0
2021-10-04 13:08:14 GMT 45.107536 -0.094925 38,025 344 433 0
2021-10-04 13:08:10 GMT 45.099472 -0.091618 38,025 344 433 0
2021-10-04 13:08:07 GMT 45.093712 -0.089230 38,025 344 433 64
2021-10-04 13:08:03 GMT 45.086216 -0.086082 38,000 344 433 64
2021-10-04 13:07:59 GMT 45.079697 -0.083402 38,000 344 433 64
2021-10-04 13:07:56 GMT 45.072784 -0.080501 38,000 344 433 64
2021-10-04 13:07:50 GMT 45.061798 -0.075923 38,000 344 433 0
2021-10-04 13:07:47 GMT 45.054138 -0.072684 38,000 344 433 0
2021-10-04 13:07:42 GMT 45.047607 -0.069972 38,000 344 433 0
2021-10-04 13:07:39 GMT 45.038963 -0.066387 38,000 344 433 0
2021-10-04 13:07:36 GMT 45.033554 -0.064152 38,000 344 433 0
2021-10-04 13:07:32 GMT 45.026093 -0.061013 38,000 344 433 0
2021-10-04 13:07:29 GMT 45.021832 -0.059286 38,000 344 433 0
2021-10-04 13:07:26 GMT 45.014191 -0.056109 38,000 344 433 -64
2021-10-04 13:07:22 GMT 45.007263 -0.053257 38,000 344 433 -64
2021-10-04 13:07:19 GMT 45.002243 -0.051204 38,000 344 433 -64
2021-10-04 13:07:15 GMT 44.995346 -0.048367 38,000 344 432 0
2021-10-04 13:07:12 GMT 44.989758 -0.046022 38,000 344 432 0
2021-10-04 13:07:09 GMT 44.982880 -0.043226 38,000 344 432 128
2021-10-04 13:07:06 GMT 44.977886 -0.041132 38,000 344 432 128
2021-10-04 13:07:03 GMT 44.970978 -0.038321 38,000 344 432 0
2021-10-04 13:06:58 GMT 44.960449 -0.033940 38,000 344 432 -64
2021-10-04 13:06:55 GMT 44.954086 -0.031324 38,000 344 432 -64
2021-10-04 13:06:50 GMT 44.946075 -0.027989 38,000 344 432 0
2021-10-04 13:06:47 GMT 44.931290 -0.021839 38,000 344 432 0
2021-10-04 13:06:43 GMT 44.931290 -0.021839 38,000 344 432 -64
2021-10-04 13:06:38 GMT 44.923828 -0.018768 38,000 344 432 -64
2021-10-04 13:06:35 GMT 44.917145 -0.015956 38,000 344 432 -64
2021-10-04 13:06:32 GMT 44.911743 -0.013733 38,025 344 432 0
2021-10-04 13:06:28 GMT 44.904465 -0.010790 38,000 344 431 128
2021-10-04 13:06:25 GMT 44.898148 -0.008174 38,000 344 431 128
2021-10-04 13:06:21 GMT 44.890881 -0.005158 38,000 344 431 64
2021-10-04 13:06:17 GMT 44.883804 -0.002211 38,000 344 431 0
2021-10-04 13:06:14 GMT 44.877319 0.000523 38,000 344 432 -64
2021-10-04 13:06:12 GMT 44.873291 0.002223 38,000 344 431 0
2021-10-04 13:06:07 GMT 44.862347 0.006699 38,000 344 432 -64
2021-10-04 13:06:04 GMT 44.859100 0.008109 38,000 344 432 -64
2021-10-04 13:06:00 GMT 44.850475 0.011656 38,000 344 432 0
2021-10-04 13:05:55 GMT 44.840927 0.015564 38,000 344 431 0
2021-10-04 13:05:52 GMT 44.833065 0.018824 38,000 344 431 0
2021-10-04 13:05:47 GMT 44.825409 0.021973 38,000 344 431 0
2021-10-04 13:05:44 GMT 44.814907 0.026327 38,000 344 431 0
2021-10-04 13:05:41 GMT 44.814907 0.026327 38,000 344 431 0
2021-10-04 13:05:36 GMT 44.804386 0.030681 38,000 344 431 0
2021-10-04 13:05:33 GMT 44.799595 0.032691 38,000 344 431 0
2021-10-04 13:05:29 GMT 44.792519 0.035639 38,000 344 432 0
2021-10-04 13:05:26 GMT 44.784119 0.039171 38,000 344 432 0
2021-10-04 13:05:23 GMT 44.780273 0.040797 38,000 344 432 0
2021-10-04 13:05:20 GMT 44.775154 0.042940 38,000 344 432 0
2021-10-04 13:05:17 GMT 44.761372 0.048769 38,000 344 432 0
2021-10-04 13:05:14 GMT 44.761372 0.048769 38,000 344 432 0
2021-10-04 13:05:11 GMT 44.756577 0.050778 38,000 344 432 0
2021-10-04 13:05:07 GMT 44.748962 0.054016 38,000 344 432 0
2021-10-04 13:05:03 GMT 44.742428 0.056740 38,000 344 433 0
2021-10-04 13:04:59 GMT 44.735138 0.059836 38,000 344 433 0
2021-10-04 13:04:55 GMT 44.716919 0.067422 38,000 344 433 64
2021-10-04 13:04:51 GMT 44.716919 0.067422 38,000 344 434 64
2021-10-04 13:04:46 GMT 44.709778 0.070299 38,000 344 434 -128
2021-10-04 13:04:43 GMT 44.702858 0.073153 38,000 344 434 -64
2021-10-04 13:04:38 GMT 44.694946 0.076381 38,000 344 434 0
2021-10-04 13:04:33 GMT 44.683365 0.081090 38,000 344 434 0
2021-10-04 13:04:30 GMT 44.678371 0.083134 38,000 344 434 0
2021-10-04 13:04:27 GMT 44.673714 0.085010 38,000 344 434 -64
2021-10-04 13:04:22 GMT 44.663498 0.089199 38,000 344 434 -64
2021-10-04 13:04:18 GMT 44.654861 0.092781 38,000 344 434 64
2021-10-04 13:04:13 GMT 44.644249 0.097135 38,000 344 434 64
2021-10-04 13:04:09 GMT 44.638870 0.099335 38,000 344 434 0
2021-10-04 13:04:06 GMT 44.631538 0.102293 38,000 344 435 -64
2021-10-04 13:04:03 GMT 44.626698 0.104303 38,000 344 435 -64
2021-10-04 13:04:00 GMT 44.617859 0.107901 38,000 344 435 -64
2021-10-04 13:03:57 GMT 44.615154 0.108992 38,000 344 435 0
2021-10-04 13:03:54 GMT 44.607239 0.112275 38,000 344 434 0
2021-10-04 13:03:50 GMT 44.595474 0.117122 38,000 344 435 64
2021-10-04 13:03:47 GMT 44.595474 0.117122 38,000 344 435 128
2021-10-04 13:03:43 GMT 44.587006 0.120653 38,000 344 435 0
2021-10-04 13:03:38 GMT 44.579132 0.123989 38,000 344 435 0
2021-10-04 13:03:33 GMT 44.567917 0.128632 38,000 344 436 -128
2021-10-04 13:03:30 GMT 44.560410 0.131705 38,000 344 436 -128
2021-10-04 13:03:25 GMT 44.553268 0.134713 38,000 344 436 -64
2021-10-04 13:03:22 GMT 44.545322 0.137999 38,000 344 436 0
2021-10-04 13:03:19 GMT 44.541687 0.139487 38,000 344 436 128
2021-10-04 13:03:15 GMT 44.531616 0.143672 38,000 344 436 128
2021-10-04 13:03:12 GMT 44.527962 0.145234 38,000 344 436 -64
2021-10-04 13:03:07 GMT 44.517700 0.149427 38,000 344 436 -64
2021-10-04 13:03:04 GMT 44.512482 0.151585 38,000 344 436 -128
2021-10-04 13:03:01 GMT 44.506485 0.154070 38,000 344 436 -64
2021-10-04 13:02:57 GMT 44.498932 0.157209 38,000 344 436 0
2021-10-04 13:02:54 GMT 44.493347 0.159498 38,000 344 436 64
2021-10-04 13:02:51 GMT 44.487717 0.161852 38,000 344 437 64
2021-10-04 13:02:48 GMT 44.481308 0.164468 38,000 344 437 -64
2021-10-04 13:02:44 GMT 44.473343 0.167738 38,000 344 437 -64
2021-10-04 13:02:41 GMT 44.468124 0.169830 38,000 344 437 0
2021-10-04 13:02:37 GMT 44.460526 0.172969 38,000 344 437 0
2021-10-04 13:02:32 GMT 44.448898 0.177678 38,000 344 437 0
2021-10-04 13:02:28 GMT 44.442078 0.180424 38,000 344 438 64
2021-10-04 13:02:24 GMT 44.434891 0.183367 38,000 345 439 64
2021-10-04 13:02:21 GMT 44.422440 0.188402 38,000 345 439 64
2021-10-04 13:02:17 GMT 44.422440 0.188402 38,000 345 439 64
2021-10-04 13:02:11 GMT 44.409164 0.193699 38,000 344 439 -64
2021-10-04 13:02:08 GMT 44.394150 0.199847 38,000 344 439 0
2021-10-04 13:02:03 GMT 44.394150 0.199847 38,000 344 439 0
2021-10-04 13:02:00 GMT 44.387695 0.202397 38,000 344 439 0
2021-10-04 13:01:57 GMT 44.382248 0.204620 38,000 344 440 64
2021-10-04 13:01:53 GMT 44.375034 0.207601 38,000 344 439 64
2021-10-04 13:01:49 GMT 44.367645 0.210571 38,000 344 439 64
2021-10-04 13:01:46 GMT 44.350456 0.217583 38,000 344 440 -64
2021-10-04 13:01:41 GMT 44.350456 0.217583 38,000 344 439 -64
2021-10-04 13:01:38 GMT 44.344826 0.219928 38,000 344 439 -64
2021-10-04 13:01:36 GMT 44.341660 0.221200 38,000 344 440 64
2021-10-04 13:01:33 GMT 44.332722 0.224818 38,000 344 440 0
2021-10-04 13:01:29 GMT 44.327042 0.227162 38,000 344 440 64
2021-10-04 13:01:25 GMT 44.317078 0.231182 38,000 344 440 64
2021-10-04 13:01:19 GMT 44.307495 0.235094 38,000 344 440 0
2021-10-04 13:01:16 GMT 44.296314 0.239623 38,000 344 440 0
2021-10-04 13:01:13 GMT 44.296314 0.239623 38,000 344 440 64
2021-10-04 13:01:10 GMT 44.289276 0.242549 38,000 344 441 0
2021-10-04 13:01:06 GMT 44.282631 0.245250 38,000 344 441 0
2021-10-04 13:01:03 GMT 44.276779 0.247650 38,000 344 442 -64
2021-10-04 13:00:59 GMT 44.268906 0.250854 38,000 344 442 -64
2021-10-04 13:00:56 GMT 44.262863 0.253339 38,000 344 442 0
2021-10-04 13:00:51 GMT 44.249344 0.258916 38,000 344 442 64
2021-10-04 13:00:49 GMT 44.241486 0.262102 38,000 344 442 64
2021-10-04 13:00:46 GMT 44.241486 0.262102 38,000 344 442 0
2021-10-04 13:00:42 GMT 44.233051 0.265548 38,000 344 442 0
2021-10-04 13:00:38 GMT 44.228165 0.267557 38,000 344 442 0
2021-10-04 13:00:36 GMT 44.223091 0.269634 38,000 344 442 0
2021-10-04 13:00:29 GMT 44.207958 0.275797 38,000 344 442 0
2021-10-04 13:00:24 GMT 44.199280 0.279301 38,000 344 443 0
2021-10-04 13:00:20 GMT 44.192413 0.282068 38,000 344 443 0
2021-10-04 13:00:17 GMT 44.186920 0.284271 38,000 344 443 0
2021-10-04 13:00:14 GMT 44.179611 0.287214 38,000 344 443 0
2021-10-04 13:00:10 GMT 44.172348 0.290157 38,000 344 443 0
2021-10-04 13:00:08 GMT 44.168205 0.291792 38,000 344 443 0
2021-10-04 13:00:05 GMT 44.162479 0.294080 38,000 344 443 64
2021-10-04 12:59:57 GMT 44.144184 0.301405 38,000 344 443 0
2021-10-04 12:59:53 GMT 44.138672 0.303657 38,000 344 443 0
2021-10-04 12:59:48 GMT 44.126865 0.308402 38,000 344 443 0
2021-10-04 12:59:45 GMT 44.123096 0.309906 38,000 344 443 0
2021-10-04 12:59:40 GMT 44.113274 0.313895 38,000 344 443 0
2021-10-04 12:59:37 GMT 44.106171 0.316751 38,000 344 443 0
2021-10-04 12:59:34 GMT 44.102242 0.318277 38,000 344 443 0
2021-10-04 12:59:29 GMT 44.091614 0.322564 38,000 344 443 64
2021-10-04 12:59:25 GMT 44.082916 0.326077 38,000 344 444 0
2021-10-04 12:59:19 GMT 44.071884 0.330612 38,000 344 443 0
2021-10-04 12:59:14 GMT 44.062637 0.334317 38,000 344 444 0
2021-10-04 12:59:08 GMT 44.050194 0.339334 38,000 344 444 0
2021-10-04 12:59:05 GMT 44.045105 0.341407 38,000 344 444 0
2021-10-04 12:59:02 GMT 44.039951 0.343454 38,000 344 444 0
2021-10-04 12:58:57 GMT 44.028919 0.347900 38,000 344 444 0
2021-10-04 12:58:54 GMT 44.011742 0.354832 38,000 344 444 0
2021-10-04 12:58:48 GMT 44.011742 0.354832 38,000 344 444 0
2021-10-04 12:58:45 GMT 43.997360 0.360696 38,000 344 443 -64
2021-10-04 12:58:42 GMT 43.997360 0.360696 38,000 344 443 64
2021-10-04 12:58:34 GMT 43.981064 0.367276 38,000 344 442 0
2021-10-04 12:58:28 GMT 43.973198 0.370396 38,000 344 442 0
2021-10-04 12:58:26 GMT 43.968475 0.372322 38,000 344 442 0
2021-10-04 12:58:23 GMT 43.962387 0.374749 38,000 344 441 0
2021-10-04 12:58:19 GMT 43.953739 0.378178 38,000 344 441 0
2021-10-04 12:58:17 GMT 43.950062 0.379682 38,000 344 440 64
2021-10-04 12:58:15 GMT 43.944580 0.381903 38,000 344 440 0
2021-10-04 12:58:12 GMT 43.939865 0.383755 38,000 344 439 0
2021-10-04 12:58:09 GMT 43.934418 0.385960 38,000 344 439 0
2021-10-04 12:58:04 GMT 43.924644 0.389884 38,000 344 438 0
2021-10-04 12:58:01 GMT 43.919010 0.392173 38,000 344 438 0
2021-10-04 12:57:57 GMT 43.912033 0.394997 38,000 344 438 -64
2021-10-04 12:57:55 GMT 43.907547 0.396785 38,000 344 438 -64
2021-10-04 12:57:52 GMT 43.894943 0.401851 38,000 344 437 0
2021-10-04 12:57:49 GMT 43.894943 0.401851 38,000 344 437 0
2021-10-04 12:57:45 GMT 43.888889 0.404205 38,000 344 437 0
2021-10-04 12:57:43 GMT 43.882515 0.406756 38,000 344 436 64
2021-10-04 12:57:39 GMT 43.875549 0.409560 38,000 345 435 0
2021-10-04 12:57:36 GMT 43.870132 0.411726 38,000 345 435 64
2021-10-04 12:57:32 GMT 43.862591 0.414668 38,000 344 434 0
2021-10-04 12:57:28 GMT 43.855225 0.417608 38,000 344 434 0
2021-10-04 12:57:26 GMT 43.849834 0.419769 38,000 344 434 0
2021-10-04 12:57:21 GMT 43.842293 0.422712 38,000 344 433 0
2021-10-04 12:57:18 GMT 43.835358 0.425529 38,000 344 432 0
2021-10-04 12:57:13 GMT 43.825535 0.429382 38,000 344 432 0
2021-10-04 12:57:10 GMT 43.819946 0.431606 38,000 344 432 0
2021-10-04 12:57:07 GMT 43.814575 0.433768 38,000 344 432 0
2021-10-04 12:57:02 GMT 43.805565 0.437360 38,000 344 432 0
2021-10-04 12:56:59 GMT 43.797695 0.440499 38,000 344 431 -64
2021-10-04 12:56:56 GMT 43.793106 0.442327 38,000 344 431 0
2021-10-04 12:56:51 GMT 43.784706 0.445666 38,000 344 431 0
2021-10-04 12:56:47 GMT 43.778004 0.448347 38,000 344 430 0
2021-10-04 12:56:45 GMT 43.772278 0.450695 38,000 344 430 0
2021-10-04 12:56:41 GMT 43.764271 0.453905 38,000 344 430 0
2021-10-04 12:56:37 GMT 43.756821 0.456914 38,000 344 430 64
2021-10-04 12:56:33 GMT 43.748817 0.460183 38,000 344 431 -64
2021-10-04 12:56:31 GMT 43.745911 0.461362 38,000 344 431 0
2021-10-04 12:56:27 GMT 43.737690 0.464696 38,000 344 431 -64
2021-10-04 12:56:25 GMT 43.735035 0.465742 38,000 344 431 0
2021-10-04 12:56:19 GMT 43.722977 0.470624 38,000 344 431 0
2021-10-04 12:56:16 GMT 43.716293 0.473306 38,000 344 431 0
2021-10-04 12:56:12 GMT 43.708237 0.476500 38,000 344 431 0
2021-10-04 12:56:08 GMT 43.701553 0.479183 38,000 344 431 0
2021-10-04 12:56:06 GMT 43.696747 0.481099 38,000 344 431 0
2021-10-04 12:56:02 GMT 43.690624 0.483529 38,000 344 432 0
2021-10-04 12:56:00 GMT 43.686996 0.484995 38,000 344 432 0
2021-10-04 12:55:57 GMT 43.680267 0.487678 38,000 344 431 0
2021-10-04 12:55:54 GMT 43.673168 0.490461 38,000 344 431 -64
2021-10-04 12:55:51 GMT 43.667210 0.492815 38,000 344 431 0
2021-10-04 12:55:47 GMT 43.660507 0.495496 38,000 344 432 -64
2021-10-04 12:55:45 GMT 43.657433 0.496739 38,000 345 432 0
2021-10-04 12:55:38 GMT 43.642864 0.502494 38,000 345 432 0
2021-10-04 12:55:35 GMT 43.638020 0.504390 38,000 345 433 64
2021-10-04 12:55:28 GMT 43.623413 0.510162 38,000 345 432 64
2021-10-04 12:55:24 GMT 43.617260 0.512565 38,000 344 433 64
2021-10-04 12:55:17 GMT 43.604549 0.517600 38,000 344 434 0
2021-10-04 12:55:15 GMT 43.599522 0.519562 38,000 344 434 0
2021-10-04 12:55:09 GMT 43.587559 0.524336 38,000 344 434 0
2021-10-04 12:55:06 GMT 43.583138 0.526036 38,000 344 434 -64
2021-10-04 12:55:04 GMT 43.579239 0.527599 38,000 345 435 -64
2021-10-04 12:54:58 GMT 43.567822 0.532118 38,000 345 435 -128
2021-10-04 12:54:55 GMT 43.560883 0.534817 38,000 345 435 0
2021-10-04 12:54:49 GMT 43.550034 0.539097 38,000 345 435 64
2021-10-04 12:54:45 GMT 43.540970 0.542610 38,000 345 435 0
2021-10-04 12:54:41 GMT 43.535931 0.544608 38,000 345 435 0
2021-10-04 12:54:37 GMT 43.525864 0.548550 38,000 345 435 0
2021-10-04 12:54:34 GMT 43.521790 0.550083 38,000 345 435 0
2021-10-04 12:54:27 GMT 43.506279 0.556117 38,000 345 435 64
2021-10-04 12:54:24 GMT 43.501438 0.558014 38,000 345 436 64
2021-10-04 12:54:19 GMT 43.491009 0.562134 38,000 345 436 64
2021-10-04 12:54:15 GMT 43.478161 0.567169 38,000 344 437 0
2021-10-04 12:54:08 GMT 43.463608 0.572950 38,000 344 438 -64
2021-10-04 12:54:05 GMT 43.463608 0.572950 38,000 344 438 -128
2021-10-04 12:54:02 GMT 43.458755 0.574930 38,000 344 438 -64
2021-10-04 12:53:58 GMT 43.451347 0.577894 38,000 344 438 0
2021-10-04 12:53:55 GMT 43.444595 0.580706 38,000 344 438 0
2021-10-04 12:53:53 GMT 43.440903 0.582275 38,000 344 437 0
2021-10-04 12:53:48 GMT 43.431004 0.586395 38,000 344 437 0
2021-10-04 12:53:45 GMT 43.426163 0.588423 38,000 344 437 0
2021-10-04 12:53:42 GMT 43.419571 0.591154 38,000 344 438 0
2021-10-04 12:53:36 GMT 43.407578 0.596136 38,000 344 438 0
2021-10-04 12:53:32 GMT 43.400391 0.599074 38,000 344 438 0
2021-10-04 12:53:26 GMT 43.388130 0.604117 38,000 344 439 0
2021-10-04 12:53:22 GMT 43.381706 0.606733 38,000 344 439 64
2021-10-04 12:53:15 GMT 43.367691 0.612488 38,000 344 440 64
2021-10-04 12:53:12 GMT 43.361069 0.615171 38,000 344 440 0
2021-10-04 12:53:06 GMT 43.349583 0.619877 38,000 344 440 -192
2021-10-04 12:53:04 GMT 43.345688 0.621430 38,000 344 440 -192
2021-10-04 12:53:01 GMT 43.340607 0.623538 38,000 344 439 0
2021-10-04 12:52:55 GMT 43.328156 0.628584 38,000 344 439 0
2021-10-04 12:52:51 GMT 43.320557 0.631650 38,000 344 439 0
2021-10-04 12:52:45 GMT 43.308517 0.636568 38,000 344 439 0
2021-10-04 12:52:43 GMT 43.305359 0.637796 38,000 344 439 -64
2021-10-04 12:52:40 GMT 43.300331 0.639888 38,000 344 439 -64
2021-10-04 12:52:36 GMT 43.285950 0.645766 38,000 344 439 64
2021-10-04 12:52:33 GMT 43.285950 0.645766 38,000 344 439 64
2021-10-04 12:52:30 GMT 43.280083 0.648128 38,000 344 439 -64
2021-10-04 12:52:24 GMT 43.267044 0.653431 38,000 344 439 0
2021-10-04 12:52:20 GMT 43.260635 0.656050 38,000 344 439 -64
2021-10-04 12:52:16 GMT 43.251892 0.659627 38,000 344 439 0
2021-10-04 12:52:12 GMT 43.244659 0.662501 38,000 344 439 64
2021-10-04 12:52:09 GMT 43.238834 0.664869 38,000 344 439 64
2021-10-04 12:52:06 GMT 43.231201 0.667943 38,000 344 440 0
2021-10-04 12:52:02 GMT 43.225754 0.670102 38,000 344 440 -64
2021-10-04 12:51:59 GMT 43.211700 0.675723 38,000 344 440 -64
2021-10-04 12:51:55 GMT 43.211700 0.675723 38,000 344 440 -64
2021-10-04 12:51:53 GMT 43.207993 0.677192 38,000 344 440 -64
2021-10-04 12:51:50 GMT 43.200760 0.680066 38,000 344 439 -64
2021-10-04 12:51:44 GMT 43.187675 0.685272 38,000 344 439 64
2021-10-04 12:51:39 GMT 43.179657 0.688498 38,000 344 439 0
2021-10-04 12:51:36 GMT 43.173847 0.690831 38,000 344 439 64
2021-10-04 12:51:33 GMT 43.168774 0.692858 38,000 344 439 128
2021-10-04 12:51:29 GMT 43.160202 0.696227 38,000 344 439 0
2021-10-04 12:51:24 GMT 43.145142 0.702231 38,000 344 440 0
2021-10-04 12:51:21 GMT 43.145142 0.702231 38,000 344 440 0
2021-10-04 12:51:18 GMT 43.139305 0.704564 38,000 344 440 0
2021-10-04 12:51:14 GMT 43.133255 0.706983 38,000 344 440 -64
2021-10-04 12:51:12 GMT 43.127205 0.709338 38,000 344 440 -64
2021-10-04 12:51:09 GMT 43.121525 0.711626 38,000 344 440 -64
2021-10-04 12:51:06 GMT 43.115471 0.713981 38,000 344 440 -64
2021-10-04 12:51:03 GMT 43.107464 0.717119 38,000 344 440 -64
2021-10-04 12:50:59 GMT 43.102203 0.719212 38,000 344 439 0
2021-10-04 12:50:55 GMT 43.094376 0.722287 38,000 344 439 0
2021-10-04 12:50:50 GMT 43.084236 0.726275 38,000 344 439 64
2021-10-04 12:50:47 GMT 43.078766 0.728419 38,000 344 439 0
2021-10-04 12:50:42 GMT 43.068035 0.732618 38,000 344 439 0
2021-10-04 12:50:35 GMT 43.050476 0.739533 38,000 345 439 0
2021-10-04 12:50:33 GMT 43.050476 0.739533 38,000 345 439 0
2021-10-04 12:50:29 GMT 43.044434 0.741897 38,000 345 439 64
2021-10-04 12:50:26 GMT 43.038391 0.744260 38,000 345 439 64
2021-10-04 12:50:23 GMT 43.024929 0.749490 38,000 345 439 64
2021-10-04 12:50:19 GMT 43.024929 0.749490 38,000 345 439 64
2021-10-04 12:50:16 GMT 43.018295 0.752116 38,000 345 439 -64
2021-10-04 12:50:13 GMT 43.002136 0.758440 38,000 345 439 -64
2021-10-04 12:50:08 GMT 43.002136 0.758440 38,000 345 438 0
2021-10-04 12:50:06 GMT 42.998611 0.759781 38,000 345 438 0
2021-10-04 12:50:04 GMT 42.983776 0.765512 38,000 345 438 0
2021-10-04 12:49:59 GMT 42.983776 0.765512 38,000 345 438 64
2021-10-04 12:49:54 GMT 42.974808 0.768979 38,000 345 438 0
2021-10-04 12:49:50 GMT 42.968182 0.771528 38,000 345 438 0
2021-10-04 12:49:47 GMT 42.962921 0.773621 38,000 345 439 0
2021-10-04 12:49:44 GMT 42.955124 0.776644 38,000 345 439 -64
2021-10-04 12:49:41 GMT 42.948715 0.779135 38,000 345 438 -64
2021-10-04 12:49:38 GMT 42.943649 0.781076 38,000 345 438 0
2021-10-04 12:49:32 GMT 42.931732 0.785714 38,000 345 438 0
2021-10-04 12:49:29 GMT 42.927246 0.787439 38,000 345 438 64
2021-10-04 12:49:26 GMT 42.920013 0.790185 38,000 345 438 64
2021-10-04 12:49:23 GMT 42.915344 0.791997 38,000 345 439 0
2021-10-04 12:49:17 GMT 42.903053 0.796770 38,000 345 438 0
2021-10-04 12:49:12 GMT 42.893326 0.800563 38,000 345 439 0
2021-10-04 12:49:09 GMT 42.888435 0.802460 38,000 345 438 0
2021-10-04 12:49:06 GMT 42.881790 0.805068 38,000 345 438 0
2021-10-04 12:49:03 GMT 42.875381 0.807559 38,000 345 438 0
2021-10-04 12:49:00 GMT 42.867954 0.810438 38,000 345 438 0
2021-10-04 12:48:56 GMT 42.863068 0.812334 38,000 345 438 0
2021-10-04 12:48:53 GMT 42.855652 0.815160 38,000 345 438 0
2021-10-04 12:48:48 GMT 42.847054 0.818481 38,000 345 439 64
2021-10-04 12:48:45 GMT 42.841419 0.820705 38,000 345 439 64
2021-10-04 12:48:42 GMT 42.835556 0.822953 38,000 345 439 64
2021-10-04 12:48:38 GMT 42.827545 0.826067 38,000 345 439 0
2021-10-04 12:48:36 GMT 42.822845 0.827898 38,000 345 439 0
2021-10-04 12:48:32 GMT 42.813675 0.831512 38,000 345 439 0
2021-10-04 12:48:29 GMT 42.802547 0.835855 38,000 345 439 0
2021-10-04 12:48:25 GMT 42.802547 0.835855 38,000 345 439 0
2021-10-04 12:48:22 GMT 42.796124 0.838346 38,000 345 439 0
2021-10-04 12:48:17 GMT 42.785980 0.842264 38,000 345 439 0
2021-10-04 12:48:15 GMT 42.782639 0.843575 38,000 345 439 0
2021-10-04 12:48:12 GMT 42.775642 0.846267 38,000 345 439 0
2021-10-04 12:48:05 GMT 42.762955 0.851191 38,000 345 439 0
2021-10-04 12:48:01 GMT 42.755722 0.854000 38,000 345 439 64
2021-10-04 12:47:58 GMT 42.748688 0.856742 38,000 345 439 64
2021-10-04 12:47:54 GMT 42.741470 0.859552 38,000 345 439 0
2021-10-04 12:47:51 GMT 42.736584 0.861405 38,000 345 439 0
2021-10-04 12:47:47 GMT 42.728577 0.864535 38,000 345 439 0
2021-10-04 12:47:44 GMT 42.721359 0.867281 38,000 345 439 0
2021-10-04 12:47:41 GMT 42.716263 0.869231 38,000 345 439 0
2021-10-04 12:47:38 GMT 42.710220 0.871603 38,000 345 439 0
2021-10-04 12:47:35 GMT 42.703579 0.874180 38,000 345 439 0
2021-10-04 12:47:30 GMT 42.694565 0.877658 38,000 345 439 0
2021-10-04 12:47:27 GMT 42.689098 0.879737 38,000 345 439 0
2021-10-04 12:47:24 GMT 42.683258 0.882027 38,000 345 439 0
2021-10-04 12:47:20 GMT 42.675598 0.884974 38,000 345 439 64
2021-10-04 12:47:14 GMT 42.663300 0.889705 38,000 345 439 0
2021-10-04 12:47:11 GMT 42.656662 0.892265 38,000 345 439 0
2021-10-04 12:47:08 GMT 42.650230 0.894747 38,000 345 439 0
2021-10-04 12:47:04 GMT 42.642967 0.897557 38,000 345 439 0
2021-10-04 12:46:58 GMT 42.631439 0.902003 38,000 345 439 0
2021-10-04 12:46:51 GMT 42.615360 0.908161 38,000 345 440 0
2021-10-04 12:46:48 GMT 42.611664 0.909618 38,000 345 439 0
2021-10-04 12:46:42 GMT 42.600510 0.913909 38,000 345 439 0
2021-10-04 12:46:38 GMT 42.591888 0.917234 38,000 345 440 0
2021-10-04 12:46:31 GMT 42.579941 0.921853 38,000 345 440 0
2021-10-04 12:46:28 GMT 42.572296 0.924787 38,000 345 440 0
2021-10-04 12:46:21 GMT 42.557419 0.930530 38,000 345 440 0
2021-10-04 12:46:18 GMT 42.552330 0.932497 38,000 345 440 0
2021-10-04 12:46:10 GMT 42.537048 0.938457 38,000 344 441 0
2021-10-04 12:46:07 GMT 42.531189 0.940704 38,000 344 441 0
2021-10-04 12:46:01 GMT 42.520569 0.944824 38,000 344 442 0
2021-10-04 12:45:58 GMT 42.512760 0.947890 38,000 344 442 -64
2021-10-04 12:45:52 GMT 42.502937 0.951659 38,000 344 442 64
2021-10-04 12:45:48 GMT 42.493114 0.955491 38,000 344 442 64
2021-10-04 12:45:40 GMT 42.478546 0.961112 38,000 345 442 0
2021-10-04 12:45:37 GMT 42.472641 0.963364 38,000 345 442 0
2021-10-04 12:45:30 GMT 42.460438 0.968010 38,000 345 442 -64
2021-10-04 12:45:27 GMT 42.452755 0.970949 38,000 345 442 0
2021-10-04 12:45:21 GMT 42.440140 0.975786 38,000 345 442 0
2021-10-04 12:45:16 GMT 42.432274 0.978741 38,000 345 442 0
2021-10-04 12:45:09 GMT 42.416702 0.984712 38,000 345 443 0
2021-10-04 12:45:06 GMT 42.411556 0.986662 38,000 345 443 0
2021-10-04 12:45:01 GMT 42.394005 0.993305 38,000 345 443 0
2021-10-04 12:44:57 GMT 42.394005 0.993305 38,000 345 443 0
2021-10-04 12:44:50 GMT 42.379990 0.998570 38,000 345 443 0
2021-10-04 12:44:47 GMT 42.374081 1.000842 38,000 345 443 0
2021-10-04 12:44:44 GMT 42.369736 1.002440 38,000 345 443 0
2021-10-04 12:44:40 GMT 42.360672 1.005873 38,000 345 443 0
2021-10-04 12:44:37 GMT 42.351013 1.009556 38,000 345 443 0
2021-10-04 12:44:35 GMT 42.351013 1.009556 38,000 345 443 0
2021-10-04 12:44:30 GMT 42.339523 1.013863 38,000 345 443 0
2021-10-04 12:44:27 GMT 42.334625 1.015674 38,000 345 443 0
2021-10-04 12:44:25 GMT 42.330643 1.017172 38,000 345 443 64
2021-10-04 12:44:19 GMT 42.319427 1.021409 38,000 345 443 64
2021-10-04 12:44:16 GMT 42.313477 1.023664 38,000 345 443 0
2021-10-04 12:44:14 GMT 42.309769 1.025099 38,000 345 443 0
2021-10-04 12:44:07 GMT 42.295120 1.030530 38,000 345 443 -64
2021-10-04 12:44:04 GMT 42.289810 1.032528 38,000 345 443 -64
2021-10-04 12:43:57 GMT 42.275574 1.037833 38,000 345 443 0
2021-10-04 12:43:53 GMT 42.268269 1.040571 38,000 345 442 0
2021-10-04 12:43:49 GMT 42.254288 1.045886 38,000 346 443 64
2021-10-04 12:43:46 GMT 42.254288 1.045886 38,000 346 443 64
2021-10-04 12:43:42 GMT 42.246296 1.048556 38,000 347 443 64
2021-10-04 12:43:37 GMT 42.234879 1.052003 38,000 349 445 0
2021-10-04 12:43:30 GMT 42.221970 1.055249 38,000 350 445 0
2021-10-04 12:43:26 GMT 42.214409 1.056795 38,000 353 446 0
2021-10-04 12:43:22 GMT 42.205399 1.058433 38,000 354 447 -64
2021-10-04 12:43:16 GMT 42.191803 1.060181 38,000 356 448 0
2021-10-04 12:43:11 GMT 42.183334 1.060930 38,000 358 448 0
2021-10-04 12:43:07 GMT 42.173206 1.061394 38,000 359 449 0
2021-10-04 12:43:05 GMT 42.170277 1.061458 38,000 0 449 0
2021-10-04 12:42:59 GMT 42.158638 1.061267 38,000 0 450 0
2021-10-04 12:42:56 GMT 42.151154 1.060867 38,000 3 450 0
2021-10-04 12:42:51 GMT 42.141369 1.059989 38,000 5 452 0
2021-10-04 12:42:46 GMT 42.131592 1.058648 38,000 7 452 0
2021-10-04 12:42:40 GMT 42.119385 1.056373 38,000 9 453 -64
2021-10-04 12:42:35 GMT 42.108856 1.053876 38,000 10 454 -64
2021-10-04 12:42:30 GMT 42.097794 1.050663 38,000 13 454 64
2021-10-04 12:42:26 GMT 42.087971 1.047470 38,000 13 455 64
2021-10-04 12:42:16 GMT 42.066330 1.040330 38,000 13 455 -64
2021-10-04 12:42:05 GMT 42.046921 1.033963 38,000 13 455 64
2021-10-04 12:41:58 GMT 42.033188 1.029469 38,000 13 455 64
2021-10-04 12:41:55 GMT 42.026047 1.027097 38,000 13 455 0
2021-10-04 12:41:46 GMT 42.007874 1.021104 38,000 13 455 0
2021-10-04 12:41:44 GMT 42.004807 1.020106 38,000 13 455 0
2021-10-04 12:41:35 GMT 41.983135 1.012978 38,000 13 455 0
2021-10-04 12:41:26 GMT 41.966354 1.007496 38,000 13 455 -64
2021-10-04 12:41:24 GMT 41.962467 1.006207 38,000 13 455 -64
2021-10-04 12:41:17 GMT 41.948181 1.001566 38,000 13 454 0
2021-10-04 12:41:14 GMT 41.941864 0.999506 38,000 13 454 0
2021-10-04 12:41:05 GMT 41.924332 0.993763 38,000 13 454 0
2021-10-04 12:41:03 GMT 41.921265 0.992765 38,000 13 454 0
2021-10-04 12:40:55 GMT 41.903915 0.987084 38,000 13 454 0
2021-10-04 12:40:53 GMT 41.880070 0.979252 38,000 13 454 64
2021-10-04 12:40:44 GMT 41.880070 0.979252 38,000 13 454 64
2021-10-04 12:40:35 GMT 41.862144 0.973376 38,000 13 454 -64
2021-10-04 12:40:32 GMT 41.857224 0.971791 38,000 13 454 -64
2021-10-04 12:40:24 GMT 41.840515 0.966297 38,000 13 453 -64
2021-10-04 12:40:21 GMT 41.834198 0.964238 38,000 13 453 -64
2021-10-04 12:40:18 GMT 41.828072 0.962198 38,000 13 453 -64
2021-10-04 12:40:15 GMT 41.821564 0.960118 38,000 13 452 0
2021-10-04 12:40:12 GMT 41.816666 0.958493 38,000 13 452 0
2021-10-04 12:40:09 GMT 41.810799 0.956641 38,000 13 452 0
2021-10-04 12:40:04 GMT 41.800827 0.953376 38,000 13 450 64
2021-10-04 12:40:02 GMT 41.796555 0.952042 38,000 13 451 0
2021-10-04 12:39:55 GMT 41.781509 0.947196 38,000 13 450 64
2021-10-04 12:39:53 GMT 41.775467 0.945207 38,000 13 450 64
2021-10-04 12:39:43 GMT 41.756844 0.939203 38,000 13 449 0
2021-10-04 12:39:40 GMT 41.736603 0.932652 38,000 13 449 0
2021-10-04 12:39:33 GMT 41.736603 0.932652 38,000 13 449 0
2021-10-04 12:39:28 GMT 41.726486 0.929406 38,000 13 449 0
2021-10-04 12:39:25 GMT 41.720440 0.927450 38,000 13 449 64
2021-10-04 12:39:22 GMT 41.714577 0.925534 38,000 13 449 0
2021-10-04 12:39:18 GMT 41.705078 0.922532 38,000 13 449 0
2021-10-04 12:39:11 GMT 41.692928 0.918636 38,000 13 449 0
2021-10-04 12:39:08 GMT 41.686691 0.916656 38,000 13 449 64
2021-10-04 12:39:03 GMT 41.676819 0.913488 38,000 13 449 0
2021-10-04 12:39:01 GMT 41.670723 0.911482 38,000 13 449 0
2021-10-04 12:38:50 GMT 41.629349 0.898132 38,000 13 449 -64
2021-10-04 12:38:40 GMT 41.629349 0.898132 38,000 13 449 0
2021-10-04 12:38:36 GMT 41.622868 0.896024 38,000 13 449 0
2021-10-04 12:38:30 GMT 41.602104 0.889318 38,000 13 449 0
2021-10-04 12:38:26 GMT 41.602104 0.889318 38,000 13 449 0
2021-10-04 12:38:19 GMT 41.579681 0.881965 38,000 13 450 0
2021-10-04 12:38:15 GMT 41.579681 0.881965 38,000 13 450 0
2021-10-04 12:38:11 GMT 41.561699 0.876032 38,000 13 450 64
2021-10-04 12:38:06 GMT 41.561699 0.876032 38,000 13 450 64
2021-10-04 12:37:59 GMT 41.547592 0.871433 38,000 13 449 64
2021-10-04 12:37:51 GMT 41.531021 0.866047 38,000 13 450 0
2021-10-04 12:37:47 GMT 41.522690 0.863363 38,000 13 450 0
2021-10-04 12:37:44 GMT 41.516418 0.861303 38,000 13 450 0
2021-10-04 12:37:39 GMT 41.507904 0.858557 38,000 13 450 -64
2021-10-04 12:37:35 GMT 41.497784 0.855273 38,000 13 450 0
2021-10-04 12:37:29 GMT 41.487442 0.851940 38,000 13 450 0
2021-10-04 12:37:25 GMT 41.477718 0.848822 38,000 13 450 0
2021-10-04 12:37:20 GMT 41.467197 0.845436 38,000 13 450 0
2021-10-04 12:37:14 GMT 41.456257 0.841859 38,000 13 450 0
2021-10-04 12:37:08 GMT 41.444321 0.838020 38,000 13 450 -64
2021-10-04 12:37:00 GMT 41.428513 0.832917 38,000 13 450 0
2021-10-04 12:36:57 GMT 41.423035 0.831091 38,000 13 450 0
2021-10-04 12:36:53 GMT 41.413521 0.828063 38,000 13 451 0
2021-10-04 12:36:48 GMT 41.403980 0.824997 38,000 13 451 0
2021-10-04 12:36:44 GMT 41.394653 0.821977 38,000 13 451 0
2021-10-04 12:36:39 GMT 41.373917 0.815308 38,000 13 452 0
2021-10-04 12:36:33 GMT 41.373917 0.815308 38,000 13 452 -64
2021-10-04 12:36:29 GMT 41.364349 0.812195 38,000 13 452 -64
2021-10-04 12:36:23 GMT 41.352772 0.808494 38,000 13 452 0
2021-10-04 12:36:16 GMT 41.337936 0.803772 38,000 13 451 -128
2021-10-04 12:36:08 GMT 41.322647 0.798889 38,000 13 452 -64
2021-10-04 12:36:03 GMT 41.309479 0.794699 38,000 13 451 -128
2021-10-04 12:35:58 GMT 41.301937 0.792326 38,025 13 451 -64
2021-10-04 12:35:47 GMT 41.280853 0.785645 38,000 13 451 64
2021-10-04 12:35:38 GMT 41.260757 0.779358 38,000 13 449 64
2021-10-04 12:35:26 GMT 41.237507 0.771914 38,000 13 449 0
2021-10-04 12:35:16 GMT 41.216469 0.765235 38,000 13 450 -64
2021-10-04 12:35:05 GMT 41.194447 0.758306 38,000 13 449 0
2021-10-04 12:34:58 GMT 41.180668 0.753999 38,000 13 449 0
2021-10-04 12:34:55 GMT 41.172382 0.751377 38,000 13 449 -64
2021-10-04 12:34:46 GMT 41.155838 0.746155 38,000 13 449 -64
2021-10-04 12:34:43 GMT 41.149757 0.744199 38,000 13 448 -64
2021-10-04 12:34:36 GMT 41.136444 0.740017 38,000 13 448 64
2021-10-04 12:34:31 GMT 41.126587 0.736877 38,000 13 448 0
2021-10-04 12:34:28 GMT 41.120361 0.734863 38,000 13 448 64
2021-10-04 12:34:24 GMT 41.112076 0.732239 38,000 13 448 0
2021-10-04 12:34:15 GMT 41.093765 0.726440 38,000 13 447 -64
2021-10-04 12:34:11 GMT 41.085327 0.723787 38,000 13 447 0
2021-10-04 12:34:04 GMT 41.071644 0.719417 38,000 13 447 64
2021-10-04 12:33:54 GMT 41.049088 0.712158 38,000 13 448 64
2021-10-04 12:33:43 GMT 41.030136 0.706116 38,000 13 448 -64
2021-10-04 12:33:35 GMT 41.003906 0.697510 38,000 13 449 -64
2021-10-04 12:33:24 GMT 40.991199 0.693387 38,000 13 448 0
2021-10-04 12:33:13 GMT 40.969273 0.686271 38,000 13 448 0
2021-10-04 12:33:02 GMT 40.946091 0.678905 38,000 13 448 0
2021-10-04 12:32:54 GMT 40.927963 0.673157 38,000 13 448 64
2021-10-04 12:32:43 GMT 40.908569 0.666982 38,000 13 449 0
2021-10-04 12:32:32 GMT 40.886364 0.659929 38,000 13 449 0
2021-10-04 12:32:23 GMT 40.867184 0.653811 38,000 13 450 64
2021-10-04 12:32:11 GMT 40.843304 0.646258 38,000 13 449 -64
2021-10-04 12:32:02 GMT 40.825699 0.640686 38,000 13 449 0
2021-10-04 12:31:52 GMT 40.805557 0.634277 38,000 13 448 0
2021-10-04 12:31:42 GMT 40.785599 0.627991 38,000 13 448 64
2021-10-04 12:31:31 GMT 40.763794 0.621164 37,975 13 449 64
2021-10-04 12:31:21 GMT 40.743820 0.614922 38,000 13 449 -128
2021-10-04 12:31:10 GMT 40.720963 0.607727 38,025 13 449 64
2021-10-04 12:31:01 GMT 40.702560 0.601929 38,000 13 450 64
2021-10-04 12:30:49 GMT 40.678070 0.594238 38,000 13 450 0
2021-10-04 12:30:40 GMT 40.659988 0.588623 38,000 13 451 0
2021-10-04 12:30:31 GMT 40.641361 0.582775 38,000 13 451 0
2021-10-04 12:30:20 GMT 40.619431 0.575928 38,000 13 451 0
2021-10-04 12:30:08 GMT 40.595646 0.568480 38,000 13 452 0
2021-10-04 12:29:58 GMT 40.575722 0.562238 38,000 13 452 64
2021-10-04 12:29:48 GMT 40.553703 0.555371 38,000 13 453 0
2021-10-04 12:29:37 GMT 40.531918 0.548505 38,000 13 453 -64
2021-10-04 12:29:28 GMT 40.502541 0.539329 38,000 13 453 0
2021-10-04 12:29:19 GMT 40.494396 0.536770 38,000 13 453 -64
2021-10-04 12:29:09 GMT 40.474411 0.530518 38,000 13 453 64
2021-10-04 12:29:06 GMT 40.468468 0.528655 38,000 13 453 64
2021-10-04 12:29:00 GMT 40.455643 0.524658 38,000 13 453 0
2021-10-04 12:28:57 GMT 40.449738 0.522766 38,000 13 453 0
2021-10-04 12:28:48 GMT 40.431362 0.516982 38,000 13 453 0
2021-10-04 12:28:38 GMT 40.411835 0.510742 38,000 13 453 0
2021-10-04 12:28:29 GMT 40.392677 0.504684 38,000 13 454 0
2021-10-04 12:28:19 GMT 40.372055 0.498068 38,000 13 454 0
2021-10-04 12:28:08 GMT 40.350220 0.491089 38,000 13 455 64
2021-10-04 12:27:57 GMT 40.328529 0.484210 38,000 13 455 0
2021-10-04 12:27:48 GMT 40.309071 0.478030 38,000 13 457 0
2021-10-04 12:27:36 GMT 40.285049 0.470352 38,000 13 458 0
2021-10-04 12:27:27 GMT 40.265919 0.464172 38,000 13 459 0
2021-10-04 12:27:17 GMT 40.245667 0.457703 38,000 13 459 0
2021-10-04 12:27:07 GMT 40.224205 0.450752 38,000 13 460 0
2021-10-04 12:26:56 GMT 40.201443 0.443511 38,000 13 461 -64
2021-10-04 12:26:46 GMT 40.181534 0.437195 38,000 13 461 -64
2021-10-04 12:26:36 GMT 40.160011 0.430402 38,000 13 460 64
2021-10-04 12:26:25 GMT 40.137405 0.423523 38,000 13 460 0
2021-10-04 12:26:15 GMT 40.117554 0.416919 38,000 15 462 -256
2021-10-04 12:26:04 GMT 40.094055 0.407593 37,975 17 462 704
2021-10-04 12:25:55 GMT 40.077801 0.399628 37,925 23 464 448
2021-10-04 12:25:46 GMT 40.049561 0.383240 37,725 24 461 448
2021-10-04 12:25:29 GMT 40.026917 0.370040 37,725 24 461 448
2021-10-04 12:25:25 GMT 40.018772 0.365233 37,700 24 460 256
2021-10-04 12:25:09 GMT 39.987255 0.346818 37,675 24 455 192
2021-10-04 12:25:01 GMT 39.962540 0.332520 37,600 23 453 320
2021-10-04 12:24:51 GMT 39.952789 0.326843 36,825 24 452 384
2021-10-04 12:24:40 GMT 39.932369 0.315108 37,500 23 450 320
2021-10-04 12:24:36 GMT 39.908211 0.301208 36,825 23 448 576
2021-10-04 12:24:28 GMT 39.908211 0.301208 37,400 23 448 512
2021-10-04 12:24:24 GMT 39.902344 0.297791 37,375 23 448 512
2021-10-04 12:24:15 GMT 39.884003 0.287170 37,275 24 447 832
2021-10-04 12:24:07 GMT 39.868927 0.278300 37,150 24 447 960
2021-10-04 12:23:57 GMT 39.849884 0.267075 37,000 24 447 832
2021-10-04 12:23:45 GMT 39.828186 0.254272 36,725 24 447 1088
2021-10-04 12:23:40 GMT 39.817852 0.248108 36,800 24 447 960
2021-10-04 12:23:36 GMT 39.810654 0.243849 36,575 24 448 1216
2021-10-04 12:23:33 GMT 39.803329 0.239430 36,575 24 448 1216
2021-10-04 12:23:26 GMT 39.791199 0.232265 36,450 24 449 1088
2021-10-04 12:23:16 GMT 39.772476 0.221219 36,125 24 450 1216
2021-10-04 12:23:12 GMT 39.764740 0.216622 36,125 24 450 1216
2021-10-04 12:23:05 GMT 39.752197 0.209278 36,025 24 450 1216
2021-10-04 12:22:59 GMT 39.740295 0.202209 35,900 24 450 1152
2021-10-04 12:22:55 GMT 39.732521 0.197571 35,825 24 450 1088
2021-10-04 12:22:44 GMT 39.713058 0.185932 35,525 24 451 1280
2021-10-04 12:22:40 GMT 39.705276 0.181274 35,525 24 451 1280
2021-10-04 12:22:33 GMT 39.691833 0.173218 35,375 24 451 1472
2021-10-04 12:22:23 GMT 39.672050 0.161377 35,100 24 453 1664
2021-10-04 12:22:13 GMT 39.652542 0.149868 34,825 24 455 1728
2021-10-04 12:22:03 GMT 39.633499 0.138762 34,525 24 457 1792
2021-10-04 12:21:54 GMT 39.617249 0.129388 34,275 24 458 1792
2021-10-04 12:21:50 GMT 39.609669 0.125000 34,175 24 460 1600
2021-10-04 12:21:42 GMT 39.594120 0.116028 33,675 24 463 1664
2021-10-04 12:21:28 GMT 39.556973 0.094604 33,425 23 465 1408
2021-10-04 12:21:21 GMT 39.551651 0.091533 33,375 23 465 1344
2021-10-04 12:21:10 GMT 39.531784 0.080129 33,125 23 465 1472
2021-10-04 12:21:00 GMT 39.510746 0.068115 32,875 23 465 1408
2021-10-04 12:20:50 GMT 39.490585 0.056723 32,250 23 466 1600
2021-10-04 12:20:40 GMT 39.471222 0.045776 32,375 23 466 1600
2021-10-04 12:20:28 GMT 39.437210 0.026630 31,925 23 467 1536
2021-10-04 12:20:18 GMT 39.428101 0.021435 31,800 23 467 1664
2021-10-04 12:20:07 GMT 39.405308 0.009277 31,500 20 467 1472
2021-10-04 12:19:57 GMT 39.375732 -0.002687 31,125 17 465 1472
2021-10-04 12:19:48 GMT 39.367504 -0.005981 31,025 17 465 1472
2021-10-04 12:19:38 GMT 39.345749 -0.014748 30,800 17 465 1216
2021-10-04 12:19:28 GMT 39.314026 -0.027526 30,525 17 462 1152
2021-10-04 12:19:17 GMT 39.302795 -0.032043 30,425 17 460 832
2021-10-04 12:19:06 GMT 39.281757 -0.040710 30,225 17 458 1344
2021-10-04 12:18:56 GMT 39.261612 -0.049200 30,025 18 456 1152
2021-10-04 12:18:46 GMT 39.240601 -0.058156 29,775 18 455 1280
2021-10-04 12:18:36 GMT 39.220634 -0.066772 29,575 18 453 1408
2021-10-04 12:18:25 GMT 39.199730 -0.075806 29,300 18 453 1536
2021-10-04 12:18:14 GMT 39.177479 -0.085388 29,025 18 453 1664
2021-10-04 12:18:04 GMT 39.157654 -0.094100 28,750 18 452 1536
2021-10-04 12:17:54 GMT 39.117645 -0.111834 27,925 19 451 1792
2021-10-04 12:17:44 GMT 39.117645 -0.111834 28,175 19 452 1856
2021-10-04 12:17:34 GMT 39.098293 -0.120422 27,750 19 451 1344
2021-10-04 12:17:26 GMT 39.080322 -0.128418 27,700 19 449 1536
2021-10-04 12:17:23 GMT 39.076786 -0.130005 27,650 18 449 1600
2021-10-04 12:17:13 GMT 39.057747 -0.138367 27,425 18 447 1536
2021-10-04 12:17:05 GMT 39.040329 -0.146047 27,175 19 446 1600
2021-10-04 12:17:02 GMT 39.036209 -0.147897 27,125 18 446 1536
2021-10-04 12:16:55 GMT 39.020832 -0.154663 26,925 19 444 1472
2021-10-04 12:16:52 GMT 39.016361 -0.156677 26,875 19 444 1472
2021-10-04 12:16:42 GMT 38.996979 -0.165213 26,625 19 442 1536
2021-10-04 12:16:32 GMT 38.977890 -0.173691 26,375 19 440 1536
2021-10-04 12:16:22 GMT 38.957893 -0.182495 26,100 19 438 1600
2021-10-04 12:16:10 GMT 38.925026 -0.197083 25,625 19 436 1792
2021-10-04 12:16:02 GMT 38.918884 -0.199784 25,525 19 436 1728
2021-10-04 12:15:51 GMT 38.899097 -0.208557 25,225 19 435 1920
2021-10-04 12:15:39 GMT 38.865738 -0.223369 24,700 19 431 1536
2021-10-04 12:15:30 GMT 38.860039 -0.225891 24,625 19 431 1408
2021-10-04 12:15:20 GMT 38.840698 -0.234415 24,375 19 427 1600
2021-10-04 12:15:10 GMT 38.821518 -0.242893 23,975 18 421 1408
2021-10-04 12:15:02 GMT 38.806366 -0.249581 23,925 18 420 1344
2021-10-04 12:14:59 GMT 38.802315 -0.251343 23,900 18 419 1152
2021-10-04 12:14:51 GMT 38.786728 -0.258119 23,800 18 413 448
2021-10-04 12:14:46 GMT 38.774849 -0.263306 23,750 18 411 576
2021-10-04 12:14:39 GMT 38.756012 -0.271374 23,675 18 393 640
2021-10-04 12:14:30 GMT 38.750084 -0.273987 23,625 18 396 576
2021-10-04 12:14:27 GMT 38.743984 -0.276611 23,600 18 393 640
2021-10-04 12:14:21 GMT 38.728436 -0.283325 23,525 18 387 384
2021-10-04 12:14:18 GMT 38.728436 -0.283325 23,525 18 385 448
2021-10-04 12:14:11 GMT 38.716007 -0.288757 23,175 19 378 3328
2021-10-04 12:14:08 GMT 38.711864 -0.290527 23,275 19 389 3840
2021-10-04 12:14:01 GMT 38.699387 -0.296034 22,875 19 382 3840
2021-10-04 12:13:58 GMT 38.685932 -0.301941 22,375 19 389 3840
2021-10-04 12:13:50 GMT 38.682350 -0.303528 22,250 19 391 3776
2021-10-04 12:13:46 GMT 38.675365 -0.306641 22,050 19 397 3712
2021-10-04 12:13:41 GMT 38.664322 -0.311498 21,475 19 397 3712
2021-10-04 12:13:37 GMT 38.659771 -0.313477 21,400 19 398 3712
2021-10-04 12:13:30 GMT 38.646103 -0.319439 20,925 18 402 3776
2021-10-04 12:13:27 GMT 38.641342 -0.321529 20,750 18 405 3840
2021-10-04 12:13:19 GMT 38.627792 -0.327440 20,300 18 409 3328
2021-10-04 12:13:16 GMT 38.622810 -0.329651 20,150 19 409 3136
2021-10-04 12:13:09 GMT 38.610077 -0.335202 19,825 18 409 2496
2021-10-04 12:13:06 GMT 38.604858 -0.337471 19,700 18 407 2112
2021-10-04 12:13:03 GMT 38.599487 -0.339783 19,600 18 406 2048
2021-10-04 12:12:56 GMT 38.586868 -0.345293 19,375 18 403 1984
2021-10-04 12:12:50 GMT 38.573650 -0.351013 19,075 18 399 2368
2021-10-04 12:12:46 GMT 38.568420 -0.353294 18,975 18 399 2432
2021-10-04 12:12:39 GMT 38.556885 -0.358369 18,575 19 396 2560
2021-10-04 12:12:36 GMT 38.550797 -0.360996 18,550 18 396 2560
2021-10-04 12:12:28 GMT 38.537109 -0.367027 18,200 19 394 2624
2021-10-04 12:12:25 GMT 38.532639 -0.369019 18,100 18 393 2688
2021-10-04 12:12:19 GMT 38.519554 -0.374756 17,750 19 392 2624
2021-10-04 12:12:15 GMT 38.515091 -0.376700 17,650 19 391 2496
2021-10-04 12:12:08 GMT 38.502937 -0.382019 17,350 19 388 2496
2021-10-04 12:12:04 GMT 38.497147 -0.384581 17,200 19 388 2496
2021-10-04 12:11:57 GMT 38.481895 -0.391235 16,825 18 385 2432
2021-10-04 12:11:54 GMT 38.479706 -0.392224 16,775 18 385 2432
2021-10-04 12:11:47 GMT 38.467255 -0.397598 16,475 18 381 2560
2021-10-04 12:11:44 GMT 38.462902 -0.399475 16,375 18 381 2560
2021-10-04 12:11:37 GMT 38.450409 -0.405061 15,950 23 381 2816
2021-10-04 12:11:34 GMT 38.445538 -0.407654 15,550 25 381 2880
2021-10-04 12:11:27 GMT 38.432831 -0.416585 15,500 35 384 2816
2021-10-04 12:11:24 GMT 38.430222 -0.418973 15,425 36 384 2816
2021-10-04 12:11:16 GMT 38.419418 -0.431034 14,975 49 385 2432
2021-10-04 12:11:13 GMT 38.416397 -0.435274 14,950 50 385 2432
2021-10-04 12:11:10 GMT 38.412964 -0.440767 14,825 55 385 2880
2021-10-04 12:11:06 GMT 38.408764 -0.448648 14,625 60 385 3008
2021-10-04 12:11:03 GMT 38.406200 -0.454320 14,475 62 386 2880
2021-10-04 12:11:00 GMT 38.402664 -0.464231 14,250 68 385 2624
2021-10-04 12:10:55 GMT 38.400475 -0.472651 14,075 79 383 2816
2021-10-04 12:10:52 GMT 38.399590 -0.477010 13,675 81 382 3008
2021-10-04 12:10:49 GMT 38.398178 -0.486087 13,800 81 382 2944
2021-10-04 12:10:46 GMT 38.397629 -0.490528 13,525 81 381 3008
2021-10-04 12:10:40 GMT 38.396027 -0.504787 13,375 81 380 2688
2021-10-04 12:10:35 GMT 38.394611 -0.517432 13,125 81 379 2560
2021-10-04 12:10:32 GMT 38.394142 -0.521851 12,500 82 366 3392
2021-10-04 12:10:25 GMT 38.392422 -0.537196 12,725 81 374 2816
2021-10-04 12:10:22 GMT 38.391582 -0.544420 12,575 81 373 2752
2021-10-04 12:10:17 GMT 38.390396 -0.555043 12,350 81 372 2432
2021-10-04 12:10:14 GMT 38.389801 -0.560244 12,175 81 371 2112
2021-10-04 12:10:11 GMT 38.389069 -0.566731 12,175 81 369 1984
2021-10-04 12:10:04 GMT 38.387348 -0.582395 11,850 81 366 3136
2021-10-04 12:10:01 GMT 38.386696 -0.588007 11,700 82 366 3392
2021-10-04 12:09:57 GMT 38.385544 -0.598463 11,450 82 367 3520
2021-10-04 12:09:54 GMT 38.384926 -0.604009 11,300 82 367 3456
2021-10-04 12:09:50 GMT 38.383713 -0.615176 11,025 82 368 2752
2021-10-04 12:09:45 GMT 38.382645 -0.624788 10,850 81 365 1792
2021-10-04 12:09:39 GMT 38.381424 -0.635863 10,750 82 360 960
2021-10-04 12:09:35 GMT 38.380409 -0.645268 10,675 82 353 832
2021-10-04 12:09:29 GMT 38.378723 -0.661342 10,550 82 345 960
2021-10-04 12:09:24 GMT 38.377945 -0.668296 10,500 82 338 960
2021-10-04 12:09:19 GMT 38.376846 -0.678464 10,400 82 332 1216
2021-10-04 12:09:14 GMT 38.376022 -0.686003 10,325 82 326 1216
2021-10-04 12:09:09 GMT 38.374825 -0.697512 10,225 81 310 832
2021-10-04 12:09:04 GMT 38.373871 -0.706105 10,150 82 316 960
2021-10-04 12:08:58 GMT 38.372864 -0.715339 10,075 81 307 832
2021-10-04 12:08:53 GMT 38.371811 -0.724221 10,000 81 301 960
2021-10-04 12:08:48 GMT 38.370529 -0.733337 9,875 77 292 1408
2021-10-04 12:08:44 GMT 38.369064 -0.740233 9,775 69 285 2240
2021-10-04 12:08:39 GMT 38.366074 -0.748921 9,525 59 280 2752
2021-10-04 12:08:33 GMT 38.362209 -0.756027 9,375 53 278 2880
2021-10-04 12:08:29 GMT 38.358624 -0.760923 9,050 42 275 3072
2021-10-04 12:08:25 GMT 38.354874 -0.764777 8,875 34 272 2880
2021-10-04 12:08:23 GMT 38.352905 -0.766413 8,775 30 271 2752
2021-10-04 12:08:19 GMT 38.348145 -0.769569 8,600 20 266 2560
2021-10-04 12:08:13 GMT 38.341187 -0.772374 8,325 11 261 2816
2021-10-04 12:08:07 GMT 38.334778 -0.773484 8,075 0 256 2688
2021-10-04 12:08:03 GMT 38.324158 -0.771906 7,775 353 252 2560
2021-10-04 12:07:58 GMT 38.324158 -0.771906 7,675 344 246 2624
2021-10-04 12:07:53 GMT 38.318573 -0.769452 7,425 335 242 3200
2021-10-04 12:07:45 GMT 38.311249 -0.763784 7,025 320 240 2816
2021-10-04 12:07:43 GMT 38.309189 -0.761388 6,925 315 239 2688
2021-10-04 12:07:37 GMT 38.305573 -0.755953 6,700 304 236 2816
2021-10-04 12:07:34 GMT 38.303833 -0.752444 6,550 294 235 2816
2021-10-04 12:07:32 GMT 38.302437 -0.748862 6,425 294 235 2816
2021-10-04 12:07:27 GMT 38.300995 -0.743070 6,225 282 233 2688
2021-10-04 12:07:23 GMT 38.299969 -0.735069 5,950 278 232 2624
2021-10-04 12:07:14 GMT 38.298935 -0.724922 5,675 278 229 2240
2021-10-04 12:07:11 GMT 38.298618 -0.721754 5,575 277 227 2240
2021-10-04 12:07:04 GMT 38.297836 -0.712650 5,325 277 223 2304
2021-10-04 12:07:02 GMT 38.297455 -0.708738 5,200 277 219 2176
2021-10-04 12:06:55 GMT 38.296757 -0.700319 4,975 277 216 2048
2021-10-04 12:06:51 GMT 38.296280 -0.694652 4,875 276 213 2112
2021-10-04 12:06:45 GMT 38.295780 -0.687780 4,600 276 208 2560
2021-10-04 12:06:38 GMT 38.295219 -0.679719 4,275 275 206 3264
2021-10-04 12:06:35 GMT 38.294952 -0.675834 4,075 275 206 3648
2021-10-04 12:06:32 GMT 38.294678 -0.670867 3,825 275 210 3392
2021-10-04 12:06:25 GMT 38.294243 -0.663120 3,450 275 210 3392
2021-10-04 12:06:22 GMT 38.294037 -0.659647 3,200 278 205 1216
2021-10-04 12:06:15 GMT 38.293396 -0.651232 2,875 276 213 3136
2021-10-04 12:06:12 GMT 38.292892 -0.645745 2,550 278 205 1216
2021-10-04 12:06:05 GMT 38.292206 -0.638551 2,550 278 204 1280
2021-10-04 12:05:54 GMT 38.290985 -0.626698 2,200 278 196 2368
2021-10-04 12:05:50 GMT 38.290424 -0.621026 2,075 278 190 640
2021-10-04 12:05:45 GMT 38.289867 -0.615593 2,025 278 179 1088
2021-10-04 12:05:44 GMT 38.289688 -0.613598 1,975 278 176 1216
2021-10-04 12:05:42 GMT 38.289539 -0.612488 1,950 278 176 1216
2021-10-04 12:05:39 GMT 38.289215 -0.609502 1,900 279 171 1408
2021-10-04 12:05:36 GMT 38.288982 -0.607413 1,825 279 169 1728
2021-10-04 12:05:35 GMT 38.288818 -0.606235 1,800 279 168 1856
2021-10-04 12:05:32 GMT 38.288239 -0.601561 1,600 281 166 3264
2021-10-04 12:05:30 GMT 38.288132 -0.600742 1,550 281 166 3264
2021-10-04 12:05:29 GMT 38.288006 -0.599770 1,500 281 167 3328
2021-10-04 12:05:27 GMT 38.287727 -0.597800 1,400 281 168 2944
2021-10-04 12:05:26 GMT 38.287586 -0.596844 1,350 281 169 2880
2021-10-04 12:05:23 GMT 38.287125 -0.593729 1,200 280 169 2560
2021-10-04 12:05:22 GMT 38.286888 -0.591769 1,125 280 168 2240
2021-10-04 12:05:19 GMT 38.286713 -0.590690 1,075 281 167 2176
2021-10-04 12:05:18 GMT 38.286484 -0.588820 1,000 281 166 2176
2021-10-04 12:05:17 GMT 38.286346 -0.587827 975 281 165 2048
2021-10-04 12:05:15 GMT 38.286049 -0.585738 900 281 165 1920
2021-10-04 12:05:13 GMT 38.285912 -0.584783 850 281 163 2048
2021-10-04 12:05:12 GMT 38.285629 -0.582813 775 281 161 2112
2021-10-04 12:05:10 GMT 38.285339 -0.580990 725 281 160 1856
2021-10-04 12:05:08 GMT 38.285118 -0.579350 675 281 159 1920
2021-10-04 12:05:07 GMT 38.284981 -0.578394 625 281 159 1856
2021-10-04 12:05:03 GMT 38.284515 -0.575170 500 280 156 2240
2021-10-04 12:04:52 GMT 38.283188 -0.565387 75 281 158 2048
2021-10-04 12:04:42 GMT 38.281952 -0.556661 -50 281 136 128
2021-10-04 12:04:32 GMT 38.280945 -0.549492 -50 280 102 64
2021-10-04 12:04:22 GMT 38.280266 -0.544555 0 281 63
2021-10-04 12:04:11 GMT 38.279926 -0.542041 0 275 15
2021-10-04 12:04:01 GMT 38.280033 -0.541375 0 210 11
2021-10-04 12:03:51 GMT 38.280510 -0.541164 0 191 11
2021-10-04 12:03:41 GMT 38.281010 -0.541062 0 188 12
2021-10-04 12:03:30 GMT 38.281506 -0.541223 0 120 12
2021-10-04 12:03:20 GMT 38.281708 -0.542077 0 98 21
2021-10-04 12:03:10 GMT 38.281860 -0.543195 0 101 19
2021-10-04 12:03:00 GMT 38.282032 -0.544422 0 98 24
2021-10-04 12:02:49 GMT 38.282223 -0.545809 0 98 25
2021-10-04 12:02:39 GMT 38.282421 -0.547256 0 101 24
2021-10-04 12:02:29 GMT 38.282616 -0.548645 0 98 23
2021-10-04 12:02:18 GMT 38.282791 -0.549899 0 98 19
2021-10-04 12:02:08 GMT 38.282944 -0.550914 0 98 16
2021-10-04 12:01:57 GMT 38.283051 -0.551771 0 120 14
2021-10-04 12:01:48 GMT 38.283463 -0.552078 0 205 10
2021-10-04 12:01:36 GMT 38.283875 -0.551610 0 205 11
2021-10-04 12:01:21 GMT 38.284378 -0.551829 0 101 10
2021-10-04 12:01:16 GMT 38.284424 -0.552121 0 98 11
2021-10-04 12:01:02 GMT 38.284561 -0.553100 0 98 12
2021-10-04 12:00:56 GMT 38.284618 -0.553480 0 98 11
2021-10-04 12:00:46 GMT 38.284687 -0.554004 0 98 8
2021-10-04 11:58:59 GMT 38.284760 -0.554481 0 101 0
2021-10-04 11:58:24 GMT 38.284756 -0.554474 0 101 0
2021-10-04 11:58:22 GMT 38.284756 -0.554459 0 101 2
2021-10-04 11:58:10 GMT 38.284760 -0.554332 0 92 2
2021-10-04 11:58:00 GMT 38.284782 -0.554257 0 73 2
2021-10-04 11:57:51 GMT 38.284840 -0.554198 0 53 3
2021-10-04 11:57:40 GMT 38.284939 -0.554123 0 33 3
2021-10-04 11:57:30 GMT 38.285053 -0.554108 0 14 3
2021-10-04 11:57:18 GMT 38.285191 -0.554093 0 8 3
2021-10-04 11:57:08 GMT 38.285305 -0.554063 0 8 3
2021-10-04 11:56:58 GMT 38.285431 -0.554035 0 11 3

Making use of Plane Finder data

You are free to use the raw flight data, aircraft information and images provided in this report for your own purposes provided the data is correctly attributed to Plane Finder. We ask that you please credit Plane Finder and link to planefinder.net in close proximity to the content.

Optionally one of the following logos (no smaller then 150x24px) can be used and must link to planefinder.net

Embedding the Plane Finder map

You are welcome to embed the Plane Finder playback map on your website to offer visitors a more interactive experience. We suggest using the following HTML code:

<iframe src="//planefinder.net/data/report/LS776-G-DRTW-7700-squawk-2021-10-04/map" width="800" height="600" seamless="seamless"></iframe>

Where our data comes from

Plane Finder has a global network of data feeds and antenna radars that receive data broadcast directly from aircraft. The primary technologies used are ADS-B and MLAT. We also show feeds from the FAA and a FLARM glider feed.

Click here to find out more about the Plane Finder network.

How we collect our data